<?xml version="1.0" encoding="UTF-8" standalone="no" ?>
<gpx xmlns="http://www.topografix.com/GPX/1/1" xmlns:xsi="http://www.w3.org/2001/XMLSchema-instance" xsi:schemaLocation="http://www.topografix.com/GPX/1/1 http://www.topografix.com/GPX/1/1/gpx.xsd" version="1.1" creator="VisuGPX - https://www.visugpx.com">
  <metadata>
    <name>Circuit Masseube</name>
    <desc><![CDATA[Petit circuit autour de Masseube (32) empruntant des \"pistes\" de 4*4 avec pas mal d\'ornières.
Effectuée par temps humide, certaines descentes sont (un peu) glissantes  ]]></desc>
  </metadata>
  <trk>
    <name><![CDATA[ACTIVE LOG074656]]></name>
    <trkseg>
      <trkpt lat="43.01626" lon="0.75356">
        <ele>189.103</ele>
        <time>2015-04-30T05:46:56Z</time>
      </trkpt>
    </trkseg>
  </trk>
  <trk>
    <name><![CDATA[ACTIVE LOG074701]]></name>
    <trkseg>
      <trkpt lat="43.43543" lon="0.56487">
        <ele>188.662</ele>
        <time>2015-04-30T05:47:01Z</time>
      </trkpt>
      <trkpt lat="43.43551" lon="0.56554">
        <ele>188.305</ele>
        <time>2015-04-30T05:47:24Z</time>
      </trkpt>
      <trkpt lat="43.43552" lon="0.56563">
        <ele>187.076</ele>
        <time>2015-04-30T05:48:04Z</time>
      </trkpt>
      <trkpt lat="43.43561" lon="0.56592">
        <ele>188.125</ele>
        <time>2015-04-30T05:48:34Z</time>
      </trkpt>
      <trkpt lat="43.43557" lon="0.5659">
        <ele>191.464</ele>
        <time>2015-04-30T05:48:45Z</time>
      </trkpt>
      <trkpt lat="43.43556" lon="0.5659">
        <ele>196.042</ele>
        <time>2015-04-30T05:48:48Z</time>
      </trkpt>
      <trkpt lat="43.43556" lon="0.5659">
        <ele>200.134</ele>
        <time>2015-04-30T05:48:50Z</time>
      </trkpt>
      <trkpt lat="43.43556" lon="0.5659">
        <ele>203.701</ele>
        <time>2015-04-30T05:48:52Z</time>
      </trkpt>
      <trkpt lat="43.43556" lon="0.5659">
        <ele>207.259</ele>
        <time>2015-04-30T05:48:55Z</time>
      </trkpt>
      <trkpt lat="43.43556" lon="0.5659">
        <ele>211.458</ele>
        <time>2015-04-30T05:48:58Z</time>
      </trkpt>
      <trkpt lat="43.43556" lon="0.5659">
        <ele>214.645</ele>
        <time>2015-04-30T05:49:01Z</time>
      </trkpt>
      <trkpt lat="43.43556" lon="0.5659">
        <ele>217.804</ele>
        <time>2015-04-30T05:49:04Z</time>
      </trkpt>
      <trkpt lat="43.43554" lon="0.5659">
        <ele>221.798</ele>
        <time>2015-04-30T05:49:08Z</time>
      </trkpt>
      <trkpt lat="43.43552" lon="0.5659">
        <ele>226.066</ele>
        <time>2015-04-30T05:49:13Z</time>
      </trkpt>
      <trkpt lat="43.43551" lon="0.5659">
        <ele>228.519</ele>
        <time>2015-04-30T05:49:19Z</time>
      </trkpt>
      <trkpt lat="43.43551" lon="0.56589">
        <ele>231.592</ele>
        <time>2015-04-30T05:49:26Z</time>
      </trkpt>
      <trkpt lat="43.43546" lon="0.56588">
        <ele>234.618</ele>
        <time>2015-04-30T05:49:37Z</time>
      </trkpt>
      <trkpt lat="43.43546" lon="0.56588">
        <ele>237.643</ele>
        <time>2015-04-30T05:49:54Z</time>
      </trkpt>
      <trkpt lat="43.43543" lon="0.56587">
        <ele>239.397</ele>
        <time>2015-04-30T05:50:14Z</time>
      </trkpt>
      <trkpt lat="43.43543" lon="0.56588">
        <ele>239.363</ele>
        <time>2015-04-30T05:50:30Z</time>
      </trkpt>
      <trkpt lat="43.43542" lon="0.56588">
        <ele>239.404</ele>
        <time>2015-04-30T05:50:44Z</time>
      </trkpt>
      <trkpt lat="43.43542" lon="0.5659">
        <ele>239.502</ele>
        <time>2015-04-30T05:50:47Z</time>
      </trkpt>
      <trkpt lat="43.43543" lon="0.566">
        <ele>238.942</ele>
        <time>2015-04-30T05:51:00Z</time>
      </trkpt>
      <trkpt lat="43.43542" lon="0.56597">
        <ele>239.448</ele>
        <time>2015-04-30T05:51:14Z</time>
      </trkpt>
      <trkpt lat="43.43535" lon="0.56594">
        <ele>238.95</ele>
        <time>2015-04-30T05:51:28Z</time>
      </trkpt>
      <trkpt lat="43.43535" lon="0.56588">
        <ele>238.749</ele>
        <time>2015-04-30T05:51:37Z</time>
      </trkpt>
      <trkpt lat="43.43535" lon="0.56589">
        <ele>238.699</ele>
        <time>2015-04-30T05:52:09Z</time>
      </trkpt>
      <trkpt lat="43.43532" lon="0.56586">
        <ele>238.824</ele>
        <time>2015-04-30T05:52:13Z</time>
      </trkpt>
      <trkpt lat="43.43523" lon="0.56588">
        <ele>239.369</ele>
        <time>2015-04-30T05:52:20Z</time>
      </trkpt>
      <trkpt lat="43.43522" lon="0.56595">
        <ele>238.513</ele>
        <time>2015-04-30T05:52:29Z</time>
      </trkpt>
      <trkpt lat="43.43523" lon="0.56599">
        <ele>238.049</ele>
        <time>2015-04-30T05:52:44Z</time>
      </trkpt>
      <trkpt lat="43.43524" lon="0.56598">
        <ele>238.19</ele>
        <time>2015-04-30T05:53:04Z</time>
      </trkpt>
      <trkpt lat="43.43522" lon="0.56595">
        <ele>238.764</ele>
        <time>2015-04-30T05:53:30Z</time>
      </trkpt>
      <trkpt lat="43.43529" lon="0.56588">
        <ele>238.437</ele>
        <time>2015-04-30T05:53:39Z</time>
      </trkpt>
      <trkpt lat="43.43533" lon="0.56587">
        <ele>238.11</ele>
        <time>2015-04-30T05:53:46Z</time>
      </trkpt>
      <trkpt lat="43.43542" lon="0.56595">
        <ele>238.503</ele>
        <time>2015-04-30T05:53:52Z</time>
      </trkpt>
      <trkpt lat="43.43557" lon="0.56606">
        <ele>238.248</ele>
        <time>2015-04-30T05:53:58Z</time>
      </trkpt>
      <trkpt lat="43.4356" lon="0.56615">
        <ele>237.749</ele>
        <time>2015-04-30T05:54:06Z</time>
      </trkpt>
      <trkpt lat="43.4356" lon="0.56616">
        <ele>237.883</ele>
        <time>2015-04-30T05:54:19Z</time>
      </trkpt>
      <trkpt lat="43.4356" lon="0.56613">
        <ele>237.835</ele>
        <time>2015-04-30T05:54:30Z</time>
      </trkpt>
      <trkpt lat="43.4356" lon="0.56613">
        <ele>238.166</ele>
        <time>2015-04-30T05:54:45Z</time>
      </trkpt>
      <trkpt lat="43.4356" lon="0.56612">
        <ele>237.914</ele>
        <time>2015-04-30T05:54:47Z</time>
      </trkpt>
      <trkpt lat="43.4357" lon="0.566">
        <ele>237.663</ele>
        <time>2015-04-30T05:54:54Z</time>
      </trkpt>
      <trkpt lat="43.43581" lon="0.56531">
        <ele>239.838</ele>
        <time>2015-04-30T05:55:04Z</time>
      </trkpt>
      <trkpt lat="43.43572" lon="0.56509">
        <ele>240.615</ele>
        <time>2015-04-30T05:55:08Z</time>
      </trkpt>
      <trkpt lat="43.43502" lon="0.56489">
        <ele>242.09</ele>
        <time>2015-04-30T05:55:22Z</time>
      </trkpt>
      <trkpt lat="43.43449" lon="0.56472">
        <ele>239.473</ele>
        <time>2015-04-30T05:55:34Z</time>
      </trkpt>
      <trkpt lat="43.43448" lon="0.56452">
        <ele>238.523</ele>
        <time>2015-04-30T05:55:39Z</time>
      </trkpt>
      <trkpt lat="43.43489" lon="0.56359">
        <ele>239.91</ele>
        <time>2015-04-30T05:55:59Z</time>
      </trkpt>
      <trkpt lat="43.43522" lon="0.56292">
        <ele>241.204</ele>
        <time>2015-04-30T05:56:16Z</time>
      </trkpt>
      <trkpt lat="43.43552" lon="0.56227">
        <ele>241.925</ele>
        <time>2015-04-30T05:56:30Z</time>
      </trkpt>
      <trkpt lat="43.4359" lon="0.56191">
        <ele>242.35</ele>
        <time>2015-04-30T05:56:40Z</time>
      </trkpt>
      <trkpt lat="43.43612" lon="0.56179">
        <ele>242.897</ele>
        <time>2015-04-30T05:56:45Z</time>
      </trkpt>
      <trkpt lat="43.43635" lon="0.56176">
        <ele>242.716</ele>
        <time>2015-04-30T05:56:50Z</time>
      </trkpt>
      <trkpt lat="43.43656" lon="0.56183">
        <ele>243.685</ele>
        <time>2015-04-30T05:56:55Z</time>
      </trkpt>
      <trkpt lat="43.43674" lon="0.56168">
        <ele>244.319</ele>
        <time>2015-04-30T05:57:00Z</time>
      </trkpt>
      <trkpt lat="43.4368" lon="0.56159">
        <ele>244.994</ele>
        <time>2015-04-30T05:57:02Z</time>
      </trkpt>
      <trkpt lat="43.43686" lon="0.56151">
        <ele>245.366</ele>
        <time>2015-04-30T05:57:04Z</time>
      </trkpt>
      <trkpt lat="43.43728" lon="0.56106">
        <ele>246.077</ele>
        <time>2015-04-30T05:57:16Z</time>
      </trkpt>
      <trkpt lat="43.43768" lon="0.56076">
        <ele>246.758</ele>
        <time>2015-04-30T05:57:25Z</time>
      </trkpt>
      <trkpt lat="43.43796" lon="0.56042">
        <ele>247.618</ele>
        <time>2015-04-30T05:57:34Z</time>
      </trkpt>
      <trkpt lat="43.43822" lon="0.55983">
        <ele>249.342</ele>
        <time>2015-04-30T05:57:45Z</time>
      </trkpt>
      <trkpt lat="43.43846" lon="0.5588">
        <ele>252.147</ele>
        <time>2015-04-30T05:58:02Z</time>
      </trkpt>
      <trkpt lat="43.43856" lon="0.55837">
        <ele>254.175</ele>
        <time>2015-04-30T05:58:10Z</time>
      </trkpt>
      <trkpt lat="43.4387" lon="0.55808">
        <ele>255.173</ele>
        <time>2015-04-30T05:58:16Z</time>
      </trkpt>
      <trkpt lat="43.43914" lon="0.55748">
        <ele>258.639</ele>
        <time>2015-04-30T05:58:31Z</time>
      </trkpt>
      <trkpt lat="43.43931" lon="0.55723">
        <ele>259.438</ele>
        <time>2015-04-30T05:58:37Z</time>
      </trkpt>
      <trkpt lat="43.43961" lon="0.55635">
        <ele>260.53</ele>
        <time>2015-04-30T05:58:52Z</time>
      </trkpt>
      <trkpt lat="43.43987" lon="0.5557">
        <ele>261.133</ele>
        <time>2015-04-30T05:59:05Z</time>
      </trkpt>
      <trkpt lat="43.44008" lon="0.55513">
        <ele>262.634</ele>
        <time>2015-04-30T05:59:18Z</time>
      </trkpt>
      <trkpt lat="43.44031" lon="0.55421">
        <ele>264.898</ele>
        <time>2015-04-30T05:59:34Z</time>
      </trkpt>
      <trkpt lat="43.44049" lon="0.55333">
        <ele>268.08</ele>
        <time>2015-04-30T05:59:49Z</time>
      </trkpt>
      <trkpt lat="43.44075" lon="0.55238">
        <ele>270.461</ele>
        <time>2015-04-30T06:00:06Z</time>
      </trkpt>
      <trkpt lat="43.44085" lon="0.55196">
        <ele>270.624</ele>
        <time>2015-04-30T06:00:13Z</time>
      </trkpt>
      <trkpt lat="43.44111" lon="0.55123">
        <ele>273.698</ele>
        <time>2015-04-30T06:00:27Z</time>
      </trkpt>
      <trkpt lat="43.44142" lon="0.55024">
        <ele>276.9</ele>
        <time>2015-04-30T06:00:47Z</time>
      </trkpt>
      <trkpt lat="43.44164" lon="0.54959">
        <ele>280.449</ele>
        <time>2015-04-30T06:01:02Z</time>
      </trkpt>
      <trkpt lat="43.44174" lon="0.54923">
        <ele>281.025</ele>
        <time>2015-04-30T06:01:09Z</time>
      </trkpt>
      <trkpt lat="43.44173" lon="0.54852">
        <ele>283.412</ele>
        <time>2015-04-30T06:01:23Z</time>
      </trkpt>
      <trkpt lat="43.44172" lon="0.54759">
        <ele>283.575</ele>
        <time>2015-04-30T06:01:37Z</time>
      </trkpt>
      <trkpt lat="43.44177" lon="0.54741">
        <ele>283.303</ele>
        <time>2015-04-30T06:01:41Z</time>
      </trkpt>
      <trkpt lat="43.44165" lon="0.54655">
        <ele>285.156</ele>
        <time>2015-04-30T06:01:54Z</time>
      </trkpt>
      <trkpt lat="43.44151" lon="0.54553">
        <ele>287.218</ele>
        <time>2015-04-30T06:02:09Z</time>
      </trkpt>
      <trkpt lat="43.44132" lon="0.5447">
        <ele>288.802</ele>
        <time>2015-04-30T06:02:21Z</time>
      </trkpt>
      <trkpt lat="43.44129" lon="0.54456">
        <ele>287.127</ele>
        <time>2015-04-30T06:02:23Z</time>
      </trkpt>
      <trkpt lat="43.44109" lon="0.54379">
        <ele>287.889</ele>
        <time>2015-04-30T06:02:34Z</time>
      </trkpt>
      <trkpt lat="43.44072" lon="0.54308">
        <ele>288.543</ele>
        <time>2015-04-30T06:02:45Z</time>
      </trkpt>
      <trkpt lat="43.44068" lon="0.54302">
        <ele>288.545</ele>
        <time>2015-04-30T06:02:46Z</time>
      </trkpt>
      <trkpt lat="43.4405" lon="0.54267">
        <ele>289.936</ele>
        <time>2015-04-30T06:02:52Z</time>
      </trkpt>
      <trkpt lat="43.44046" lon="0.54249">
        <ele>290.339</ele>
        <time>2015-04-30T06:02:56Z</time>
      </trkpt>
      <trkpt lat="43.44057" lon="0.54119">
        <ele>293.087</ele>
        <time>2015-04-30T06:03:15Z</time>
      </trkpt>
      <trkpt lat="43.44067" lon="0.5404">
        <ele>295.44</ele>
        <time>2015-04-30T06:03:28Z</time>
      </trkpt>
      <trkpt lat="43.44075" lon="0.54017">
        <ele>296.472</ele>
        <time>2015-04-30T06:03:32Z</time>
      </trkpt>
      <trkpt lat="43.4411" lon="0.53932">
        <ele>298.068</ele>
        <time>2015-04-30T06:03:47Z</time>
      </trkpt>
      <trkpt lat="43.44139" lon="0.53868">
        <ele>297.658</ele>
        <time>2015-04-30T06:03:58Z</time>
      </trkpt>
      <trkpt lat="43.4417" lon="0.53797">
        <ele>297.661</ele>
        <time>2015-04-30T06:04:12Z</time>
      </trkpt>
      <trkpt lat="43.44178" lon="0.53775">
        <ele>297.225</ele>
        <time>2015-04-30T06:04:17Z</time>
      </trkpt>
      <trkpt lat="43.4422" lon="0.5376">
        <ele>294.479</ele>
        <time>2015-04-30T06:04:24Z</time>
      </trkpt>
      <trkpt lat="43.44237" lon="0.53752">
        <ele>292.686</ele>
        <time>2015-04-30T06:04:26Z</time>
      </trkpt>
      <trkpt lat="43.44267" lon="0.53741">
        <ele>289.604</ele>
        <time>2015-04-30T06:04:29Z</time>
      </trkpt>
      <trkpt lat="43.44278" lon="0.53737">
        <ele>290.285</ele>
        <time>2015-04-30T06:04:30Z</time>
      </trkpt>
      <trkpt lat="43.44312" lon="0.53724">
        <ele>288.716</ele>
        <time>2015-04-30T06:04:33Z</time>
      </trkpt>
      <trkpt lat="43.44336" lon="0.53714">
        <ele>285.755</ele>
        <time>2015-04-30T06:04:35Z</time>
      </trkpt>
      <trkpt lat="43.4436" lon="0.53704">
        <ele>282.551</ele>
        <time>2015-04-30T06:04:37Z</time>
      </trkpt>
      <trkpt lat="43.44372" lon="0.53699">
        <ele>282.55</ele>
        <time>2015-04-30T06:04:38Z</time>
      </trkpt>
      <trkpt lat="43.44407" lon="0.53685">
        <ele>279.539</ele>
        <time>2015-04-30T06:04:41Z</time>
      </trkpt>
      <trkpt lat="43.44418" lon="0.53681">
        <ele>279.539</ele>
        <time>2015-04-30T06:04:42Z</time>
      </trkpt>
      <trkpt lat="43.44489" lon="0.53654">
        <ele>282.488</ele>
        <time>2015-04-30T06:04:50Z</time>
      </trkpt>
      <trkpt lat="43.44495" lon="0.53652">
        <ele>282.49</ele>
        <time>2015-04-30T06:04:51Z</time>
      </trkpt>
      <trkpt lat="43.44513" lon="0.53645">
        <ele>283.909</ele>
        <time>2015-04-30T06:04:54Z</time>
      </trkpt>
      <trkpt lat="43.44518" lon="0.53642">
        <ele>284.792</ele>
        <time>2015-04-30T06:04:55Z</time>
      </trkpt>
      <trkpt lat="43.44526" lon="0.53633">
        <ele>285.035</ele>
        <time>2015-04-30T06:04:57Z</time>
      </trkpt>
      <trkpt lat="43.44541" lon="0.53605">
        <ele>286.887</ele>
        <time>2015-04-30T06:05:03Z</time>
      </trkpt>
      <trkpt lat="43.44551" lon="0.53582">
        <ele>287.064</ele>
        <time>2015-04-30T06:05:07Z</time>
      </trkpt>
      <trkpt lat="43.44558" lon="0.53564">
        <ele>287.234</ele>
        <time>2015-04-30T06:05:10Z</time>
      </trkpt>
      <trkpt lat="43.44576" lon="0.53516">
        <ele>288.554</ele>
        <time>2015-04-30T06:05:18Z</time>
      </trkpt>
      <trkpt lat="43.44584" lon="0.53499">
        <ele>288.923</ele>
        <time>2015-04-30T06:05:21Z</time>
      </trkpt>
      <trkpt lat="43.44603" lon="0.5348">
        <ele>289.57</ele>
        <time>2015-04-30T06:05:26Z</time>
      </trkpt>
      <trkpt lat="43.44621" lon="0.53466">
        <ele>289.205</ele>
        <time>2015-04-30T06:05:30Z</time>
      </trkpt>
      <trkpt lat="43.44654" lon="0.53462">
        <ele>288.715</ele>
        <time>2015-04-30T06:05:36Z</time>
      </trkpt>
      <trkpt lat="43.44705" lon="0.5349">
        <ele>290.692</ele>
        <time>2015-04-30T06:05:48Z</time>
      </trkpt>
      <trkpt lat="43.44716" lon="0.53498">
        <ele>292.247</ele>
        <time>2015-04-30T06:05:51Z</time>
      </trkpt>
      <trkpt lat="43.44733" lon="0.53511">
        <ele>293.499</ele>
        <time>2015-04-30T06:05:56Z</time>
      </trkpt>
      <trkpt lat="43.4478" lon="0.53538">
        <ele>293.07</ele>
        <time>2015-04-30T06:06:06Z</time>
      </trkpt>
      <trkpt lat="43.44791" lon="0.53546">
        <ele>294.405</ele>
        <time>2015-04-30T06:06:08Z</time>
      </trkpt>
      <trkpt lat="43.44823" lon="0.53569">
        <ele>290.201</ele>
        <time>2015-04-30T06:06:13Z</time>
      </trkpt>
      <trkpt lat="43.4483" lon="0.53575">
        <ele>290.966</ele>
        <time>2015-04-30T06:06:14Z</time>
      </trkpt>
      <trkpt lat="43.44864" lon="0.53598">
        <ele>289.704</ele>
        <time>2015-04-30T06:06:18Z</time>
      </trkpt>
      <trkpt lat="43.44942" lon="0.53624">
        <ele>286.762</ele>
        <time>2015-04-30T06:06:27Z</time>
      </trkpt>
      <trkpt lat="43.44956" lon="0.53641">
        <ele>287.29</ele>
        <time>2015-04-30T06:06:30Z</time>
      </trkpt>
      <trkpt lat="43.44963" lon="0.53659">
        <ele>287.778</ele>
        <time>2015-04-30T06:06:33Z</time>
      </trkpt>
      <trkpt lat="43.44984" lon="0.53674">
        <ele>289.427</ele>
        <time>2015-04-30T06:06:37Z</time>
      </trkpt>
      <trkpt lat="43.4499" lon="0.53664">
        <ele>289.945</ele>
        <time>2015-04-30T06:06:41Z</time>
      </trkpt>
      <trkpt lat="43.4499" lon="0.53653">
        <ele>291.102</ele>
        <time>2015-04-30T06:06:43Z</time>
      </trkpt>
      <trkpt lat="43.45001" lon="0.53595">
        <ele>292.833</ele>
        <time>2015-04-30T06:06:55Z</time>
      </trkpt>
      <trkpt lat="43.45002" lon="0.53589">
        <ele>292.833</ele>
        <time>2015-04-30T06:06:56Z</time>
      </trkpt>
      <trkpt lat="43.45014" lon="0.5354">
        <ele>294.321</ele>
        <time>2015-04-30T06:07:07Z</time>
      </trkpt>
      <trkpt lat="43.45016" lon="0.53535">
        <ele>294.321</ele>
        <time>2015-04-30T06:07:08Z</time>
      </trkpt>
      <trkpt lat="43.45021" lon="0.53514">
        <ele>293.404</ele>
        <time>2015-04-30T06:07:11Z</time>
      </trkpt>
      <trkpt lat="43.45041" lon="0.53435">
        <ele>290.199</ele>
        <time>2015-04-30T06:07:19Z</time>
      </trkpt>
      <trkpt lat="43.45044" lon="0.53419">
        <ele>290.199</ele>
        <time>2015-04-30T06:07:20Z</time>
      </trkpt>
      <trkpt lat="43.45048" lon="0.53389">
        <ele>289.15</ele>
        <time>2015-04-30T06:07:22Z</time>
      </trkpt>
      <trkpt lat="43.4505" lon="0.5336">
        <ele>287.797</ele>
        <time>2015-04-30T06:07:24Z</time>
      </trkpt>
      <trkpt lat="43.45057" lon="0.53266">
        <ele>285.075</ele>
        <time>2015-04-30T06:07:32Z</time>
      </trkpt>
      <trkpt lat="43.45065" lon="0.53237">
        <ele>284.951</ele>
        <time>2015-04-30T06:07:38Z</time>
      </trkpt>
      <trkpt lat="43.45076" lon="0.53194">
        <ele>286.291</ele>
        <time>2015-04-30T06:07:51Z</time>
      </trkpt>
      <trkpt lat="43.451" lon="0.53148">
        <ele>284.583</ele>
        <time>2015-04-30T06:08:01Z</time>
      </trkpt>
      <trkpt lat="43.45108" lon="0.53135">
        <ele>282.71</ele>
        <time>2015-04-30T06:08:04Z</time>
      </trkpt>
      <trkpt lat="43.45122" lon="0.53112">
        <ele>280.205</ele>
        <time>2015-04-30T06:08:11Z</time>
      </trkpt>
      <trkpt lat="43.45135" lon="0.53091">
        <ele>277.007</ele>
        <time>2015-04-30T06:08:14Z</time>
      </trkpt>
      <trkpt lat="43.45141" lon="0.53083">
        <ele>277.004</ele>
        <time>2015-04-30T06:08:15Z</time>
      </trkpt>
      <trkpt lat="43.45154" lon="0.53068">
        <ele>275.42</ele>
        <time>2015-04-30T06:08:17Z</time>
      </trkpt>
      <trkpt lat="43.4517" lon="0.53044">
        <ele>273.14</ele>
        <time>2015-04-30T06:08:20Z</time>
      </trkpt>
      <trkpt lat="43.45179" lon="0.53025">
        <ele>271.861</ele>
        <time>2015-04-30T06:08:22Z</time>
      </trkpt>
      <trkpt lat="43.45192" lon="0.53001">
        <ele>269.335</ele>
        <time>2015-04-30T06:08:25Z</time>
      </trkpt>
      <trkpt lat="43.45199" lon="0.52982">
        <ele>267.278</ele>
        <time>2015-04-30T06:08:27Z</time>
      </trkpt>
      <trkpt lat="43.45212" lon="0.52937">
        <ele>264.389</ele>
        <time>2015-04-30T06:08:31Z</time>
      </trkpt>
      <trkpt lat="43.45219" lon="0.52915">
        <ele>259.639</ele>
        <time>2015-04-30T06:08:33Z</time>
      </trkpt>
      <trkpt lat="43.45225" lon="0.52876">
        <ele>257.778</ele>
        <time>2015-04-30T06:08:36Z</time>
      </trkpt>
      <trkpt lat="43.45228" lon="0.52852">
        <ele>255.585</ele>
        <time>2015-04-30T06:08:38Z</time>
      </trkpt>
      <trkpt lat="43.4523" lon="0.52834">
        <ele>251.295</ele>
        <time>2015-04-30T06:08:40Z</time>
      </trkpt>
      <trkpt lat="43.45231" lon="0.52827">
        <ele>251.293</ele>
        <time>2015-04-30T06:08:41Z</time>
      </trkpt>
      <trkpt lat="43.45234" lon="0.52784">
        <ele>251.121</ele>
        <time>2015-04-30T06:08:46Z</time>
      </trkpt>
      <trkpt lat="43.45234" lon="0.52767">
        <ele>249.695</ele>
        <time>2015-04-30T06:08:48Z</time>
      </trkpt>
      <trkpt lat="43.45234" lon="0.52716">
        <ele>250.929</ele>
        <time>2015-04-30T06:08:57Z</time>
      </trkpt>
      <trkpt lat="43.45232" lon="0.52711">
        <ele>250.807</ele>
        <time>2015-04-30T06:08:58Z</time>
      </trkpt>
      <trkpt lat="43.45227" lon="0.52704">
        <ele>249.039</ele>
        <time>2015-04-30T06:09:01Z</time>
      </trkpt>
      <trkpt lat="43.45224" lon="0.527">
        <ele>247.071</ele>
        <time>2015-04-30T06:09:02Z</time>
      </trkpt>
      <trkpt lat="43.45216" lon="0.52691">
        <ele>245.776</ele>
        <time>2015-04-30T06:09:04Z</time>
      </trkpt>
      <trkpt lat="43.45253" lon="0.52611">
        <ele>246.328</ele>
        <time>2015-04-30T06:09:06Z</time>
      </trkpt>
      <trkpt lat="43.45256" lon="0.52575">
        <ele>248.701</ele>
        <time>2015-04-30T06:09:10Z</time>
      </trkpt>
      <trkpt lat="43.45248" lon="0.5256">
        <ele>247.533</ele>
        <time>2015-04-30T06:09:14Z</time>
      </trkpt>
      <trkpt lat="43.45235" lon="0.52553">
        <ele>242.396</ele>
        <time>2015-04-30T06:09:17Z</time>
      </trkpt>
      <trkpt lat="43.45231" lon="0.52552">
        <ele>242.396</ele>
        <time>2015-04-30T06:09:18Z</time>
      </trkpt>
      <trkpt lat="43.45227" lon="0.52552">
        <ele>239.355</ele>
        <time>2015-04-30T06:09:19Z</time>
      </trkpt>
      <trkpt lat="43.45215" lon="0.52551">
        <ele>237.017</ele>
        <time>2015-04-30T06:09:22Z</time>
      </trkpt>
      <trkpt lat="43.4521" lon="0.52552">
        <ele>233.547</ele>
        <time>2015-04-30T06:09:23Z</time>
      </trkpt>
      <trkpt lat="43.45206" lon="0.52552">
        <ele>233.547</ele>
        <time>2015-04-30T06:09:24Z</time>
      </trkpt>
      <trkpt lat="43.45195" lon="0.52552">
        <ele>227.777</ele>
        <time>2015-04-30T06:09:27Z</time>
      </trkpt>
      <trkpt lat="43.45192" lon="0.52553">
        <ele>225.678</ele>
        <time>2015-04-30T06:09:28Z</time>
      </trkpt>
      <trkpt lat="43.45185" lon="0.52556">
        <ele>224.381</ele>
        <time>2015-04-30T06:09:31Z</time>
      </trkpt>
      <trkpt lat="43.45179" lon="0.5256">
        <ele>220.256</ele>
        <time>2015-04-30T06:09:33Z</time>
      </trkpt>
      <trkpt lat="43.45177" lon="0.52561">
        <ele>220.256</ele>
        <time>2015-04-30T06:09:34Z</time>
      </trkpt>
      <trkpt lat="43.45172" lon="0.52564">
        <ele>217.646</ele>
        <time>2015-04-30T06:09:36Z</time>
      </trkpt>
      <trkpt lat="43.4517" lon="0.52565">
        <ele>215.952</ele>
        <time>2015-04-30T06:09:38Z</time>
      </trkpt>
      <trkpt lat="43.45169" lon="0.52565">
        <ele>213.373</ele>
        <time>2015-04-30T06:09:41Z</time>
      </trkpt>
      <trkpt lat="43.45167" lon="0.52568">
        <ele>211.915</ele>
        <time>2015-04-30T06:09:53Z</time>
      </trkpt>
      <trkpt lat="43.45167" lon="0.52567">
        <ele>211.993</ele>
        <time>2015-04-30T06:09:56Z</time>
      </trkpt>
      <trkpt lat="43.4516" lon="0.52562">
        <ele>210.017</ele>
        <time>2015-04-30T06:09:59Z</time>
      </trkpt>
      <trkpt lat="43.45153" lon="0.52551">
        <ele>209.129</ele>
        <time>2015-04-30T06:10:02Z</time>
      </trkpt>
      <trkpt lat="43.45138" lon="0.52531">
        <ele>205.893</ele>
        <time>2015-04-30T06:10:06Z</time>
      </trkpt>
      <trkpt lat="43.45129" lon="0.52522">
        <ele>203.833</ele>
        <time>2015-04-30T06:10:08Z</time>
      </trkpt>
      <trkpt lat="43.45125" lon="0.52518">
        <ele>202.069</ele>
        <time>2015-04-30T06:10:09Z</time>
      </trkpt>
      <trkpt lat="43.45119" lon="0.5251">
        <ele>201.031</ele>
        <time>2015-04-30T06:10:11Z</time>
      </trkpt>
      <trkpt lat="43.45116" lon="0.52502">
        <ele>200.408</ele>
        <time>2015-04-30T06:10:13Z</time>
      </trkpt>
      <trkpt lat="43.45092" lon="0.52481">
        <ele>199.407</ele>
        <time>2015-04-30T06:10:22Z</time>
      </trkpt>
      <trkpt lat="43.45066" lon="0.52462">
        <ele>198.726</ele>
        <time>2015-04-30T06:10:33Z</time>
      </trkpt>
      <trkpt lat="43.45061" lon="0.52456">
        <ele>199.06</ele>
        <time>2015-04-30T06:10:44Z</time>
      </trkpt>
      <trkpt lat="43.45053" lon="0.52449">
        <ele>199.336</ele>
        <time>2015-04-30T06:10:56Z</time>
      </trkpt>
      <trkpt lat="43.45037" lon="0.52426">
        <ele>199.15</ele>
        <time>2015-04-30T06:11:05Z</time>
      </trkpt>
      <trkpt lat="43.45025" lon="0.52393">
        <ele>199.08</ele>
        <time>2015-04-30T06:11:15Z</time>
      </trkpt>
      <trkpt lat="43.45024" lon="0.52387">
        <ele>199.339</ele>
        <time>2015-04-30T06:11:17Z</time>
      </trkpt>
      <trkpt lat="43.45016" lon="0.52354">
        <ele>199.318</ele>
        <time>2015-04-30T06:11:29Z</time>
      </trkpt>
      <trkpt lat="43.45006" lon="0.52322">
        <ele>198.66</ele>
        <time>2015-04-30T06:11:36Z</time>
      </trkpt>
      <trkpt lat="43.45001" lon="0.52289">
        <ele>198.816</ele>
        <time>2015-04-30T06:11:45Z</time>
      </trkpt>
      <trkpt lat="43.45002" lon="0.52281">
        <ele>199.233</ele>
        <time>2015-04-30T06:11:47Z</time>
      </trkpt>
      <trkpt lat="43.45001" lon="0.52234">
        <ele>199.727</ele>
        <time>2015-04-30T06:12:00Z</time>
      </trkpt>
      <trkpt lat="43.44997" lon="0.52225">
        <ele>199.474</ele>
        <time>2015-04-30T06:12:07Z</time>
      </trkpt>
      <trkpt lat="43.44995" lon="0.52222">
        <ele>199.252</ele>
        <time>2015-04-30T06:12:11Z</time>
      </trkpt>
      <trkpt lat="43.44991" lon="0.52215">
        <ele>199.524</ele>
        <time>2015-04-30T06:12:24Z</time>
      </trkpt>
      <trkpt lat="43.4499" lon="0.52217">
        <ele>199.808</ele>
        <time>2015-04-30T06:12:32Z</time>
      </trkpt>
      <trkpt lat="43.44981" lon="0.52226">
        <ele>202.159</ele>
        <time>2015-04-30T06:12:39Z</time>
      </trkpt>
      <trkpt lat="43.44972" lon="0.52231">
        <ele>205.241</ele>
        <time>2015-04-30T06:12:46Z</time>
      </trkpt>
      <trkpt lat="43.44956" lon="0.52239">
        <ele>208.213</ele>
        <time>2015-04-30T06:12:54Z</time>
      </trkpt>
      <trkpt lat="43.44942" lon="0.52244">
        <ele>208.779</ele>
        <time>2015-04-30T06:13:05Z</time>
      </trkpt>
      <trkpt lat="43.44935" lon="0.5225">
        <ele>208.856</ele>
        <time>2015-04-30T06:13:21Z</time>
      </trkpt>
      <trkpt lat="43.44929" lon="0.52252">
        <ele>208.097</ele>
        <time>2015-04-30T06:13:32Z</time>
      </trkpt>
      <trkpt lat="43.44926" lon="0.52255">
        <ele>208.314</ele>
        <time>2015-04-30T06:13:44Z</time>
      </trkpt>
      <trkpt lat="43.44903" lon="0.52283">
        <ele>210.911</ele>
        <time>2015-04-30T06:13:57Z</time>
      </trkpt>
      <trkpt lat="43.44883" lon="0.52308">
        <ele>210.316</ele>
        <time>2015-04-30T06:14:07Z</time>
      </trkpt>
      <trkpt lat="43.44875" lon="0.52316">
        <ele>210.2</ele>
        <time>2015-04-30T06:14:11Z</time>
      </trkpt>
      <trkpt lat="43.4486" lon="0.52309">
        <ele>208.155</ele>
        <time>2015-04-30T06:14:16Z</time>
      </trkpt>
      <trkpt lat="43.4485" lon="0.52292">
        <ele>206.389</ele>
        <time>2015-04-30T06:14:20Z</time>
      </trkpt>
      <trkpt lat="43.44845" lon="0.5228">
        <ele>204.268</ele>
        <time>2015-04-30T06:14:23Z</time>
      </trkpt>
      <trkpt lat="43.44834" lon="0.52277">
        <ele>203.549</ele>
        <time>2015-04-30T06:14:29Z</time>
      </trkpt>
      <trkpt lat="43.44784" lon="0.52299">
        <ele>205.222</ele>
        <time>2015-04-30T06:14:48Z</time>
      </trkpt>
      <trkpt lat="43.44763" lon="0.52318">
        <ele>208.524</ele>
        <time>2015-04-30T06:14:58Z</time>
      </trkpt>
      <trkpt lat="43.4476" lon="0.52324">
        <ele>209.637</ele>
        <time>2015-04-30T06:15:00Z</time>
      </trkpt>
      <trkpt lat="43.44741" lon="0.5235">
        <ele>213.333</ele>
        <time>2015-04-30T06:15:12Z</time>
      </trkpt>
      <trkpt lat="43.44717" lon="0.52385">
        <ele>216.348</ele>
        <time>2015-04-30T06:15:26Z</time>
      </trkpt>
      <trkpt lat="43.44698" lon="0.52417">
        <ele>216.256</ele>
        <time>2015-04-30T06:15:36Z</time>
      </trkpt>
      <trkpt lat="43.44681" lon="0.52457">
        <ele>216.232</ele>
        <time>2015-04-30T06:15:46Z</time>
      </trkpt>
      <trkpt lat="43.44673" lon="0.52474">
        <ele>215.609</ele>
        <time>2015-04-30T06:15:50Z</time>
      </trkpt>
      <trkpt lat="43.44662" lon="0.5252">
        <ele>214.721</ele>
        <time>2015-04-30T06:16:01Z</time>
      </trkpt>
      <trkpt lat="43.44663" lon="0.5253">
        <ele>215.255</ele>
        <time>2015-04-30T06:16:04Z</time>
      </trkpt>
      <trkpt lat="43.44666" lon="0.52538">
        <ele>216.566</ele>
        <time>2015-04-30T06:16:07Z</time>
      </trkpt>
      <trkpt lat="43.44677" lon="0.52565">
        <ele>217.38</ele>
        <time>2015-04-30T06:16:18Z</time>
      </trkpt>
      <trkpt lat="43.44683" lon="0.52569">
        <ele>217.568</ele>
        <time>2015-04-30T06:16:25Z</time>
      </trkpt>
      <trkpt lat="43.44687" lon="0.5257">
        <ele>218.88</ele>
        <time>2015-04-30T06:16:40Z</time>
      </trkpt>
      <trkpt lat="43.44688" lon="0.52561">
        <ele>220.993</ele>
        <time>2015-04-30T06:16:50Z</time>
      </trkpt>
      <trkpt lat="43.44688" lon="0.52559">
        <ele>221.703</ele>
        <time>2015-04-30T06:17:15Z</time>
      </trkpt>
      <trkpt lat="43.44689" lon="0.52553">
        <ele>222.905</ele>
        <time>2015-04-30T06:17:33Z</time>
      </trkpt>
      <trkpt lat="43.44693" lon="0.52548">
        <ele>224.363</ele>
        <time>2015-04-30T06:17:37Z</time>
      </trkpt>
      <trkpt lat="43.44697" lon="0.52549">
        <ele>225.433</ele>
        <time>2015-04-30T06:17:39Z</time>
      </trkpt>
      <trkpt lat="43.44697" lon="0.52544">
        <ele>225.93</ele>
        <time>2015-04-30T06:17:42Z</time>
      </trkpt>
      <trkpt lat="43.44697" lon="0.52537">
        <ele>226.444</ele>
        <time>2015-04-30T06:17:46Z</time>
      </trkpt>
      <trkpt lat="43.44703" lon="0.52527">
        <ele>228.367</ele>
        <time>2015-04-30T06:17:51Z</time>
      </trkpt>
      <trkpt lat="43.44707" lon="0.52513">
        <ele>228.934</ele>
        <time>2015-04-30T06:17:58Z</time>
      </trkpt>
      <trkpt lat="43.44709" lon="0.52512">
        <ele>229.116</ele>
        <time>2015-04-30T06:18:00Z</time>
      </trkpt>
      <trkpt lat="43.44714" lon="0.52512">
        <ele>230.528</ele>
        <time>2015-04-30T06:18:03Z</time>
      </trkpt>
      <trkpt lat="43.44719" lon="0.52508">
        <ele>231.962</ele>
        <time>2015-04-30T06:18:12Z</time>
      </trkpt>
      <trkpt lat="43.44726" lon="0.52513">
        <ele>234.438</ele>
        <time>2015-04-30T06:18:37Z</time>
      </trkpt>
      <trkpt lat="43.44727" lon="0.52516">
        <ele>234.768</ele>
        <time>2015-04-30T06:19:00Z</time>
      </trkpt>
      <trkpt lat="43.4473" lon="0.52518">
        <ele>237.078</ele>
        <time>2015-04-30T06:19:04Z</time>
      </trkpt>
      <trkpt lat="43.44733" lon="0.52521">
        <ele>238</ele>
        <time>2015-04-30T06:19:08Z</time>
      </trkpt>
      <trkpt lat="43.44737" lon="0.52525">
        <ele>239.903</ele>
        <time>2015-04-30T06:19:11Z</time>
      </trkpt>
      <trkpt lat="43.44739" lon="0.52526">
        <ele>241.12</ele>
        <time>2015-04-30T06:19:13Z</time>
      </trkpt>
      <trkpt lat="43.44741" lon="0.52525">
        <ele>242.144</ele>
        <time>2015-04-30T06:19:15Z</time>
      </trkpt>
      <trkpt lat="43.44751" lon="0.52522">
        <ele>245.238</ele>
        <time>2015-04-30T06:19:28Z</time>
      </trkpt>
      <trkpt lat="43.44753" lon="0.52522">
        <ele>246.801</ele>
        <time>2015-04-30T06:19:58Z</time>
      </trkpt>
      <trkpt lat="43.4476" lon="0.52519">
        <ele>248.252</ele>
        <time>2015-04-30T06:20:14Z</time>
      </trkpt>
      <trkpt lat="43.44764" lon="0.52516">
        <ele>249.791</ele>
        <time>2015-04-30T06:20:18Z</time>
      </trkpt>
      <trkpt lat="43.44766" lon="0.52514">
        <ele>250.882</ele>
        <time>2015-04-30T06:20:20Z</time>
      </trkpt>
      <trkpt lat="43.44769" lon="0.52516">
        <ele>252.013</ele>
        <time>2015-04-30T06:20:23Z</time>
      </trkpt>
      <trkpt lat="43.44776" lon="0.52516">
        <ele>252.601</ele>
        <time>2015-04-30T06:20:26Z</time>
      </trkpt>
      <trkpt lat="43.44788" lon="0.52513">
        <ele>252.528</ele>
        <time>2015-04-30T06:20:35Z</time>
      </trkpt>
      <trkpt lat="43.44802" lon="0.52513">
        <ele>249.928</ele>
        <time>2015-04-30T06:20:42Z</time>
      </trkpt>
      <trkpt lat="43.44805" lon="0.52512">
        <ele>249.93</ele>
        <time>2015-04-30T06:20:43Z</time>
      </trkpt>
      <trkpt lat="43.44808" lon="0.52509">
        <ele>248.771</ele>
        <time>2015-04-30T06:20:45Z</time>
      </trkpt>
      <trkpt lat="43.44818" lon="0.52504">
        <ele>244.849</ele>
        <time>2015-04-30T06:20:51Z</time>
      </trkpt>
      <trkpt lat="43.4482" lon="0.52501">
        <ele>244.852</ele>
        <time>2015-04-30T06:20:52Z</time>
      </trkpt>
      <trkpt lat="43.44822" lon="0.52494">
        <ele>242.646</ele>
        <time>2015-04-30T06:20:55Z</time>
      </trkpt>
      <trkpt lat="43.44827" lon="0.52486">
        <ele>241.079</ele>
        <time>2015-04-30T06:20:58Z</time>
      </trkpt>
      <trkpt lat="43.4483" lon="0.52483">
        <ele>237.763</ele>
        <time>2015-04-30T06:20:59Z</time>
      </trkpt>
      <trkpt lat="43.44832" lon="0.52478">
        <ele>237.763</ele>
        <time>2015-04-30T06:21:00Z</time>
      </trkpt>
      <trkpt lat="43.44849" lon="0.52457">
        <ele>234.931</ele>
        <time>2015-04-30T06:21:06Z</time>
      </trkpt>
      <trkpt lat="43.44858" lon="0.52449">
        <ele>234.735</ele>
        <time>2015-04-30T06:21:15Z</time>
      </trkpt>
      <trkpt lat="43.44865" lon="0.52452">
        <ele>236.333</ele>
        <time>2015-04-30T06:21:27Z</time>
      </trkpt>
      <trkpt lat="43.44866" lon="0.52456">
        <ele>237.991</ele>
        <time>2015-04-30T06:21:43Z</time>
      </trkpt>
      <trkpt lat="43.4487" lon="0.52462">
        <ele>240.777</ele>
        <time>2015-04-30T06:22:06Z</time>
      </trkpt>
      <trkpt lat="43.44876" lon="0.52465">
        <ele>243.271</ele>
        <time>2015-04-30T06:22:22Z</time>
      </trkpt>
      <trkpt lat="43.44882" lon="0.52465">
        <ele>245.855</ele>
        <time>2015-04-30T06:22:48Z</time>
      </trkpt>
      <trkpt lat="43.44901" lon="0.52462">
        <ele>247.822</ele>
        <time>2015-04-30T06:22:59Z</time>
      </trkpt>
      <trkpt lat="43.44908" lon="0.52452">
        <ele>247.614</ele>
        <time>2015-04-30T06:23:05Z</time>
      </trkpt>
      <trkpt lat="43.44914" lon="0.52441">
        <ele>247.461</ele>
        <time>2015-04-30T06:23:10Z</time>
      </trkpt>
      <trkpt lat="43.44921" lon="0.52434">
        <ele>247.512</ele>
        <time>2015-04-30T06:23:14Z</time>
      </trkpt>
      <trkpt lat="43.4492" lon="0.52398">
        <ele>244.438</ele>
        <time>2015-04-30T06:23:22Z</time>
      </trkpt>
      <trkpt lat="43.4492" lon="0.52394">
        <ele>244.447</ele>
        <time>2015-04-30T06:23:23Z</time>
      </trkpt>
      <trkpt lat="43.44922" lon="0.52373">
        <ele>241.097</ele>
        <time>2015-04-30T06:23:27Z</time>
      </trkpt>
      <trkpt lat="43.44925" lon="0.52363">
        <ele>239.414</ele>
        <time>2015-04-30T06:23:29Z</time>
      </trkpt>
      <trkpt lat="43.44928" lon="0.52352">
        <ele>234.756</ele>
        <time>2015-04-30T06:23:31Z</time>
      </trkpt>
      <trkpt lat="43.4493" lon="0.52346">
        <ele>234.76</ele>
        <time>2015-04-30T06:23:32Z</time>
      </trkpt>
      <trkpt lat="43.44935" lon="0.52342">
        <ele>232.557</ele>
        <time>2015-04-30T06:23:34Z</time>
      </trkpt>
      <trkpt lat="43.44938" lon="0.52342">
        <ele>231.624</ele>
        <time>2015-04-30T06:23:36Z</time>
      </trkpt>
      <trkpt lat="43.44949" lon="0.52369">
        <ele>229.938</ele>
        <time>2015-04-30T06:23:45Z</time>
      </trkpt>
      <trkpt lat="43.44957" lon="0.52384">
        <ele>228.424</ele>
        <time>2015-04-30T06:23:48Z</time>
      </trkpt>
      <trkpt lat="43.44963" lon="0.52398">
        <ele>227.906</ele>
        <time>2015-04-30T06:23:52Z</time>
      </trkpt>
      <trkpt lat="43.44965" lon="0.524">
        <ele>227.711</ele>
        <time>2015-04-30T06:24:04Z</time>
      </trkpt>
      <trkpt lat="43.44966" lon="0.52401">
        <ele>227.844</ele>
        <time>2015-04-30T06:24:11Z</time>
      </trkpt>
      <trkpt lat="43.44968" lon="0.52416">
        <ele>229.808</ele>
        <time>2015-04-30T06:24:24Z</time>
      </trkpt>
      <trkpt lat="43.44967" lon="0.52424">
        <ele>231.691</ele>
        <time>2015-04-30T06:24:36Z</time>
      </trkpt>
      <trkpt lat="43.44968" lon="0.52436">
        <ele>232.57</ele>
        <time>2015-04-30T06:24:47Z</time>
      </trkpt>
      <trkpt lat="43.44979" lon="0.52464">
        <ele>231.956</ele>
        <time>2015-04-30T06:24:59Z</time>
      </trkpt>
      <trkpt lat="43.44983" lon="0.52475">
        <ele>231.781</ele>
        <time>2015-04-30T06:25:03Z</time>
      </trkpt>
      <trkpt lat="43.44984" lon="0.52485">
        <ele>231.892</ele>
        <time>2015-04-30T06:25:07Z</time>
      </trkpt>
      <trkpt lat="43.44991" lon="0.52506">
        <ele>234.911</ele>
        <time>2015-04-30T06:25:16Z</time>
      </trkpt>
      <trkpt lat="43.44996" lon="0.52519">
        <ele>235.819</ele>
        <time>2015-04-30T06:25:21Z</time>
      </trkpt>
      <trkpt lat="43.44991" lon="0.52539">
        <ele>238.119</ele>
        <time>2015-04-30T06:25:30Z</time>
      </trkpt>
      <trkpt lat="43.44985" lon="0.52554">
        <ele>240.528</ele>
        <time>2015-04-30T06:25:41Z</time>
      </trkpt>
      <trkpt lat="43.44979" lon="0.52564">
        <ele>242.386</ele>
        <time>2015-04-30T06:25:58Z</time>
      </trkpt>
      <trkpt lat="43.44972" lon="0.52574">
        <ele>244.032</ele>
        <time>2015-04-30T06:26:14Z</time>
      </trkpt>
      <trkpt lat="43.44971" lon="0.52575">
        <ele>245.085</ele>
        <time>2015-04-30T06:26:37Z</time>
      </trkpt>
      <trkpt lat="43.44968" lon="0.52581">
        <ele>246.62</ele>
        <time>2015-04-30T06:27:01Z</time>
      </trkpt>
      <trkpt lat="43.44954" lon="0.52616">
        <ele>246.589</ele>
        <time>2015-04-30T06:27:12Z</time>
      </trkpt>
      <trkpt lat="43.44944" lon="0.52649">
        <ele>247.214</ele>
        <time>2015-04-30T06:27:24Z</time>
      </trkpt>
      <trkpt lat="43.44936" lon="0.52669">
        <ele>248.011</ele>
        <time>2015-04-30T06:27:34Z</time>
      </trkpt>
      <trkpt lat="43.44933" lon="0.5268">
        <ele>249.336</ele>
        <time>2015-04-30T06:27:40Z</time>
      </trkpt>
      <trkpt lat="43.44934" lon="0.52685">
        <ele>250.494</ele>
        <time>2015-04-30T06:27:42Z</time>
      </trkpt>
      <trkpt lat="43.44937" lon="0.52709">
        <ele>254.023</ele>
        <time>2015-04-30T06:27:55Z</time>
      </trkpt>
      <trkpt lat="43.44943" lon="0.52733">
        <ele>256.985</ele>
        <time>2015-04-30T06:28:09Z</time>
      </trkpt>
      <trkpt lat="43.44943" lon="0.52735">
        <ele>256.99</ele>
        <time>2015-04-30T06:28:10Z</time>
      </trkpt>
      <trkpt lat="43.44943" lon="0.52747">
        <ele>258.197</ele>
        <time>2015-04-30T06:28:15Z</time>
      </trkpt>
      <trkpt lat="43.44945" lon="0.52762">
        <ele>259.367</ele>
        <time>2015-04-30T06:28:22Z</time>
      </trkpt>
      <trkpt lat="43.44946" lon="0.52781">
        <ele>260.347</ele>
        <time>2015-04-30T06:28:30Z</time>
      </trkpt>
      <trkpt lat="43.44943" lon="0.52801">
        <ele>261.117</ele>
        <time>2015-04-30T06:28:39Z</time>
      </trkpt>
      <trkpt lat="43.44941" lon="0.52816">
        <ele>262.943</ele>
        <time>2015-04-30T06:28:48Z</time>
      </trkpt>
      <trkpt lat="43.44944" lon="0.52845">
        <ele>265.299</ele>
        <time>2015-04-30T06:29:02Z</time>
      </trkpt>
      <trkpt lat="43.44951" lon="0.52856">
        <ele>264.979</ele>
        <time>2015-04-30T06:29:06Z</time>
      </trkpt>
      <trkpt lat="43.44961" lon="0.52858">
        <ele>262.891</ele>
        <time>2015-04-30T06:29:09Z</time>
      </trkpt>
      <trkpt lat="43.44967" lon="0.52857">
        <ele>261.325</ele>
        <time>2015-04-30T06:29:11Z</time>
      </trkpt>
      <trkpt lat="43.44974" lon="0.52855">
        <ele>259.576</ele>
        <time>2015-04-30T06:29:13Z</time>
      </trkpt>
      <trkpt lat="43.44976" lon="0.52853">
        <ele>256.433</ele>
        <time>2015-04-30T06:29:14Z</time>
      </trkpt>
      <trkpt lat="43.44978" lon="0.52852">
        <ele>256.441</ele>
        <time>2015-04-30T06:29:15Z</time>
      </trkpt>
      <trkpt lat="43.44982" lon="0.52854">
        <ele>255.844</ele>
        <time>2015-04-30T06:29:20Z</time>
      </trkpt>
      <trkpt lat="43.44995" lon="0.52861">
        <ele>256.861</ele>
        <time>2015-04-30T06:29:27Z</time>
      </trkpt>
      <trkpt lat="43.4502" lon="0.52867">
        <ele>255.4</ele>
        <time>2015-04-30T06:29:37Z</time>
      </trkpt>
      <trkpt lat="43.45023" lon="0.5287">
        <ele>255.413</ele>
        <time>2015-04-30T06:29:38Z</time>
      </trkpt>
      <trkpt lat="43.45034" lon="0.5288">
        <ele>253.732</ele>
        <time>2015-04-30T06:29:41Z</time>
      </trkpt>
      <trkpt lat="43.45049" lon="0.5289">
        <ele>251.795</ele>
        <time>2015-04-30T06:29:46Z</time>
      </trkpt>
      <trkpt lat="43.45053" lon="0.52903">
        <ele>255.122</ele>
        <time>2015-04-30T06:29:54Z</time>
      </trkpt>
      <trkpt lat="43.45054" lon="0.52914">
        <ele>258.322</ele>
        <time>2015-04-30T06:30:26Z</time>
      </trkpt>
      <trkpt lat="43.45054" lon="0.52924">
        <ele>261.596</ele>
        <time>2015-04-30T06:30:42Z</time>
      </trkpt>
      <trkpt lat="43.45055" lon="0.5293">
        <ele>262.078</ele>
        <time>2015-04-30T06:30:57Z</time>
      </trkpt>
      <trkpt lat="43.45052" lon="0.52923">
        <ele>264.258</ele>
        <time>2015-04-30T06:32:21Z</time>
      </trkpt>
      <trkpt lat="43.45054" lon="0.52934">
        <ele>265.539</ele>
        <time>2015-04-30T06:33:06Z</time>
      </trkpt>
      <trkpt lat="43.45055" lon="0.52941">
        <ele>266.844</ele>
        <time>2015-04-30T06:33:17Z</time>
      </trkpt>
      <trkpt lat="43.45051" lon="0.52966">
        <ele>270.52</ele>
        <time>2015-04-30T06:33:32Z</time>
      </trkpt>
      <trkpt lat="43.45047" lon="0.52984">
        <ele>273.563</ele>
        <time>2015-04-30T06:33:50Z</time>
      </trkpt>
      <trkpt lat="43.45044" lon="0.52995">
        <ele>276.492</ele>
        <time>2015-04-30T06:34:09Z</time>
      </trkpt>
      <trkpt lat="43.45042" lon="0.53004">
        <ele>278.256</ele>
        <time>2015-04-30T06:34:23Z</time>
      </trkpt>
      <trkpt lat="43.45035" lon="0.53012">
        <ele>280.597</ele>
        <time>2015-04-30T06:34:38Z</time>
      </trkpt>
      <trkpt lat="43.45034" lon="0.53013">
        <ele>280.45</ele>
        <time>2015-04-30T06:34:44Z</time>
      </trkpt>
      <trkpt lat="43.45038" lon="0.53042">
        <ele>282.692</ele>
        <time>2015-04-30T06:35:01Z</time>
      </trkpt>
      <trkpt lat="43.45044" lon="0.53066">
        <ele>285.678</ele>
        <time>2015-04-30T06:35:15Z</time>
      </trkpt>
      <trkpt lat="43.45047" lon="0.53074">
        <ele>287.237</ele>
        <time>2015-04-30T06:35:19Z</time>
      </trkpt>
      <trkpt lat="43.4505" lon="0.53086">
        <ele>288.283</ele>
        <time>2015-04-30T06:35:25Z</time>
      </trkpt>
      <trkpt lat="43.4506" lon="0.53109">
        <ele>289.33</ele>
        <time>2015-04-30T06:35:36Z</time>
      </trkpt>
      <trkpt lat="43.45064" lon="0.53122">
        <ele>290.746</ele>
        <time>2015-04-30T06:35:41Z</time>
      </trkpt>
      <trkpt lat="43.45063" lon="0.53167">
        <ele>291.273</ele>
        <time>2015-04-30T06:35:54Z</time>
      </trkpt>
      <trkpt lat="43.45056" lon="0.53209">
        <ele>291.62</ele>
        <time>2015-04-30T06:36:04Z</time>
      </trkpt>
      <trkpt lat="43.45057" lon="0.53236">
        <ele>292.304</ele>
        <time>2015-04-30T06:36:13Z</time>
      </trkpt>
      <trkpt lat="43.45058" lon="0.53238">
        <ele>291.535</ele>
        <time>2015-04-30T06:36:19Z</time>
      </trkpt>
      <trkpt lat="43.45052" lon="0.53213">
        <ele>291.325</ele>
        <time>2015-04-30T06:36:30Z</time>
      </trkpt>
      <trkpt lat="43.45052" lon="0.53211">
        <ele>291.324</ele>
        <time>2015-04-30T06:36:31Z</time>
      </trkpt>
      <trkpt lat="43.45061" lon="0.53163">
        <ele>291.496</ele>
        <time>2015-04-30T06:36:39Z</time>
      </trkpt>
      <trkpt lat="43.45063" lon="0.53143">
        <ele>291.373</ele>
        <time>2015-04-30T06:36:41Z</time>
      </trkpt>
      <trkpt lat="43.45058" lon="0.53109">
        <ele>291.498</ele>
        <time>2015-04-30T06:36:45Z</time>
      </trkpt>
      <trkpt lat="43.45053" lon="0.5309">
        <ele>289.97</ele>
        <time>2015-04-30T06:36:47Z</time>
      </trkpt>
      <trkpt lat="43.45047" lon="0.53073">
        <ele>288.197</ele>
        <time>2015-04-30T06:36:49Z</time>
      </trkpt>
      <trkpt lat="43.45035" lon="0.53023">
        <ele>284.361</ele>
        <time>2015-04-30T06:36:53Z</time>
      </trkpt>
      <trkpt lat="43.45031" lon="0.5301">
        <ele>284.361</ele>
        <time>2015-04-30T06:36:54Z</time>
      </trkpt>
      <trkpt lat="43.45027" lon="0.52997">
        <ele>282.693</ele>
        <time>2015-04-30T06:36:55Z</time>
      </trkpt>
      <trkpt lat="43.45011" lon="0.52956">
        <ele>280.553</ele>
        <time>2015-04-30T06:36:58Z</time>
      </trkpt>
      <trkpt lat="43.44999" lon="0.52935">
        <ele>277.969</ele>
        <time>2015-04-30T06:37:00Z</time>
      </trkpt>
      <trkpt lat="43.44982" lon="0.52911">
        <ele>276.661</ele>
        <time>2015-04-30T06:37:03Z</time>
      </trkpt>
      <trkpt lat="43.44976" lon="0.52904">
        <ele>275.472</ele>
        <time>2015-04-30T06:37:04Z</time>
      </trkpt>
      <trkpt lat="43.44956" lon="0.52885">
        <ele>274.029</ele>
        <time>2015-04-30T06:37:07Z</time>
      </trkpt>
      <trkpt lat="43.44947" lon="0.52878">
        <ele>270.932</ele>
        <time>2015-04-30T06:37:09Z</time>
      </trkpt>
      <trkpt lat="43.44945" lon="0.52876">
        <ele>270.932</ele>
        <time>2015-04-30T06:37:10Z</time>
      </trkpt>
      <trkpt lat="43.44925" lon="0.52847">
        <ele>272.372</ele>
        <time>2015-04-30T06:37:20Z</time>
      </trkpt>
      <trkpt lat="43.4492" lon="0.52833">
        <ele>273.739</ele>
        <time>2015-04-30T06:37:24Z</time>
      </trkpt>
      <trkpt lat="43.44909" lon="0.52801">
        <ele>276.584</ele>
        <time>2015-04-30T06:37:34Z</time>
      </trkpt>
      <trkpt lat="43.44896" lon="0.52766">
        <ele>276.254</ele>
        <time>2015-04-30T06:37:44Z</time>
      </trkpt>
      <trkpt lat="43.44895" lon="0.52764">
        <ele>275.527</ele>
        <time>2015-04-30T06:37:54Z</time>
      </trkpt>
      <trkpt lat="43.44876" lon="0.52698">
        <ele>274.312</ele>
        <time>2015-04-30T06:38:02Z</time>
      </trkpt>
      <trkpt lat="43.44875" lon="0.52681">
        <ele>274.201</ele>
        <time>2015-04-30T06:38:07Z</time>
      </trkpt>
      <trkpt lat="43.44877" lon="0.52665">
        <ele>274.801</ele>
        <time>2015-04-30T06:38:12Z</time>
      </trkpt>
      <trkpt lat="43.4488" lon="0.52643">
        <ele>275.834</ele>
        <time>2015-04-30T06:38:19Z</time>
      </trkpt>
      <trkpt lat="43.44883" lon="0.52634">
        <ele>276.406</ele>
        <time>2015-04-30T06:38:28Z</time>
      </trkpt>
      <trkpt lat="43.44883" lon="0.52635">
        <ele>276.066</ele>
        <time>2015-04-30T06:38:36Z</time>
      </trkpt>
      <trkpt lat="43.44885" lon="0.52637">
        <ele>275.607</ele>
        <time>2015-04-30T06:38:41Z</time>
      </trkpt>
      <trkpt lat="43.44879" lon="0.52682">
        <ele>274.514</ele>
        <time>2015-04-30T06:38:53Z</time>
      </trkpt>
      <trkpt lat="43.44881" lon="0.52713">
        <ele>275.307</ele>
        <time>2015-04-30T06:39:00Z</time>
      </trkpt>
      <trkpt lat="43.44899" lon="0.52756">
        <ele>276.261</ele>
        <time>2015-04-30T06:39:08Z</time>
      </trkpt>
      <trkpt lat="43.44906" lon="0.52791">
        <ele>276.945</ele>
        <time>2015-04-30T06:39:15Z</time>
      </trkpt>
      <trkpt lat="43.44917" lon="0.52823">
        <ele>275.397</ele>
        <time>2015-04-30T06:39:19Z</time>
      </trkpt>
      <trkpt lat="43.44937" lon="0.52865">
        <ele>273.199</ele>
        <time>2015-04-30T06:39:23Z</time>
      </trkpt>
      <trkpt lat="43.4497" lon="0.52897">
        <ele>271.867</ele>
        <time>2015-04-30T06:39:31Z</time>
      </trkpt>
      <trkpt lat="43.44987" lon="0.52918">
        <ele>275.476</ele>
        <time>2015-04-30T06:39:38Z</time>
      </trkpt>
      <trkpt lat="43.44989" lon="0.52921">
        <ele>275.476</ele>
        <time>2015-04-30T06:39:39Z</time>
      </trkpt>
      <trkpt lat="43.45008" lon="0.52951">
        <ele>276.351</ele>
        <time>2015-04-30T06:39:48Z</time>
      </trkpt>
      <trkpt lat="43.45023" lon="0.52985">
        <ele>277.92</ele>
        <time>2015-04-30T06:39:56Z</time>
      </trkpt>
      <trkpt lat="43.45032" lon="0.53013">
        <ele>281.022</ele>
        <time>2015-04-30T06:40:06Z</time>
      </trkpt>
      <trkpt lat="43.45042" lon="0.53049">
        <ele>284.693</ele>
        <time>2015-04-30T06:40:19Z</time>
      </trkpt>
      <trkpt lat="43.45049" lon="0.5308">
        <ele>288.212</ele>
        <time>2015-04-30T06:40:29Z</time>
      </trkpt>
      <trkpt lat="43.4505" lon="0.53083">
        <ele>288.212</ele>
        <time>2015-04-30T06:40:30Z</time>
      </trkpt>
      <trkpt lat="43.4506" lon="0.53117">
        <ele>290.416</ele>
        <time>2015-04-30T06:40:41Z</time>
      </trkpt>
      <trkpt lat="43.45062" lon="0.53159">
        <ele>290.988</ele>
        <time>2015-04-30T06:40:52Z</time>
      </trkpt>
      <trkpt lat="43.45056" lon="0.532">
        <ele>291.723</ele>
        <time>2015-04-30T06:41:03Z</time>
      </trkpt>
      <trkpt lat="43.45055" lon="0.53212">
        <ele>292.132</ele>
        <time>2015-04-30T06:41:06Z</time>
      </trkpt>
      <trkpt lat="43.45055" lon="0.53232">
        <ele>292.013</ele>
        <time>2015-04-30T06:41:16Z</time>
      </trkpt>
      <trkpt lat="43.45057" lon="0.53267">
        <ele>291.456</ele>
        <time>2015-04-30T06:41:24Z</time>
      </trkpt>
      <trkpt lat="43.45056" lon="0.53317">
        <ele>292.407</ele>
        <time>2015-04-30T06:41:35Z</time>
      </trkpt>
      <trkpt lat="43.45051" lon="0.53358">
        <ele>292.817</ele>
        <time>2015-04-30T06:41:44Z</time>
      </trkpt>
      <trkpt lat="43.45047" lon="0.53395">
        <ele>293.786</ele>
        <time>2015-04-30T06:41:53Z</time>
      </trkpt>
      <trkpt lat="43.45044" lon="0.53419">
        <ele>295.797</ele>
        <time>2015-04-30T06:42:02Z</time>
      </trkpt>
      <trkpt lat="43.45038" lon="0.53447">
        <ele>298.35</ele>
        <time>2015-04-30T06:42:12Z</time>
      </trkpt>
      <trkpt lat="43.4503" lon="0.53476">
        <ele>300.659</ele>
        <time>2015-04-30T06:42:22Z</time>
      </trkpt>
      <trkpt lat="43.45022" lon="0.53509">
        <ele>301.935</ele>
        <time>2015-04-30T06:42:32Z</time>
      </trkpt>
      <trkpt lat="43.4501" lon="0.53555">
        <ele>302.649</ele>
        <time>2015-04-30T06:42:42Z</time>
      </trkpt>
      <trkpt lat="43.44999" lon="0.53602">
        <ele>302.168</ele>
        <time>2015-04-30T06:42:50Z</time>
      </trkpt>
      <trkpt lat="43.4499" lon="0.53653">
        <ele>300.189</ele>
        <time>2015-04-30T06:42:57Z</time>
      </trkpt>
      <trkpt lat="43.44968" lon="0.53674">
        <ele>299.195</ele>
        <time>2015-04-30T06:42:59Z</time>
      </trkpt>
      <trkpt lat="43.44967" lon="0.53671">
        <ele>298.725</ele>
        <time>2015-04-30T06:43:01Z</time>
      </trkpt>
      <trkpt lat="43.44969" lon="0.5365">
        <ele>296.59</ele>
        <time>2015-04-30T06:43:05Z</time>
      </trkpt>
      <trkpt lat="43.44967" lon="0.53647">
        <ele>296.59</ele>
        <time>2015-04-30T06:43:06Z</time>
      </trkpt>
      <trkpt lat="43.44962" lon="0.53657">
        <ele>296.056</ele>
        <time>2015-04-30T06:43:11Z</time>
      </trkpt>
      <trkpt lat="43.44966" lon="0.53666">
        <ele>295.644</ele>
        <time>2015-04-30T06:43:13Z</time>
      </trkpt>
      <trkpt lat="43.44979" lon="0.53714">
        <ele>296.769</ele>
        <time>2015-04-30T06:43:21Z</time>
      </trkpt>
      <trkpt lat="43.45004" lon="0.53735">
        <ele>295.521</ele>
        <time>2015-04-30T06:43:28Z</time>
      </trkpt>
      <trkpt lat="43.45019" lon="0.53718">
        <ele>294.275</ele>
        <time>2015-04-30T06:43:31Z</time>
      </trkpt>
      <trkpt lat="43.4503" lon="0.5369">
        <ele>292.679</ele>
        <time>2015-04-30T06:43:34Z</time>
      </trkpt>
      <trkpt lat="43.45047" lon="0.5363">
        <ele>289.576</ele>
        <time>2015-04-30T06:43:39Z</time>
      </trkpt>
      <trkpt lat="43.45083" lon="0.53597">
        <ele>287.28</ele>
        <time>2015-04-30T06:43:43Z</time>
      </trkpt>
      <trkpt lat="43.45104" lon="0.53602">
        <ele>285.264</ele>
        <time>2015-04-30T06:43:45Z</time>
      </trkpt>
      <trkpt lat="43.45134" lon="0.5361">
        <ele>283.094</ele>
        <time>2015-04-30T06:43:48Z</time>
      </trkpt>
      <trkpt lat="43.45151" lon="0.5361">
        <ele>281.995</ele>
        <time>2015-04-30T06:43:50Z</time>
      </trkpt>
      <trkpt lat="43.45181" lon="0.53589">
        <ele>281.099</ele>
        <time>2015-04-30T06:43:54Z</time>
      </trkpt>
      <trkpt lat="43.45203" lon="0.53572">
        <ele>278.096</ele>
        <time>2015-04-30T06:43:57Z</time>
      </trkpt>
      <trkpt lat="43.4527" lon="0.53531">
        <ele>279.66</ele>
        <time>2015-04-30T06:44:07Z</time>
      </trkpt>
      <trkpt lat="43.453" lon="0.53518">
        <ele>280.427</ele>
        <time>2015-04-30T06:44:13Z</time>
      </trkpt>
      <trkpt lat="43.45309" lon="0.53515">
        <ele>281.966</ele>
        <time>2015-04-30T06:44:15Z</time>
      </trkpt>
      <trkpt lat="43.45313" lon="0.53513">
        <ele>281.94</ele>
        <time>2015-04-30T06:44:16Z</time>
      </trkpt>
      <trkpt lat="43.45332" lon="0.53512">
        <ele>283.741</ele>
        <time>2015-04-30T06:44:20Z</time>
      </trkpt>
      <trkpt lat="43.45348" lon="0.5352">
        <ele>284.272</ele>
        <time>2015-04-30T06:44:24Z</time>
      </trkpt>
      <trkpt lat="43.45361" lon="0.53533">
        <ele>284.928</ele>
        <time>2015-04-30T06:44:28Z</time>
      </trkpt>
      <trkpt lat="43.45402" lon="0.53586">
        <ele>286.968</ele>
        <time>2015-04-30T06:44:42Z</time>
      </trkpt>
      <trkpt lat="43.45458" lon="0.53649">
        <ele>288.765</ele>
        <time>2015-04-30T06:44:59Z</time>
      </trkpt>
      <trkpt lat="43.45466" lon="0.53662">
        <ele>290.509</ele>
        <time>2015-04-30T06:45:03Z</time>
      </trkpt>
      <trkpt lat="43.45473" lon="0.53657">
        <ele>290.67</ele>
        <time>2015-04-30T06:45:07Z</time>
      </trkpt>
      <trkpt lat="43.45477" lon="0.53602">
        <ele>292.207</ele>
        <time>2015-04-30T06:45:19Z</time>
      </trkpt>
      <trkpt lat="43.45483" lon="0.5355">
        <ele>291.517</ele>
        <time>2015-04-30T06:45:29Z</time>
      </trkpt>
      <trkpt lat="43.45484" lon="0.53502">
        <ele>290.664</ele>
        <time>2015-04-30T06:45:36Z</time>
      </trkpt>
      <trkpt lat="43.45506" lon="0.5342">
        <ele>290.117</ele>
        <time>2015-04-30T06:45:48Z</time>
      </trkpt>
      <trkpt lat="43.45522" lon="0.53357">
        <ele>293.255</ele>
        <time>2015-04-30T06:45:58Z</time>
      </trkpt>
      <trkpt lat="43.45531" lon="0.53324">
        <ele>293.578</ele>
        <time>2015-04-30T06:46:08Z</time>
      </trkpt>
      <trkpt lat="43.45533" lon="0.53306">
        <ele>293.172</ele>
        <time>2015-04-30T06:46:17Z</time>
      </trkpt>
      <trkpt lat="43.45537" lon="0.53277">
        <ele>290.834</ele>
        <time>2015-04-30T06:46:27Z</time>
      </trkpt>
      <trkpt lat="43.45539" lon="0.53243">
        <ele>288.646</ele>
        <time>2015-04-30T06:46:34Z</time>
      </trkpt>
      <trkpt lat="43.45539" lon="0.53243">
        <ele>288.691</ele>
        <time>2015-04-30T06:46:38Z</time>
      </trkpt>
      <trkpt lat="43.4553" lon="0.53154">
        <ele>287.197</ele>
        <time>2015-04-30T06:46:48Z</time>
      </trkpt>
      <trkpt lat="43.45526" lon="0.53114">
        <ele>285.585</ele>
        <time>2015-04-30T06:46:53Z</time>
      </trkpt>
      <trkpt lat="43.45524" lon="0.5309">
        <ele>283.537</ele>
        <time>2015-04-30T06:46:57Z</time>
      </trkpt>
      <trkpt lat="43.45524" lon="0.53045">
        <ele>282.02</ele>
        <time>2015-04-30T06:47:08Z</time>
      </trkpt>
      <trkpt lat="43.45524" lon="0.53043">
        <ele>281.288</ele>
        <time>2015-04-30T06:47:15Z</time>
      </trkpt>
      <trkpt lat="43.45524" lon="0.53043">
        <ele>281.1</ele>
        <time>2015-04-30T06:47:35Z</time>
      </trkpt>
      <trkpt lat="43.45524" lon="0.53043">
        <ele>280.751</ele>
        <time>2015-04-30T06:48:20Z</time>
      </trkpt>
      <trkpt lat="43.45524" lon="0.53043">
        <ele>280.741</ele>
        <time>2015-04-30T06:48:30Z</time>
      </trkpt>
      <trkpt lat="43.45524" lon="0.53071">
        <ele>281.903</ele>
        <time>2015-04-30T06:48:42Z</time>
      </trkpt>
      <trkpt lat="43.45524" lon="0.5309">
        <ele>282.065</ele>
        <time>2015-04-30T06:48:51Z</time>
      </trkpt>
      <trkpt lat="43.45524" lon="0.5309">
        <ele>283.148</ele>
        <time>2015-04-30T06:48:54Z</time>
      </trkpt>
      <trkpt lat="43.45524" lon="0.5309">
        <ele>282.744</ele>
        <time>2015-04-30T06:48:57Z</time>
      </trkpt>
      <trkpt lat="43.45524" lon="0.53051">
        <ele>281.237</ele>
        <time>2015-04-30T06:49:06Z</time>
      </trkpt>
      <trkpt lat="43.45524" lon="0.53043">
        <ele>278.643</ele>
        <time>2015-04-30T06:49:09Z</time>
      </trkpt>
      <trkpt lat="43.45524" lon="0.53043">
        <ele>276.779</ele>
        <time>2015-04-30T06:49:18Z</time>
      </trkpt>
      <trkpt lat="43.45524" lon="0.53043">
        <ele>276.259</ele>
        <time>2015-04-30T06:50:30Z</time>
      </trkpt>
      <trkpt lat="43.45524" lon="0.53043">
        <ele>275.555</ele>
        <time>2015-04-30T06:50:31Z</time>
      </trkpt>
      <trkpt lat="43.45511" lon="0.52976">
        <ele>273.856</ele>
        <time>2015-04-30T06:50:39Z</time>
      </trkpt>
      <trkpt lat="43.45509" lon="0.52969">
        <ele>273.981</ele>
        <time>2015-04-30T06:50:41Z</time>
      </trkpt>
      <trkpt lat="43.45512" lon="0.52926">
        <ele>273.622</ele>
        <time>2015-04-30T06:50:48Z</time>
      </trkpt>
      <trkpt lat="43.45522" lon="0.52889">
        <ele>272.861</ele>
        <time>2015-04-30T06:50:55Z</time>
      </trkpt>
      <trkpt lat="43.45528" lon="0.52855">
        <ele>271.661</ele>
        <time>2015-04-30T06:51:02Z</time>
      </trkpt>
      <trkpt lat="43.45539" lon="0.52809">
        <ele>269.835</ele>
        <time>2015-04-30T06:51:10Z</time>
      </trkpt>
      <trkpt lat="43.45541" lon="0.52803">
        <ele>268.403</ele>
        <time>2015-04-30T06:51:11Z</time>
      </trkpt>
      <trkpt lat="43.4555" lon="0.52796">
        <ele>264.448</ele>
        <time>2015-04-30T06:51:14Z</time>
      </trkpt>
      <trkpt lat="43.45552" lon="0.52797">
        <ele>264.448</ele>
        <time>2015-04-30T06:51:15Z</time>
      </trkpt>
      <trkpt lat="43.45558" lon="0.52826">
        <ele>259.578</ele>
        <time>2015-04-30T06:51:21Z</time>
      </trkpt>
      <trkpt lat="43.45558" lon="0.5283">
        <ele>259.578</ele>
        <time>2015-04-30T06:51:22Z</time>
      </trkpt>
      <trkpt lat="43.45569" lon="0.52827">
        <ele>256.679</ele>
        <time>2015-04-30T06:51:29Z</time>
      </trkpt>
      <trkpt lat="43.45573" lon="0.5282">
        <ele>254.174</ele>
        <time>2015-04-30T06:51:31Z</time>
      </trkpt>
      <trkpt lat="43.45578" lon="0.52816">
        <ele>252.375</ele>
        <time>2015-04-30T06:51:33Z</time>
      </trkpt>
      <trkpt lat="43.45582" lon="0.52814">
        <ele>250.845</ele>
        <time>2015-04-30T06:51:35Z</time>
      </trkpt>
      <trkpt lat="43.45585" lon="0.52823">
        <ele>248.464</ele>
        <time>2015-04-30T06:51:38Z</time>
      </trkpt>
      <trkpt lat="43.45586" lon="0.52827">
        <ele>247.415</ele>
        <time>2015-04-30T06:51:40Z</time>
      </trkpt>
      <trkpt lat="43.45591" lon="0.52831">
        <ele>245.085</ele>
        <time>2015-04-30T06:51:43Z</time>
      </trkpt>
      <trkpt lat="43.45594" lon="0.52833">
        <ele>244.131</ele>
        <time>2015-04-30T06:51:45Z</time>
      </trkpt>
      <trkpt lat="43.45596" lon="0.52832">
        <ele>243.581</ele>
        <time>2015-04-30T06:51:47Z</time>
      </trkpt>
      <trkpt lat="43.45603" lon="0.52823">
        <ele>240.152</ele>
        <time>2015-04-30T06:51:51Z</time>
      </trkpt>
      <trkpt lat="43.45605" lon="0.52816">
        <ele>238.799</ele>
        <time>2015-04-30T06:51:54Z</time>
      </trkpt>
      <trkpt lat="43.45607" lon="0.52812">
        <ele>237.248</ele>
        <time>2015-04-30T06:51:56Z</time>
      </trkpt>
      <trkpt lat="43.45615" lon="0.52802">
        <ele>235.062</ele>
        <time>2015-04-30T06:51:59Z</time>
      </trkpt>
      <trkpt lat="43.45623" lon="0.52795">
        <ele>232.523</ele>
        <time>2015-04-30T06:52:01Z</time>
      </trkpt>
      <trkpt lat="43.45626" lon="0.5279">
        <ele>230.901</ele>
        <time>2015-04-30T06:52:03Z</time>
      </trkpt>
      <trkpt lat="43.45626" lon="0.52786">
        <ele>228.774</ele>
        <time>2015-04-30T06:52:05Z</time>
      </trkpt>
      <trkpt lat="43.45632" lon="0.5278">
        <ele>227.59</ele>
        <time>2015-04-30T06:52:08Z</time>
      </trkpt>
      <trkpt lat="43.45637" lon="0.52772">
        <ele>225.936</ele>
        <time>2015-04-30T06:52:10Z</time>
      </trkpt>
      <trkpt lat="43.45645" lon="0.52751">
        <ele>223.494</ele>
        <time>2015-04-30T06:52:13Z</time>
      </trkpt>
      <trkpt lat="43.45652" lon="0.52729">
        <ele>221.84</ele>
        <time>2015-04-30T06:52:17Z</time>
      </trkpt>
      <trkpt lat="43.45665" lon="0.52698">
        <ele>218.788</ele>
        <time>2015-04-30T06:52:21Z</time>
      </trkpt>
      <trkpt lat="43.45669" lon="0.52691">
        <ele>218.788</ele>
        <time>2015-04-30T06:52:22Z</time>
      </trkpt>
      <trkpt lat="43.45674" lon="0.52677">
        <ele>217.01</ele>
        <time>2015-04-30T06:52:26Z</time>
      </trkpt>
      <trkpt lat="43.45679" lon="0.52666">
        <ele>216.508</ele>
        <time>2015-04-30T06:52:35Z</time>
      </trkpt>
      <trkpt lat="43.45685" lon="0.5264">
        <ele>215.509</ele>
        <time>2015-04-30T06:52:52Z</time>
      </trkpt>
      <trkpt lat="43.45684" lon="0.52643">
        <ele>215.859</ele>
        <time>2015-04-30T06:52:57Z</time>
      </trkpt>
      <trkpt lat="43.45681" lon="0.52649">
        <ele>217.376</ele>
        <time>2015-04-30T06:53:10Z</time>
      </trkpt>
      <trkpt lat="43.4568" lon="0.52637">
        <ele>219.498</ele>
        <time>2015-04-30T06:53:27Z</time>
      </trkpt>
      <trkpt lat="43.45679" lon="0.52635">
        <ele>219.498</ele>
        <time>2015-04-30T06:53:28Z</time>
      </trkpt>
      <trkpt lat="43.4567" lon="0.52613">
        <ele>221.892</ele>
        <time>2015-04-30T06:53:44Z</time>
      </trkpt>
      <trkpt lat="43.45668" lon="0.52603">
        <ele>224.96</ele>
        <time>2015-04-30T06:53:56Z</time>
      </trkpt>
      <trkpt lat="43.45665" lon="0.52587">
        <ele>227.972</ele>
        <time>2015-04-30T06:54:06Z</time>
      </trkpt>
      <trkpt lat="43.45665" lon="0.52558">
        <ele>230.983</ele>
        <time>2015-04-30T06:54:19Z</time>
      </trkpt>
      <trkpt lat="43.45661" lon="0.52541">
        <ele>234.316</ele>
        <time>2015-04-30T06:54:30Z</time>
      </trkpt>
      <trkpt lat="43.4566" lon="0.52518">
        <ele>236.586</ele>
        <time>2015-04-30T06:54:42Z</time>
      </trkpt>
      <trkpt lat="43.45661" lon="0.52521">
        <ele>236.221</ele>
        <time>2015-04-30T06:55:21Z</time>
      </trkpt>
      <trkpt lat="43.45661" lon="0.52519">
        <ele>235.842</ele>
        <time>2015-04-30T06:55:47Z</time>
      </trkpt>
      <trkpt lat="43.45659" lon="0.52506">
        <ele>233.503</ele>
        <time>2015-04-30T06:55:51Z</time>
      </trkpt>
      <trkpt lat="43.4566" lon="0.52498">
        <ele>231.882</ele>
        <time>2015-04-30T06:55:53Z</time>
      </trkpt>
      <trkpt lat="43.45661" lon="0.52488">
        <ele>229.425</ele>
        <time>2015-04-30T06:55:55Z</time>
      </trkpt>
      <trkpt lat="43.45661" lon="0.52479">
        <ele>226.879</ele>
        <time>2015-04-30T06:55:57Z</time>
      </trkpt>
      <trkpt lat="43.45659" lon="0.52468">
        <ele>224.208</ele>
        <time>2015-04-30T06:55:59Z</time>
      </trkpt>
      <trkpt lat="43.45657" lon="0.52458">
        <ele>221.304</ele>
        <time>2015-04-30T06:56:01Z</time>
      </trkpt>
      <trkpt lat="43.45654" lon="0.52449">
        <ele>215.499</ele>
        <time>2015-04-30T06:56:03Z</time>
      </trkpt>
      <trkpt lat="43.45653" lon="0.52444">
        <ele>215.499</ele>
        <time>2015-04-30T06:56:04Z</time>
      </trkpt>
      <trkpt lat="43.45652" lon="0.52437">
        <ele>212.037</ele>
        <time>2015-04-30T06:56:05Z</time>
      </trkpt>
      <trkpt lat="43.45647" lon="0.52424">
        <ele>208.595</ele>
        <time>2015-04-30T06:56:07Z</time>
      </trkpt>
      <trkpt lat="43.45643" lon="0.52415">
        <ele>205.24</ele>
        <time>2015-04-30T06:56:09Z</time>
      </trkpt>
      <trkpt lat="43.45641" lon="0.52409">
        <ele>203.895</ele>
        <time>2015-04-30T06:56:11Z</time>
      </trkpt>
      <trkpt lat="43.45639" lon="0.52404">
        <ele>202.93</ele>
        <time>2015-04-30T06:56:12Z</time>
      </trkpt>
      <trkpt lat="43.45645" lon="0.52401">
        <ele>202.418</ele>
        <time>2015-04-30T06:56:16Z</time>
      </trkpt>
      <trkpt lat="43.45671" lon="0.52389">
        <ele>203.144</ele>
        <time>2015-04-30T06:56:27Z</time>
      </trkpt>
      <trkpt lat="43.45689" lon="0.52377">
        <ele>204.166</ele>
        <time>2015-04-30T06:56:38Z</time>
      </trkpt>
      <trkpt lat="43.4571" lon="0.52366">
        <ele>206.507</ele>
        <time>2015-04-30T06:56:52Z</time>
      </trkpt>
      <trkpt lat="43.45715" lon="0.52364">
        <ele>207.949</ele>
        <time>2015-04-30T06:56:55Z</time>
      </trkpt>
      <trkpt lat="43.4573" lon="0.52371">
        <ele>210.78</ele>
        <time>2015-04-30T06:57:07Z</time>
      </trkpt>
      <trkpt lat="43.45744" lon="0.524">
        <ele>211.766</ele>
        <time>2015-04-30T06:57:21Z</time>
      </trkpt>
      <trkpt lat="43.45755" lon="0.52432">
        <ele>213.18</ele>
        <time>2015-04-30T06:57:35Z</time>
      </trkpt>
      <trkpt lat="43.45756" lon="0.52439">
        <ele>212.926</ele>
        <time>2015-04-30T06:57:39Z</time>
      </trkpt>
      <trkpt lat="43.45757" lon="0.52443">
        <ele>212.697</ele>
        <time>2015-04-30T06:57:41Z</time>
      </trkpt>
      <trkpt lat="43.45757" lon="0.52447">
        <ele>212.8</ele>
        <time>2015-04-30T06:57:43Z</time>
      </trkpt>
      <trkpt lat="43.45745" lon="0.52464">
        <ele>215.816</ele>
        <time>2015-04-30T06:57:54Z</time>
      </trkpt>
      <trkpt lat="43.45744" lon="0.52465">
        <ele>215.822</ele>
        <time>2015-04-30T06:57:55Z</time>
      </trkpt>
      <trkpt lat="43.45742" lon="0.52468">
        <ele>217.212</ele>
        <time>2015-04-30T06:57:57Z</time>
      </trkpt>
      <trkpt lat="43.45744" lon="0.5248">
        <ele>217.065</ele>
        <time>2015-04-30T06:58:03Z</time>
      </trkpt>
      <trkpt lat="43.4575" lon="0.52492">
        <ele>214.293</ele>
        <time>2015-04-30T06:58:06Z</time>
      </trkpt>
      <trkpt lat="43.45748" lon="0.52517">
        <ele>211.978</ele>
        <time>2015-04-30T06:58:12Z</time>
      </trkpt>
      <trkpt lat="43.4575" lon="0.52528">
        <ele>208.986</ele>
        <time>2015-04-30T06:58:16Z</time>
      </trkpt>
      <trkpt lat="43.45747" lon="0.52533">
        <ele>208.97</ele>
        <time>2015-04-30T06:58:33Z</time>
      </trkpt>
      <trkpt lat="43.45747" lon="0.52524">
        <ele>208.19</ele>
        <time>2015-04-30T06:59:00Z</time>
      </trkpt>
      <trkpt lat="43.4576" lon="0.52514">
        <ele>206.769</ele>
        <time>2015-04-30T06:59:06Z</time>
      </trkpt>
      <trkpt lat="43.45772" lon="0.52479">
        <ele>207.15</ele>
        <time>2015-04-30T06:59:18Z</time>
      </trkpt>
      <trkpt lat="43.45768" lon="0.52441">
        <ele>208.016</ele>
        <time>2015-04-30T06:59:29Z</time>
      </trkpt>
      <trkpt lat="43.45762" lon="0.52407">
        <ele>207.478</ele>
        <time>2015-04-30T06:59:39Z</time>
      </trkpt>
      <trkpt lat="43.45752" lon="0.52389">
        <ele>206.891</ele>
        <time>2015-04-30T06:59:44Z</time>
      </trkpt>
      <trkpt lat="43.45698" lon="0.52335">
        <ele>205.277</ele>
        <time>2015-04-30T06:59:55Z</time>
      </trkpt>
      <trkpt lat="43.45695" lon="0.52339">
        <ele>203.036</ele>
        <time>2015-04-30T06:59:59Z</time>
      </trkpt>
      <trkpt lat="43.45702" lon="0.52322">
        <ele>201.831</ele>
        <time>2015-04-30T07:00:06Z</time>
      </trkpt>
      <trkpt lat="43.45718" lon="0.52316">
        <ele>201.71</ele>
        <time>2015-04-30T07:00:11Z</time>
      </trkpt>
      <trkpt lat="43.45726" lon="0.52318">
        <ele>202.333</ele>
        <time>2015-04-30T07:00:13Z</time>
      </trkpt>
      <trkpt lat="43.45742" lon="0.5232">
        <ele>202.352</ele>
        <time>2015-04-30T07:00:16Z</time>
      </trkpt>
      <trkpt lat="43.45768" lon="0.5233">
        <ele>201.63</ele>
        <time>2015-04-30T07:00:21Z</time>
      </trkpt>
      <trkpt lat="43.4579" lon="0.52325">
        <ele>201.634</ele>
        <time>2015-04-30T07:00:25Z</time>
      </trkpt>
      <trkpt lat="43.45804" lon="0.52311">
        <ele>201.222</ele>
        <time>2015-04-30T07:00:28Z</time>
      </trkpt>
      <trkpt lat="43.45822" lon="0.52299">
        <ele>201.289</ele>
        <time>2015-04-30T07:00:32Z</time>
      </trkpt>
      <trkpt lat="43.45896" lon="0.52299">
        <ele>200.504</ele>
        <time>2015-04-30T07:00:46Z</time>
      </trkpt>
      <trkpt lat="43.45971" lon="0.52307">
        <ele>201.038</ele>
        <time>2015-04-30T07:01:01Z</time>
      </trkpt>
      <trkpt lat="43.45976" lon="0.52308">
        <ele>201.034</ele>
        <time>2015-04-30T07:01:02Z</time>
      </trkpt>
      <trkpt lat="43.4598" lon="0.52324">
        <ele>200.192</ele>
        <time>2015-04-30T07:01:06Z</time>
      </trkpt>
      <trkpt lat="43.45962" lon="0.52389">
        <ele>200.295</ele>
        <time>2015-04-30T07:01:19Z</time>
      </trkpt>
      <trkpt lat="43.45942" lon="0.5246">
        <ele>200.184</ele>
        <time>2015-04-30T07:01:32Z</time>
      </trkpt>
      <trkpt lat="43.45925" lon="0.52519">
        <ele>200.688</ele>
        <time>2015-04-30T07:01:43Z</time>
      </trkpt>
      <trkpt lat="43.45923" lon="0.52526">
        <ele>201.327</ele>
        <time>2015-04-30T07:01:53Z</time>
      </trkpt>
      <trkpt lat="43.45903" lon="0.5261">
        <ele>202.149</ele>
        <time>2015-04-30T07:02:06Z</time>
      </trkpt>
      <trkpt lat="43.459" lon="0.52675">
        <ele>203.19</ele>
        <time>2015-04-30T07:02:20Z</time>
      </trkpt>
      <trkpt lat="43.459" lon="0.52677">
        <ele>203.184</ele>
        <time>2015-04-30T07:02:21Z</time>
      </trkpt>
      <trkpt lat="43.459" lon="0.5271">
        <ele>203.99</ele>
        <time>2015-04-30T07:02:32Z</time>
      </trkpt>
      <trkpt lat="43.45899" lon="0.52793">
        <ele>205.226</ele>
        <time>2015-04-30T07:02:52Z</time>
      </trkpt>
      <trkpt lat="43.45908" lon="0.52841">
        <ele>206.828</ele>
        <time>2015-04-30T07:03:06Z</time>
      </trkpt>
      <trkpt lat="43.4592" lon="0.5287">
        <ele>208.632</ele>
        <time>2015-04-30T07:03:17Z</time>
      </trkpt>
      <trkpt lat="43.45926" lon="0.52883">
        <ele>209.477</ele>
        <time>2015-04-30T07:03:23Z</time>
      </trkpt>
      <trkpt lat="43.45937" lon="0.52904">
        <ele>210.262</ele>
        <time>2015-04-30T07:03:32Z</time>
      </trkpt>
      <trkpt lat="43.4597" lon="0.52925">
        <ele>212.188</ele>
        <time>2015-04-30T07:03:47Z</time>
      </trkpt>
      <trkpt lat="43.46" lon="0.5294">
        <ele>213.253</ele>
        <time>2015-04-30T07:03:57Z</time>
      </trkpt>
      <trkpt lat="43.46024" lon="0.52955">
        <ele>215.156</ele>
        <time>2015-04-30T07:04:08Z</time>
      </trkpt>
      <trkpt lat="43.4605" lon="0.52981">
        <ele>216.435</ele>
        <time>2015-04-30T07:04:19Z</time>
      </trkpt>
      <trkpt lat="43.46052" lon="0.52982">
        <ele>216.089</ele>
        <time>2015-04-30T07:04:20Z</time>
      </trkpt>
      <trkpt lat="43.46062" lon="0.52994">
        <ele>216.34</ele>
        <time>2015-04-30T07:04:32Z</time>
      </trkpt>
      <trkpt lat="43.46082" lon="0.53013">
        <ele>216.653</ele>
        <time>2015-04-30T07:04:44Z</time>
      </trkpt>
      <trkpt lat="43.46097" lon="0.5303">
        <ele>217.405</ele>
        <time>2015-04-30T07:04:54Z</time>
      </trkpt>
      <trkpt lat="43.46108" lon="0.5304">
        <ele>217.875</ele>
        <time>2015-04-30T07:05:02Z</time>
      </trkpt>
      <trkpt lat="43.4611" lon="0.53041">
        <ele>218.15</ele>
        <time>2015-04-30T07:05:04Z</time>
      </trkpt>
      <trkpt lat="43.46116" lon="0.53049">
        <ele>218.417</ele>
        <time>2015-04-30T07:05:09Z</time>
      </trkpt>
      <trkpt lat="43.46128" lon="0.53066">
        <ele>218.887</ele>
        <time>2015-04-30T07:05:19Z</time>
      </trkpt>
      <trkpt lat="43.46135" lon="0.53079">
        <ele>218.892</ele>
        <time>2015-04-30T07:05:28Z</time>
      </trkpt>
      <trkpt lat="43.46142" lon="0.53097">
        <ele>220.229</ele>
        <time>2015-04-30T07:05:42Z</time>
      </trkpt>
      <trkpt lat="43.46147" lon="0.53112">
        <ele>220.685</ele>
        <time>2015-04-30T07:05:51Z</time>
      </trkpt>
      <trkpt lat="43.46155" lon="0.53142">
        <ele>222.21</ele>
        <time>2015-04-30T07:06:04Z</time>
      </trkpt>
      <trkpt lat="43.46169" lon="0.53176">
        <ele>223.235</ele>
        <time>2015-04-30T07:06:15Z</time>
      </trkpt>
      <trkpt lat="43.4617" lon="0.53178">
        <ele>223.252</ele>
        <time>2015-04-30T07:06:16Z</time>
      </trkpt>
      <trkpt lat="43.46185" lon="0.53196">
        <ele>224.853</ele>
        <time>2015-04-30T07:06:27Z</time>
      </trkpt>
      <trkpt lat="43.462" lon="0.5321">
        <ele>228.425</ele>
        <time>2015-04-30T07:06:38Z</time>
      </trkpt>
      <trkpt lat="43.46202" lon="0.53212">
        <ele>228.613</ele>
        <time>2015-04-30T07:06:39Z</time>
      </trkpt>
      <trkpt lat="43.46214" lon="0.53221">
        <ele>231.305</ele>
        <time>2015-04-30T07:06:48Z</time>
      </trkpt>
      <trkpt lat="43.46222" lon="0.53223">
        <ele>233.379</ele>
        <time>2015-04-30T07:07:05Z</time>
      </trkpt>
      <trkpt lat="43.46234" lon="0.53223">
        <ele>236.565</ele>
        <time>2015-04-30T07:07:42Z</time>
      </trkpt>
      <trkpt lat="43.46243" lon="0.53215">
        <ele>238.279</ele>
        <time>2015-04-30T07:07:51Z</time>
      </trkpt>
      <trkpt lat="43.46256" lon="0.53207">
        <ele>241.917</ele>
        <time>2015-04-30T07:08:05Z</time>
      </trkpt>
      <trkpt lat="43.46267" lon="0.53207">
        <ele>244.162</ele>
        <time>2015-04-30T07:08:17Z</time>
      </trkpt>
      <trkpt lat="43.46284" lon="0.53203">
        <ele>247.517</ele>
        <time>2015-04-30T07:08:32Z</time>
      </trkpt>
      <trkpt lat="43.46288" lon="0.53218">
        <ele>250.611</ele>
        <time>2015-04-30T07:08:49Z</time>
      </trkpt>
      <trkpt lat="43.46288" lon="0.53234">
        <ele>251.766</ele>
        <time>2015-04-30T07:09:01Z</time>
      </trkpt>
      <trkpt lat="43.4629" lon="0.53244">
        <ele>252.427</ele>
        <time>2015-04-30T07:09:04Z</time>
      </trkpt>
      <trkpt lat="43.46294" lon="0.53261">
        <ele>253.214</ele>
        <time>2015-04-30T07:09:15Z</time>
      </trkpt>
      <trkpt lat="43.46305" lon="0.53274">
        <ele>255.358</ele>
        <time>2015-04-30T07:09:27Z</time>
      </trkpt>
      <trkpt lat="43.46325" lon="0.53284">
        <ele>257.557</ele>
        <time>2015-04-30T07:09:40Z</time>
      </trkpt>
      <trkpt lat="43.46344" lon="0.53287">
        <ele>259.138</ele>
        <time>2015-04-30T07:09:53Z</time>
      </trkpt>
      <trkpt lat="43.46347" lon="0.53285">
        <ele>259.651</ele>
        <time>2015-04-30T07:09:55Z</time>
      </trkpt>
      <trkpt lat="43.46357" lon="0.53287">
        <ele>261.817</ele>
        <time>2015-04-30T07:10:04Z</time>
      </trkpt>
      <trkpt lat="43.46358" lon="0.53294">
        <ele>262.412</ele>
        <time>2015-04-30T07:10:08Z</time>
      </trkpt>
      <trkpt lat="43.46374" lon="0.53317">
        <ele>264.894</ele>
        <time>2015-04-30T07:10:19Z</time>
      </trkpt>
      <trkpt lat="43.4639" lon="0.53323">
        <ele>267.758</ele>
        <time>2015-04-30T07:10:31Z</time>
      </trkpt>
      <trkpt lat="43.46394" lon="0.53326">
        <ele>269.416</ele>
        <time>2015-04-30T07:10:34Z</time>
      </trkpt>
      <trkpt lat="43.46401" lon="0.53329">
        <ele>270.988</ele>
        <time>2015-04-30T07:10:38Z</time>
      </trkpt>
      <trkpt lat="43.46413" lon="0.53338">
        <ele>272.384</ele>
        <time>2015-04-30T07:10:43Z</time>
      </trkpt>
      <trkpt lat="43.46417" lon="0.53336">
        <ele>272.264</ele>
        <time>2015-04-30T07:10:47Z</time>
      </trkpt>
      <trkpt lat="43.46419" lon="0.53333">
        <ele>272.099</ele>
        <time>2015-04-30T07:10:49Z</time>
      </trkpt>
      <trkpt lat="43.46422" lon="0.53332">
        <ele>272.731</ele>
        <time>2015-04-30T07:10:52Z</time>
      </trkpt>
      <trkpt lat="43.46429" lon="0.53336">
        <ele>273.214</ele>
        <time>2015-04-30T07:10:58Z</time>
      </trkpt>
      <trkpt lat="43.46439" lon="0.5335">
        <ele>273.984</ele>
        <time>2015-04-30T07:11:08Z</time>
      </trkpt>
      <trkpt lat="43.46456" lon="0.53373">
        <ele>273.127</ele>
        <time>2015-04-30T07:11:18Z</time>
      </trkpt>
      <trkpt lat="43.46483" lon="0.53423">
        <ele>272.568</ele>
        <time>2015-04-30T07:11:29Z</time>
      </trkpt>
      <trkpt lat="43.46513" lon="0.53467">
        <ele>272.468</ele>
        <time>2015-04-30T07:11:40Z</time>
      </trkpt>
      <trkpt lat="43.46549" lon="0.53522">
        <ele>271.633</ele>
        <time>2015-04-30T07:11:52Z</time>
      </trkpt>
      <trkpt lat="43.46588" lon="0.53575">
        <ele>271.146</ele>
        <time>2015-04-30T07:12:02Z</time>
      </trkpt>
      <trkpt lat="43.46603" lon="0.53595">
        <ele>271.839</ele>
        <time>2015-04-30T07:12:06Z</time>
      </trkpt>
      <trkpt lat="43.4662" lon="0.53616">
        <ele>270.95</ele>
        <time>2015-04-30T07:12:11Z</time>
      </trkpt>
      <trkpt lat="43.46631" lon="0.53631">
        <ele>270.73</ele>
        <time>2015-04-30T07:12:15Z</time>
      </trkpt>
      <trkpt lat="43.46638" lon="0.53636">
        <ele>270.619</ele>
        <time>2015-04-30T07:12:23Z</time>
      </trkpt>
      <trkpt lat="43.46641" lon="0.53638">
        <ele>270.942</ele>
        <time>2015-04-30T07:12:27Z</time>
      </trkpt>
      <trkpt lat="43.46708" lon="0.53573">
        <ele>272.812</ele>
        <time>2015-04-30T07:12:37Z</time>
      </trkpt>
      <trkpt lat="43.46737" lon="0.53558">
        <ele>273.597</ele>
        <time>2015-04-30T07:12:45Z</time>
      </trkpt>
      <trkpt lat="43.46757" lon="0.5354">
        <ele>271.38</ele>
        <time>2015-04-30T07:12:50Z</time>
      </trkpt>
      <trkpt lat="43.46784" lon="0.53507">
        <ele>271.061</ele>
        <time>2015-04-30T07:12:58Z</time>
      </trkpt>
      <trkpt lat="43.46798" lon="0.53467">
        <ele>269.605</ele>
        <time>2015-04-30T07:13:04Z</time>
      </trkpt>
      <trkpt lat="43.46825" lon="0.53436">
        <ele>269.652</ele>
        <time>2015-04-30T07:13:10Z</time>
      </trkpt>
      <trkpt lat="43.46842" lon="0.53431">
        <ele>267.438</ele>
        <time>2015-04-30T07:13:12Z</time>
      </trkpt>
      <trkpt lat="43.46851" lon="0.5343">
        <ele>267.438</ele>
        <time>2015-04-30T07:13:13Z</time>
      </trkpt>
      <trkpt lat="43.46865" lon="0.53419">
        <ele>265.567</ele>
        <time>2015-04-30T07:13:15Z</time>
      </trkpt>
      <trkpt lat="43.46877" lon="0.53407">
        <ele>263.752</ele>
        <time>2015-04-30T07:13:17Z</time>
      </trkpt>
      <trkpt lat="43.46885" lon="0.53403">
        <ele>259.928</ele>
        <time>2015-04-30T07:13:19Z</time>
      </trkpt>
      <trkpt lat="43.46887" lon="0.53399">
        <ele>259.928</ele>
        <time>2015-04-30T07:13:20Z</time>
      </trkpt>
      <trkpt lat="43.46897" lon="0.53366">
        <ele>257.749</ele>
        <time>2015-04-30T07:13:27Z</time>
      </trkpt>
      <trkpt lat="43.46925" lon="0.53307">
        <ele>255.968</ele>
        <time>2015-04-30T07:13:32Z</time>
      </trkpt>
      <trkpt lat="43.46925" lon="0.53307">
        <ele>254.979</ele>
        <time>2015-04-30T07:13:34Z</time>
      </trkpt>
      <trkpt lat="43.46938" lon="0.53292">
        <ele>253.632</ele>
        <time>2015-04-30T07:13:36Z</time>
      </trkpt>
      <trkpt lat="43.46943" lon="0.53282">
        <ele>253.156</ele>
        <time>2015-04-30T07:13:37Z</time>
      </trkpt>
      <trkpt lat="43.46956" lon="0.53259">
        <ele>249.716</ele>
        <time>2015-04-30T07:13:39Z</time>
      </trkpt>
      <trkpt lat="43.46962" lon="0.53247">
        <ele>246.122</ele>
        <time>2015-04-30T07:13:40Z</time>
      </trkpt>
      <trkpt lat="43.4697" lon="0.53235">
        <ele>246.122</ele>
        <time>2015-04-30T07:13:41Z</time>
      </trkpt>
      <trkpt lat="43.46977" lon="0.53224">
        <ele>242.978</ele>
        <time>2015-04-30T07:13:42Z</time>
      </trkpt>
      <trkpt lat="43.46983" lon="0.53212">
        <ele>242.978</ele>
        <time>2015-04-30T07:13:43Z</time>
      </trkpt>
      <trkpt lat="43.46993" lon="0.53188">
        <ele>240.061</ele>
        <time>2015-04-30T07:13:45Z</time>
      </trkpt>
      <trkpt lat="43.47002" lon="0.53165">
        <ele>237.271</ele>
        <time>2015-04-30T07:13:47Z</time>
      </trkpt>
      <trkpt lat="43.4701" lon="0.53137">
        <ele>235.358</ele>
        <time>2015-04-30T07:13:50Z</time>
      </trkpt>
      <trkpt lat="43.47018" lon="0.53115">
        <ele>234.166</ele>
        <time>2015-04-30T07:13:53Z</time>
      </trkpt>
      <trkpt lat="43.47036" lon="0.53075">
        <ele>231.724</ele>
        <time>2015-04-30T07:13:57Z</time>
      </trkpt>
      <trkpt lat="43.47048" lon="0.53055">
        <ele>229.919</ele>
        <time>2015-04-30T07:13:59Z</time>
      </trkpt>
      <trkpt lat="43.47062" lon="0.53036">
        <ele>226.938</ele>
        <time>2015-04-30T07:14:01Z</time>
      </trkpt>
      <trkpt lat="43.47075" lon="0.5302">
        <ele>223.065</ele>
        <time>2015-04-30T07:14:03Z</time>
      </trkpt>
      <trkpt lat="43.47083" lon="0.5301">
        <ele>223.057</ele>
        <time>2015-04-30T07:14:04Z</time>
      </trkpt>
      <trkpt lat="43.471" lon="0.52993">
        <ele>220.731</ele>
        <time>2015-04-30T07:14:06Z</time>
      </trkpt>
      <trkpt lat="43.47109" lon="0.52984">
        <ele>216.737</ele>
        <time>2015-04-30T07:14:07Z</time>
      </trkpt>
      <trkpt lat="43.47117" lon="0.52976">
        <ele>216.727</ele>
        <time>2015-04-30T07:14:08Z</time>
      </trkpt>
      <trkpt lat="43.47125" lon="0.52968">
        <ele>213.621</ele>
        <time>2015-04-30T07:14:09Z</time>
      </trkpt>
      <trkpt lat="43.4714" lon="0.52954">
        <ele>211.137</ele>
        <time>2015-04-30T07:14:11Z</time>
      </trkpt>
      <trkpt lat="43.47147" lon="0.52946">
        <ele>208.876</ele>
        <time>2015-04-30T07:14:12Z</time>
      </trkpt>
      <trkpt lat="43.47161" lon="0.5293">
        <ele>205.396</ele>
        <time>2015-04-30T07:14:14Z</time>
      </trkpt>
      <trkpt lat="43.47167" lon="0.52924">
        <ele>205.385</ele>
        <time>2015-04-30T07:14:15Z</time>
      </trkpt>
      <trkpt lat="43.47174" lon="0.52915">
        <ele>201.898</ele>
        <time>2015-04-30T07:14:17Z</time>
      </trkpt>
      <trkpt lat="43.47175" lon="0.52912">
        <ele>201.889</ele>
        <time>2015-04-30T07:14:18Z</time>
      </trkpt>
      <trkpt lat="43.47176" lon="0.5291">
        <ele>201.253</ele>
        <time>2015-04-30T07:14:20Z</time>
      </trkpt>
      <trkpt lat="43.47187" lon="0.52915">
        <ele>200.499</ele>
        <time>2015-04-30T07:14:24Z</time>
      </trkpt>
      <trkpt lat="43.47235" lon="0.52951">
        <ele>199.949</ele>
        <time>2015-04-30T07:14:38Z</time>
      </trkpt>
      <trkpt lat="43.47253" lon="0.52961">
        <ele>200.948</ele>
        <time>2015-04-30T07:14:45Z</time>
      </trkpt>
      <trkpt lat="43.47289" lon="0.52969">
        <ele>200.399</ele>
        <time>2015-04-30T07:14:55Z</time>
      </trkpt>
      <trkpt lat="43.47312" lon="0.52975">
        <ele>201.443</ele>
        <time>2015-04-30T07:15:04Z</time>
      </trkpt>
      <trkpt lat="43.47329" lon="0.52973">
        <ele>203.383</ele>
        <time>2015-04-30T07:15:16Z</time>
      </trkpt>
      <trkpt lat="43.4734" lon="0.52971">
        <ele>206.458</ele>
        <time>2015-04-30T07:15:23Z</time>
      </trkpt>
      <trkpt lat="43.47353" lon="0.52966">
        <ele>209.777</ele>
        <time>2015-04-30T07:15:32Z</time>
      </trkpt>
      <trkpt lat="43.47363" lon="0.52962">
        <ele>211.941</ele>
        <time>2015-04-30T07:15:42Z</time>
      </trkpt>
      <trkpt lat="43.47373" lon="0.52954">
        <ele>214.396</ele>
        <time>2015-04-30T07:15:53Z</time>
      </trkpt>
      <trkpt lat="43.47375" lon="0.52952">
        <ele>216.145</ele>
        <time>2015-04-30T07:15:59Z</time>
      </trkpt>
      <trkpt lat="43.47375" lon="0.52952">
        <ele>216.79</ele>
        <time>2015-04-30T07:16:08Z</time>
      </trkpt>
      <trkpt lat="43.47375" lon="0.52952">
        <ele>218.75</ele>
        <time>2015-04-30T07:16:15Z</time>
      </trkpt>
      <trkpt lat="43.47375" lon="0.52952">
        <ele>221.59</ele>
        <time>2015-04-30T07:16:31Z</time>
      </trkpt>
      <trkpt lat="43.47359" lon="0.52964">
        <ele>223.643</ele>
        <time>2015-04-30T07:16:43Z</time>
      </trkpt>
      <trkpt lat="43.47356" lon="0.52965">
        <ele>223.978</ele>
        <time>2015-04-30T07:16:46Z</time>
      </trkpt>
      <trkpt lat="43.47371" lon="0.53068">
        <ele>226.378</ele>
        <time>2015-04-30T07:16:59Z</time>
      </trkpt>
      <trkpt lat="43.47376" lon="0.53079">
        <ele>228.085</ele>
        <time>2015-04-30T07:17:05Z</time>
      </trkpt>
      <trkpt lat="43.47376" lon="0.53081">
        <ele>228.197</ele>
        <time>2015-04-30T07:17:07Z</time>
      </trkpt>
      <trkpt lat="43.47389" lon="0.53092">
        <ele>231.974</ele>
        <time>2015-04-30T07:17:19Z</time>
      </trkpt>
      <trkpt lat="43.47399" lon="0.53096">
        <ele>234.482</ele>
        <time>2015-04-30T07:17:26Z</time>
      </trkpt>
      <trkpt lat="43.474" lon="0.53097">
        <ele>234.207</ele>
        <time>2015-04-30T07:17:27Z</time>
      </trkpt>
      <trkpt lat="43.47417" lon="0.53103">
        <ele>237.126</ele>
        <time>2015-04-30T07:17:40Z</time>
      </trkpt>
      <trkpt lat="43.47427" lon="0.53114">
        <ele>239.326</ele>
        <time>2015-04-30T07:17:51Z</time>
      </trkpt>
      <trkpt lat="43.47436" lon="0.53126">
        <ele>241.309</ele>
        <time>2015-04-30T07:18:01Z</time>
      </trkpt>
      <trkpt lat="43.47446" lon="0.53139">
        <ele>243.794</ele>
        <time>2015-04-30T07:18:12Z</time>
      </trkpt>
      <trkpt lat="43.47451" lon="0.53162">
        <ele>245.488</ele>
        <time>2015-04-30T07:18:24Z</time>
      </trkpt>
      <trkpt lat="43.47452" lon="0.53165">
        <ele>246.33</ele>
        <time>2015-04-30T07:18:26Z</time>
      </trkpt>
      <trkpt lat="43.47457" lon="0.53175">
        <ele>246.777</ele>
        <time>2015-04-30T07:18:32Z</time>
      </trkpt>
      <trkpt lat="43.47469" lon="0.53214">
        <ele>249.764</ele>
        <time>2015-04-30T07:18:48Z</time>
      </trkpt>
      <trkpt lat="43.4747" lon="0.53221">
        <ele>250.609</ele>
        <time>2015-04-30T07:18:52Z</time>
      </trkpt>
      <trkpt lat="43.47466" lon="0.5325">
        <ele>252.482</ele>
        <time>2015-04-30T07:19:04Z</time>
      </trkpt>
      <trkpt lat="43.4746" lon="0.53263">
        <ele>253.691</ele>
        <time>2015-04-30T07:19:10Z</time>
      </trkpt>
      <trkpt lat="43.47459" lon="0.53274">
        <ele>254.236</ele>
        <time>2015-04-30T07:19:14Z</time>
      </trkpt>
      <trkpt lat="43.47452" lon="0.53304">
        <ele>255.855</ele>
        <time>2015-04-30T07:19:28Z</time>
      </trkpt>
      <trkpt lat="43.47451" lon="0.53309">
        <ele>257.093</ele>
        <time>2015-04-30T07:19:30Z</time>
      </trkpt>
      <trkpt lat="43.47442" lon="0.5333">
        <ele>258.206</ele>
        <time>2015-04-30T07:19:39Z</time>
      </trkpt>
      <trkpt lat="43.4744" lon="0.53346">
        <ele>259.093</ele>
        <time>2015-04-30T07:19:46Z</time>
      </trkpt>
      <trkpt lat="43.47436" lon="0.53377">
        <ele>260.823</ele>
        <time>2015-04-30T07:19:59Z</time>
      </trkpt>
      <trkpt lat="43.47431" lon="0.53416">
        <ele>261.418</ele>
        <time>2015-04-30T07:20:11Z</time>
      </trkpt>
      <trkpt lat="43.47428" lon="0.53436">
        <ele>261.846</ele>
        <time>2015-04-30T07:20:16Z</time>
      </trkpt>
      <trkpt lat="43.4742" lon="0.53459">
        <ele>262.467</ele>
        <time>2015-04-30T07:20:23Z</time>
      </trkpt>
      <trkpt lat="43.47419" lon="0.53511">
        <ele>262.963</ele>
        <time>2015-04-30T07:20:33Z</time>
      </trkpt>
      <trkpt lat="43.47418" lon="0.53555">
        <ele>262.406</ele>
        <time>2015-04-30T07:20:42Z</time>
      </trkpt>
      <trkpt lat="43.47417" lon="0.53602">
        <ele>262.725</ele>
        <time>2015-04-30T07:20:52Z</time>
      </trkpt>
      <trkpt lat="43.47415" lon="0.53658">
        <ele>263.368</ele>
        <time>2015-04-30T07:21:03Z</time>
      </trkpt>
      <trkpt lat="43.4741" lon="0.53709">
        <ele>263.917</ele>
        <time>2015-04-30T07:21:12Z</time>
      </trkpt>
      <trkpt lat="43.4741" lon="0.53768">
        <ele>264.506</ele>
        <time>2015-04-30T07:21:21Z</time>
      </trkpt>
      <trkpt lat="43.4741" lon="0.53803">
        <ele>265.418</ele>
        <time>2015-04-30T07:21:30Z</time>
      </trkpt>
      <trkpt lat="43.47411" lon="0.53808">
        <ele>265.525</ele>
        <time>2015-04-30T07:21:35Z</time>
      </trkpt>
      <trkpt lat="43.47412" lon="0.53801">
        <ele>265.31</ele>
        <time>2015-04-30T07:21:40Z</time>
      </trkpt>
      <trkpt lat="43.47416" lon="0.53796">
        <ele>264.523</ele>
        <time>2015-04-30T07:21:52Z</time>
      </trkpt>
      <trkpt lat="43.47411" lon="0.53811">
        <ele>265.504</ele>
        <time>2015-04-30T07:21:59Z</time>
      </trkpt>
      <trkpt lat="43.47391" lon="0.5383">
        <ele>266.364</ele>
        <time>2015-04-30T07:22:10Z</time>
      </trkpt>
      <trkpt lat="43.47377" lon="0.53842">
        <ele>268.973</ele>
        <time>2015-04-30T07:22:22Z</time>
      </trkpt>
      <trkpt lat="43.47361" lon="0.53858">
        <ele>271.014</ele>
        <time>2015-04-30T07:22:33Z</time>
      </trkpt>
      <trkpt lat="43.47348" lon="0.53877">
        <ele>272.211</ele>
        <time>2015-04-30T07:22:43Z</time>
      </trkpt>
      <trkpt lat="43.47332" lon="0.53893">
        <ele>272.594</ele>
        <time>2015-04-30T07:22:50Z</time>
      </trkpt>
      <trkpt lat="43.47327" lon="0.53901">
        <ele>273.646</ele>
        <time>2015-04-30T07:22:54Z</time>
      </trkpt>
      <trkpt lat="43.47309" lon="0.53931">
        <ele>273.889</ele>
        <time>2015-04-30T07:23:04Z</time>
      </trkpt>
      <trkpt lat="43.47297" lon="0.5396">
        <ele>274.181</ele>
        <time>2015-04-30T07:23:14Z</time>
      </trkpt>
      <trkpt lat="43.47292" lon="0.53972">
        <ele>273.485</ele>
        <time>2015-04-30T07:23:18Z</time>
      </trkpt>
      <trkpt lat="43.47271" lon="0.53977">
        <ele>274.928</ele>
        <time>2015-04-30T07:23:27Z</time>
      </trkpt>
      <trkpt lat="43.47251" lon="0.53979">
        <ele>275.381</ele>
        <time>2015-04-30T07:23:38Z</time>
      </trkpt>
      <trkpt lat="43.47244" lon="0.5398">
        <ele>275.144</ele>
        <time>2015-04-30T07:23:44Z</time>
      </trkpt>
      <trkpt lat="43.47262" lon="0.5398">
        <ele>275.123</ele>
        <time>2015-04-30T07:23:53Z</time>
      </trkpt>
      <trkpt lat="43.47267" lon="0.53979">
        <ele>275.116</ele>
        <time>2015-04-30T07:23:54Z</time>
      </trkpt>
      <trkpt lat="43.4733" lon="0.53975">
        <ele>272.82</ele>
        <time>2015-04-30T07:24:05Z</time>
      </trkpt>
      <trkpt lat="43.47403" lon="0.53983">
        <ele>270.044</ele>
        <time>2015-04-30T07:24:17Z</time>
      </trkpt>
      <trkpt lat="43.47451" lon="0.54">
        <ele>272.588</ele>
        <time>2015-04-30T07:24:30Z</time>
      </trkpt>
      <trkpt lat="43.47479" lon="0.54042">
        <ele>274.362</ele>
        <time>2015-04-30T07:24:42Z</time>
      </trkpt>
      <trkpt lat="43.47506" lon="0.54086">
        <ele>274.598</ele>
        <time>2015-04-30T07:24:53Z</time>
      </trkpt>
      <trkpt lat="43.4754" lon="0.54131">
        <ele>276.864</ele>
        <time>2015-04-30T07:25:04Z</time>
      </trkpt>
      <trkpt lat="43.476" lon="0.54172">
        <ele>275.838</ele>
        <time>2015-04-30T07:25:18Z</time>
      </trkpt>
      <trkpt lat="43.47661" lon="0.54207">
        <ele>274.762</ele>
        <time>2015-04-30T07:25:33Z</time>
      </trkpt>
      <trkpt lat="43.47723" lon="0.54237">
        <ele>274.329</ele>
        <time>2015-04-30T07:25:47Z</time>
      </trkpt>
      <trkpt lat="43.47794" lon="0.54255">
        <ele>270.994</ele>
        <time>2015-04-30T07:25:59Z</time>
      </trkpt>
      <trkpt lat="43.47872" lon="0.54273">
        <ele>269.304</ele>
        <time>2015-04-30T07:26:10Z</time>
      </trkpt>
      <trkpt lat="43.47955" lon="0.54301">
        <ele>268.833</ele>
        <time>2015-04-30T07:26:22Z</time>
      </trkpt>
      <trkpt lat="43.48027" lon="0.54342">
        <ele>270.285</ele>
        <time>2015-04-30T07:26:36Z</time>
      </trkpt>
      <trkpt lat="43.48106" lon="0.54367">
        <ele>270.088</ele>
        <time>2015-04-30T07:26:49Z</time>
      </trkpt>
      <trkpt lat="43.48183" lon="0.54386">
        <ele>270.536</ele>
        <time>2015-04-30T07:27:02Z</time>
      </trkpt>
      <trkpt lat="43.48241" lon="0.54388">
        <ele>270.439</ele>
        <time>2015-04-30T07:27:13Z</time>
      </trkpt>
      <trkpt lat="43.48259" lon="0.54379">
        <ele>270.41</ele>
        <time>2015-04-30T07:27:17Z</time>
      </trkpt>
      <trkpt lat="43.48296" lon="0.54357">
        <ele>271.471</ele>
        <time>2015-04-30T07:27:29Z</time>
      </trkpt>
      <trkpt lat="43.48307" lon="0.54356">
        <ele>271.981</ele>
        <time>2015-04-30T07:27:33Z</time>
      </trkpt>
      <trkpt lat="43.48309" lon="0.54346">
        <ele>272.236</ele>
        <time>2015-04-30T07:27:37Z</time>
      </trkpt>
      <trkpt lat="43.48327" lon="0.54302">
        <ele>273.047</ele>
        <time>2015-04-30T07:27:47Z</time>
      </trkpt>
      <trkpt lat="43.4835" lon="0.54245">
        <ele>275.626</ele>
        <time>2015-04-30T07:28:00Z</time>
      </trkpt>
      <trkpt lat="43.48352" lon="0.5424">
        <ele>275.624</ele>
        <time>2015-04-30T07:28:01Z</time>
      </trkpt>
      <trkpt lat="43.48357" lon="0.54221">
        <ele>275.111</ele>
        <time>2015-04-30T07:28:04Z</time>
      </trkpt>
      <trkpt lat="43.48377" lon="0.54137">
        <ele>273.679</ele>
        <time>2015-04-30T07:28:15Z</time>
      </trkpt>
      <trkpt lat="43.48378" lon="0.54129">
        <ele>273.503</ele>
        <time>2015-04-30T07:28:16Z</time>
      </trkpt>
      <trkpt lat="43.4838" lon="0.54099">
        <ele>273.247</ele>
        <time>2015-04-30T07:28:20Z</time>
      </trkpt>
      <trkpt lat="43.48376" lon="0.54048">
        <ele>272.322</ele>
        <time>2015-04-30T07:28:27Z</time>
      </trkpt>
      <trkpt lat="43.48385" lon="0.53975">
        <ele>273.344</ele>
        <time>2015-04-30T07:28:38Z</time>
      </trkpt>
      <trkpt lat="43.48391" lon="0.53947">
        <ele>272.779</ele>
        <time>2015-04-30T07:28:44Z</time>
      </trkpt>
      <trkpt lat="43.48394" lon="0.5391">
        <ele>270.594</ele>
        <time>2015-04-30T07:28:52Z</time>
      </trkpt>
      <trkpt lat="43.48394" lon="0.5391">
        <ele>270.13</ele>
        <time>2015-04-30T07:29:30Z</time>
      </trkpt>
      <trkpt lat="43.48394" lon="0.5391">
        <ele>270.398</ele>
        <time>2015-04-30T07:29:51Z</time>
      </trkpt>
      <trkpt lat="43.48375" lon="0.53904">
        <ele>267.896</ele>
        <time>2015-04-30T07:30:00Z</time>
      </trkpt>
      <trkpt lat="43.48357" lon="0.53894">
        <ele>269.162</ele>
        <time>2015-04-30T07:30:10Z</time>
      </trkpt>
      <trkpt lat="43.48341" lon="0.53878">
        <ele>269.636</ele>
        <time>2015-04-30T07:30:16Z</time>
      </trkpt>
      <trkpt lat="43.48338" lon="0.53843">
        <ele>268.123</ele>
        <time>2015-04-30T07:30:21Z</time>
      </trkpt>
      <trkpt lat="43.48339" lon="0.53821">
        <ele>266.918</ele>
        <time>2015-04-30T07:30:24Z</time>
      </trkpt>
      <trkpt lat="43.48338" lon="0.53757">
        <ele>263.906</ele>
        <time>2015-04-30T07:30:31Z</time>
      </trkpt>
      <trkpt lat="43.48342" lon="0.5374">
        <ele>262.64</ele>
        <time>2015-04-30T07:30:34Z</time>
      </trkpt>
      <trkpt lat="43.48342" lon="0.53727">
        <ele>262.257</ele>
        <time>2015-04-30T07:30:36Z</time>
      </trkpt>
      <trkpt lat="43.48341" lon="0.53663">
        <ele>260.164</ele>
        <time>2015-04-30T07:30:44Z</time>
      </trkpt>
      <trkpt lat="43.48338" lon="0.53641">
        <ele>258.642</ele>
        <time>2015-04-30T07:30:46Z</time>
      </trkpt>
      <trkpt lat="43.48332" lon="0.53621">
        <ele>255.205</ele>
        <time>2015-04-30T07:30:48Z</time>
      </trkpt>
      <trkpt lat="43.4832" lon="0.53588">
        <ele>252.533</ele>
        <time>2015-04-30T07:30:51Z</time>
      </trkpt>
      <trkpt lat="43.48315" lon="0.53576">
        <ele>249.177</ele>
        <time>2015-04-30T07:30:52Z</time>
      </trkpt>
      <trkpt lat="43.48309" lon="0.53553">
        <ele>244.049</ele>
        <time>2015-04-30T07:30:54Z</time>
      </trkpt>
      <trkpt lat="43.48308" lon="0.53545">
        <ele>240.429</ele>
        <time>2015-04-30T07:30:55Z</time>
      </trkpt>
      <trkpt lat="43.48307" lon="0.53538">
        <ele>240.429</ele>
        <time>2015-04-30T07:30:56Z</time>
      </trkpt>
      <trkpt lat="43.48308" lon="0.53521">
        <ele>238.444</ele>
        <time>2015-04-30T07:31:01Z</time>
      </trkpt>
      <trkpt lat="43.48328" lon="0.53519">
        <ele>236.101</ele>
        <time>2015-04-30T07:31:05Z</time>
      </trkpt>
      <trkpt lat="43.48332" lon="0.5352">
        <ele>234.861</ele>
        <time>2015-04-30T07:31:07Z</time>
      </trkpt>
      <trkpt lat="43.48336" lon="0.53521">
        <ele>232.914</ele>
        <time>2015-04-30T07:31:09Z</time>
      </trkpt>
      <trkpt lat="43.48342" lon="0.53521">
        <ele>229.146</ele>
        <time>2015-04-30T07:31:11Z</time>
      </trkpt>
      <trkpt lat="43.48344" lon="0.53521">
        <ele>229.146</ele>
        <time>2015-04-30T07:31:12Z</time>
      </trkpt>
      <trkpt lat="43.48345" lon="0.53521">
        <ele>227.621</ele>
        <time>2015-04-30T07:31:13Z</time>
      </trkpt>
      <trkpt lat="43.4835" lon="0.53526">
        <ele>227.299</ele>
        <time>2015-04-30T07:31:16Z</time>
      </trkpt>
      <trkpt lat="43.48361" lon="0.5353">
        <ele>225.545</ele>
        <time>2015-04-30T07:31:24Z</time>
      </trkpt>
      <trkpt lat="43.48366" lon="0.53529">
        <ele>223.816</ele>
        <time>2015-04-30T07:31:26Z</time>
      </trkpt>
      <trkpt lat="43.48372" lon="0.53526">
        <ele>223.227</ele>
        <time>2015-04-30T07:31:28Z</time>
      </trkpt>
      <trkpt lat="43.48376" lon="0.53542">
        <ele>223.679</ele>
        <time>2015-04-30T07:31:36Z</time>
      </trkpt>
      <trkpt lat="43.4838" lon="0.53555">
        <ele>224.589</ele>
        <time>2015-04-30T07:31:43Z</time>
      </trkpt>
      <trkpt lat="43.48389" lon="0.53578">
        <ele>226.249</ele>
        <time>2015-04-30T07:31:56Z</time>
      </trkpt>
      <trkpt lat="43.48403" lon="0.53588">
        <ele>228.014</ele>
        <time>2015-04-30T07:32:07Z</time>
      </trkpt>
      <trkpt lat="43.48427" lon="0.5359">
        <ele>230.406</ele>
        <time>2015-04-30T07:32:25Z</time>
      </trkpt>
      <trkpt lat="43.48438" lon="0.53589">
        <ele>234.181</ele>
        <time>2015-04-30T07:32:35Z</time>
      </trkpt>
      <trkpt lat="43.48444" lon="0.53589">
        <ele>236.137</ele>
        <time>2015-04-30T07:32:41Z</time>
      </trkpt>
      <trkpt lat="43.48449" lon="0.53589">
        <ele>238.088</ele>
        <time>2015-04-30T07:32:55Z</time>
      </trkpt>
      <trkpt lat="43.48454" lon="0.5359">
        <ele>239.062</ele>
        <time>2015-04-30T07:33:08Z</time>
      </trkpt>
      <trkpt lat="43.48458" lon="0.53589">
        <ele>240.145</ele>
        <time>2015-04-30T07:33:20Z</time>
      </trkpt>
      <trkpt lat="43.48465" lon="0.53585">
        <ele>241.474</ele>
        <time>2015-04-30T07:33:36Z</time>
      </trkpt>
      <trkpt lat="43.48466" lon="0.53583">
        <ele>241.586</ele>
        <time>2015-04-30T07:33:38Z</time>
      </trkpt>
      <trkpt lat="43.48484" lon="0.53572">
        <ele>244.605</ele>
        <time>2015-04-30T07:33:57Z</time>
      </trkpt>
      <trkpt lat="43.48498" lon="0.53569">
        <ele>248.586</ele>
        <time>2015-04-30T07:34:08Z</time>
      </trkpt>
      <trkpt lat="43.48504" lon="0.53567">
        <ele>249.753</ele>
        <time>2015-04-30T07:34:14Z</time>
      </trkpt>
      <trkpt lat="43.48512" lon="0.53552">
        <ele>251.659</ele>
        <time>2015-04-30T07:34:28Z</time>
      </trkpt>
      <trkpt lat="43.48517" lon="0.53548">
        <ele>253.25</ele>
        <time>2015-04-30T07:34:35Z</time>
      </trkpt>
      <trkpt lat="43.48523" lon="0.5355">
        <ele>255.047</ele>
        <time>2015-04-30T07:34:40Z</time>
      </trkpt>
      <trkpt lat="43.48522" lon="0.53552">
        <ele>254.514</ele>
        <time>2015-04-30T07:34:45Z</time>
      </trkpt>
      <trkpt lat="43.48522" lon="0.5355">
        <ele>255.047</ele>
        <time>2015-04-30T07:35:02Z</time>
      </trkpt>
      <trkpt lat="43.48525" lon="0.5355">
        <ele>256.747</ele>
        <time>2015-04-30T07:35:17Z</time>
      </trkpt>
      <trkpt lat="43.48527" lon="0.53558">
        <ele>257.395</ele>
        <time>2015-04-30T07:35:28Z</time>
      </trkpt>
      <trkpt lat="43.48529" lon="0.53573">
        <ele>258.119</ele>
        <time>2015-04-30T07:35:37Z</time>
      </trkpt>
      <trkpt lat="43.48531" lon="0.53568">
        <ele>259.843</ele>
        <time>2015-04-30T07:35:45Z</time>
      </trkpt>
      <trkpt lat="43.48533" lon="0.53531">
        <ele>261.04</ele>
        <time>2015-04-30T07:36:00Z</time>
      </trkpt>
      <trkpt lat="43.48519" lon="0.53503">
        <ele>262.344</ele>
        <time>2015-04-30T07:36:11Z</time>
      </trkpt>
      <trkpt lat="43.48496" lon="0.5348">
        <ele>260.678</ele>
        <time>2015-04-30T07:36:23Z</time>
      </trkpt>
      <trkpt lat="43.48477" lon="0.53471">
        <ele>258.843</ele>
        <time>2015-04-30T07:36:28Z</time>
      </trkpt>
      <trkpt lat="43.48473" lon="0.53469">
        <ele>257.451</ele>
        <time>2015-04-30T07:36:30Z</time>
      </trkpt>
      <trkpt lat="43.48472" lon="0.53468">
        <ele>255.842</ele>
        <time>2015-04-30T07:36:32Z</time>
      </trkpt>
      <trkpt lat="43.48465" lon="0.53475">
        <ele>254.586</ele>
        <time>2015-04-30T07:36:37Z</time>
      </trkpt>
      <trkpt lat="43.48457" lon="0.5348">
        <ele>251.237</ele>
        <time>2015-04-30T07:36:40Z</time>
      </trkpt>
      <trkpt lat="43.4845" lon="0.53483">
        <ele>249.199</ele>
        <time>2015-04-30T07:36:42Z</time>
      </trkpt>
      <trkpt lat="43.48447" lon="0.53485">
        <ele>246.037</ele>
        <time>2015-04-30T07:36:43Z</time>
      </trkpt>
      <trkpt lat="43.48441" lon="0.5349">
        <ele>241.921</ele>
        <time>2015-04-30T07:36:46Z</time>
      </trkpt>
      <trkpt lat="43.4844" lon="0.53495">
        <ele>241.915</ele>
        <time>2015-04-30T07:36:47Z</time>
      </trkpt>
      <trkpt lat="43.48437" lon="0.53502">
        <ele>239.477</ele>
        <time>2015-04-30T07:36:49Z</time>
      </trkpt>
      <trkpt lat="43.48435" lon="0.53506">
        <ele>236.494</ele>
        <time>2015-04-30T07:36:50Z</time>
      </trkpt>
      <trkpt lat="43.48426" lon="0.53509">
        <ele>231.93</ele>
        <time>2015-04-30T07:36:53Z</time>
      </trkpt>
      <trkpt lat="43.48416" lon="0.53506">
        <ele>230.699</ele>
        <time>2015-04-30T07:36:56Z</time>
      </trkpt>
      <trkpt lat="43.48407" lon="0.53501">
        <ele>229.896</ele>
        <time>2015-04-30T07:37:00Z</time>
      </trkpt>
      <trkpt lat="43.48398" lon="0.53498">
        <ele>225.829</ele>
        <time>2015-04-30T07:37:03Z</time>
      </trkpt>
      <trkpt lat="43.48376" lon="0.53509">
        <ele>222.545</ele>
        <time>2015-04-30T07:37:09Z</time>
      </trkpt>
      <trkpt lat="43.48374" lon="0.53512">
        <ele>222.545</ele>
        <time>2015-04-30T07:37:10Z</time>
      </trkpt>
      <trkpt lat="43.48372" lon="0.53515">
        <ele>223.903</ele>
        <time>2015-04-30T07:37:17Z</time>
      </trkpt>
      <trkpt lat="43.48341" lon="0.535">
        <ele>226.339</ele>
        <time>2015-04-30T07:37:30Z</time>
      </trkpt>
      <trkpt lat="43.48338" lon="0.53497">
        <ele>227.251</ele>
        <time>2015-04-30T07:37:47Z</time>
      </trkpt>
      <trkpt lat="43.48333" lon="0.53491">
        <ele>228.328</ele>
        <time>2015-04-30T07:38:03Z</time>
      </trkpt>
      <trkpt lat="43.48331" lon="0.53492">
        <ele>229.97</ele>
        <time>2015-04-30T07:38:18Z</time>
      </trkpt>
      <trkpt lat="43.48323" lon="0.53497">
        <ele>231.716</ele>
        <time>2015-04-30T07:38:23Z</time>
      </trkpt>
      <trkpt lat="43.48322" lon="0.53499">
        <ele>233.357</ele>
        <time>2015-04-30T07:38:25Z</time>
      </trkpt>
      <trkpt lat="43.48316" lon="0.5351">
        <ele>236.885</ele>
        <time>2015-04-30T07:38:33Z</time>
      </trkpt>
      <trkpt lat="43.48314" lon="0.5351">
        <ele>236.755</ele>
        <time>2015-04-30T07:38:35Z</time>
      </trkpt>
      <trkpt lat="43.48311" lon="0.53502">
        <ele>236.069</ele>
        <time>2015-04-30T07:38:39Z</time>
      </trkpt>
      <trkpt lat="43.4831" lon="0.53494">
        <ele>235.146</ele>
        <time>2015-04-30T07:38:41Z</time>
      </trkpt>
      <trkpt lat="43.48311" lon="0.53481">
        <ele>234.97</ele>
        <time>2015-04-30T07:38:43Z</time>
      </trkpt>
      <trkpt lat="43.48313" lon="0.53462">
        <ele>233.58</ele>
        <time>2015-04-30T07:38:45Z</time>
      </trkpt>
      <trkpt lat="43.48314" lon="0.53452">
        <ele>232.884</ele>
        <time>2015-04-30T07:38:46Z</time>
      </trkpt>
      <trkpt lat="43.4832" lon="0.53417">
        <ele>230.12</ele>
        <time>2015-04-30T07:38:49Z</time>
      </trkpt>
      <trkpt lat="43.48325" lon="0.53392">
        <ele>224.113</ele>
        <time>2015-04-30T07:38:51Z</time>
      </trkpt>
      <trkpt lat="43.48327" lon="0.53381">
        <ele>224.107</ele>
        <time>2015-04-30T07:38:52Z</time>
      </trkpt>
      <trkpt lat="43.48331" lon="0.53358">
        <ele>222.531</ele>
        <time>2015-04-30T07:38:54Z</time>
      </trkpt>
      <trkpt lat="43.48338" lon="0.53319">
        <ele>219.193</ele>
        <time>2015-04-30T07:38:57Z</time>
      </trkpt>
      <trkpt lat="43.48341" lon="0.53292">
        <ele>216.524</ele>
        <time>2015-04-30T07:38:59Z</time>
      </trkpt>
      <trkpt lat="43.48344" lon="0.53267">
        <ele>214.709</ele>
        <time>2015-04-30T07:39:01Z</time>
      </trkpt>
      <trkpt lat="43.48344" lon="0.53243">
        <ele>211.747</ele>
        <time>2015-04-30T07:39:03Z</time>
      </trkpt>
      <trkpt lat="43.48343" lon="0.53233">
        <ele>208.524</ele>
        <time>2015-04-30T07:39:04Z</time>
      </trkpt>
      <trkpt lat="43.48335" lon="0.53193">
        <ele>206.669</ele>
        <time>2015-04-30T07:39:08Z</time>
      </trkpt>
      <trkpt lat="43.48331" lon="0.53176">
        <ele>204.224</ele>
        <time>2015-04-30T07:39:10Z</time>
      </trkpt>
      <trkpt lat="43.48329" lon="0.53159">
        <ele>201.815</ele>
        <time>2015-04-30T07:39:13Z</time>
      </trkpt>
      <trkpt lat="43.48333" lon="0.53135">
        <ele>200.948</ele>
        <time>2015-04-30T07:39:22Z</time>
      </trkpt>
      <trkpt lat="43.48341" lon="0.53101">
        <ele>200.558</ele>
        <time>2015-04-30T07:39:32Z</time>
      </trkpt>
      <trkpt lat="43.48351" lon="0.5305">
        <ele>199.481</ele>
        <time>2015-04-30T07:39:44Z</time>
      </trkpt>
      <trkpt lat="43.48353" lon="0.52985">
        <ele>197.176</ele>
        <time>2015-04-30T07:39:58Z</time>
      </trkpt>
      <trkpt lat="43.48347" lon="0.52939">
        <ele>197.604</ele>
        <time>2015-04-30T07:40:08Z</time>
      </trkpt>
      <trkpt lat="43.48346" lon="0.52931">
        <ele>197.649</ele>
        <time>2015-04-30T07:40:10Z</time>
      </trkpt>
      <trkpt lat="43.48342" lon="0.52918">
        <ele>196.721</ele>
        <time>2015-04-30T07:40:16Z</time>
      </trkpt>
      <trkpt lat="43.48345" lon="0.52929">
        <ele>197.255</ele>
        <time>2015-04-30T07:40:23Z</time>
      </trkpt>
      <trkpt lat="43.48329" lon="0.52961">
        <ele>197.16</ele>
        <time>2015-04-30T07:40:35Z</time>
      </trkpt>
      <trkpt lat="43.48323" lon="0.52981">
        <ele>197.844</ele>
        <time>2015-04-30T07:40:46Z</time>
      </trkpt>
      <trkpt lat="43.48299" lon="0.52987">
        <ele>196.913</ele>
        <time>2015-04-30T07:40:56Z</time>
      </trkpt>
      <trkpt lat="43.48278" lon="0.52987">
        <ele>197.309</ele>
        <time>2015-04-30T07:41:06Z</time>
      </trkpt>
      <trkpt lat="43.48258" lon="0.52984">
        <ele>197.695</ele>
        <time>2015-04-30T07:41:17Z</time>
      </trkpt>
      <trkpt lat="43.4824" lon="0.52979">
        <ele>197.347</ele>
        <time>2015-04-30T07:41:28Z</time>
      </trkpt>
      <trkpt lat="43.48211" lon="0.52968">
        <ele>197.756</ele>
        <time>2015-04-30T07:41:41Z</time>
      </trkpt>
      <trkpt lat="43.48177" lon="0.52964">
        <ele>197.135</ele>
        <time>2015-04-30T07:41:53Z</time>
      </trkpt>
      <trkpt lat="43.48129" lon="0.52957">
        <ele>196.967</ele>
        <time>2015-04-30T07:42:05Z</time>
      </trkpt>
      <trkpt lat="43.48119" lon="0.52953">
        <ele>196.536</ele>
        <time>2015-04-30T07:42:12Z</time>
      </trkpt>
      <trkpt lat="43.48096" lon="0.52935">
        <ele>197.577</ele>
        <time>2015-04-30T07:42:22Z</time>
      </trkpt>
      <trkpt lat="43.48075" lon="0.52906">
        <ele>197.366</ele>
        <time>2015-04-30T07:42:32Z</time>
      </trkpt>
      <trkpt lat="43.48059" lon="0.52881">
        <ele>197.686</ele>
        <time>2015-04-30T07:42:42Z</time>
      </trkpt>
      <trkpt lat="43.48036" lon="0.52864">
        <ele>199.278</ele>
        <time>2015-04-30T07:42:53Z</time>
      </trkpt>
      <trkpt lat="43.48006" lon="0.52852">
        <ele>198.753</ele>
        <time>2015-04-30T07:43:03Z</time>
      </trkpt>
      <trkpt lat="43.47982" lon="0.52848">
        <ele>198.933</ele>
        <time>2015-04-30T07:43:12Z</time>
      </trkpt>
      <trkpt lat="43.47958" lon="0.52842">
        <ele>200.742</ele>
        <time>2015-04-30T07:43:23Z</time>
      </trkpt>
      <trkpt lat="43.47944" lon="0.5286">
        <ele>200.779</ele>
        <time>2015-04-30T07:43:32Z</time>
      </trkpt>
      <trkpt lat="43.47921" lon="0.52877">
        <ele>200.553</ele>
        <time>2015-04-30T07:43:41Z</time>
      </trkpt>
      <trkpt lat="43.47871" lon="0.52879">
        <ele>199.696</ele>
        <time>2015-04-30T07:43:54Z</time>
      </trkpt>
      <trkpt lat="43.47831" lon="0.52887">
        <ele>201.811</ele>
        <time>2015-04-30T07:44:07Z</time>
      </trkpt>
      <trkpt lat="43.47789" lon="0.52892">
        <ele>201.6</ele>
        <time>2015-04-30T07:44:20Z</time>
      </trkpt>
      <trkpt lat="43.47748" lon="0.52892">
        <ele>201.633</ele>
        <time>2015-04-30T07:44:32Z</time>
      </trkpt>
      <trkpt lat="43.47746" lon="0.52891">
        <ele>201.077</ele>
        <time>2015-04-30T07:44:36Z</time>
      </trkpt>
      <trkpt lat="43.47742" lon="0.52891">
        <ele>202.547</ele>
        <time>2015-04-30T07:44:41Z</time>
      </trkpt>
      <trkpt lat="43.47748" lon="0.52892">
        <ele>203.373</ele>
        <time>2015-04-30T07:44:45Z</time>
      </trkpt>
      <trkpt lat="43.47747" lon="0.52909">
        <ele>204.012</ele>
        <time>2015-04-30T07:44:48Z</time>
      </trkpt>
      <trkpt lat="43.47732" lon="0.52906">
        <ele>205.917</ele>
        <time>2015-04-30T07:44:58Z</time>
      </trkpt>
      <trkpt lat="43.4773" lon="0.52907">
        <ele>204.28</ele>
        <time>2015-04-30T07:44:59Z</time>
      </trkpt>
      <trkpt lat="43.47718" lon="0.52911">
        <ele>204.185</ele>
        <time>2015-04-30T07:45:08Z</time>
      </trkpt>
      <trkpt lat="43.47695" lon="0.52925">
        <ele>202.427</ele>
        <time>2015-04-30T07:45:17Z</time>
      </trkpt>
      <trkpt lat="43.47693" lon="0.52927">
        <ele>201.32</ele>
        <time>2015-04-30T07:45:19Z</time>
      </trkpt>
      <trkpt lat="43.47693" lon="0.52927">
        <ele>200.682</ele>
        <time>2015-04-30T07:45:32Z</time>
      </trkpt>
      <trkpt lat="43.47693" lon="0.52927">
        <ele>201.746</ele>
        <time>2015-04-30T07:45:40Z</time>
      </trkpt>
      <trkpt lat="43.47675" lon="0.52945">
        <ele>201.525</ele>
        <time>2015-04-30T07:45:46Z</time>
      </trkpt>
      <trkpt lat="43.47663" lon="0.52983">
        <ele>203.225</ele>
        <time>2015-04-30T07:46:00Z</time>
      </trkpt>
      <trkpt lat="43.47662" lon="0.52989">
        <ele>203.681</ele>
        <time>2015-04-30T07:46:03Z</time>
      </trkpt>
      <trkpt lat="43.47659" lon="0.53022">
        <ele>205.238</ele>
        <time>2015-04-30T07:46:17Z</time>
      </trkpt>
      <trkpt lat="43.4766" lon="0.53054">
        <ele>207.182</ele>
        <time>2015-04-30T07:46:28Z</time>
      </trkpt>
      <trkpt lat="43.47657" lon="0.53089">
        <ele>208.743</ele>
        <time>2015-04-30T07:46:42Z</time>
      </trkpt>
      <trkpt lat="43.47657" lon="0.53089">
        <ele>208.744</ele>
        <time>2015-04-30T07:46:43Z</time>
      </trkpt>
      <trkpt lat="43.47655" lon="0.53117">
        <ele>210.344</ele>
        <time>2015-04-30T07:46:56Z</time>
      </trkpt>
      <trkpt lat="43.47652" lon="0.53151">
        <ele>210.331</ele>
        <time>2015-04-30T07:47:07Z</time>
      </trkpt>
      <trkpt lat="43.47647" lon="0.53208">
        <ele>211.906</ele>
        <time>2015-04-30T07:47:17Z</time>
      </trkpt>
      <trkpt lat="43.47636" lon="0.53248">
        <ele>213.408</ele>
        <time>2015-04-30T07:47:27Z</time>
      </trkpt>
      <trkpt lat="43.47633" lon="0.53258">
        <ele>213.513</ele>
        <time>2015-04-30T07:47:32Z</time>
      </trkpt>
      <trkpt lat="43.4763" lon="0.53286">
        <ele>213.886</ele>
        <time>2015-04-30T07:47:41Z</time>
      </trkpt>
      <trkpt lat="43.47629" lon="0.53293">
        <ele>213.978</ele>
        <time>2015-04-30T07:47:44Z</time>
      </trkpt>
      <trkpt lat="43.47627" lon="0.53306">
        <ele>214.137</ele>
        <time>2015-04-30T07:47:50Z</time>
      </trkpt>
      <trkpt lat="43.47626" lon="0.5331">
        <ele>214.2</ele>
        <time>2015-04-30T07:47:52Z</time>
      </trkpt>
      <trkpt lat="43.47623" lon="0.53324">
        <ele>214.369</ele>
        <time>2015-04-30T07:47:56Z</time>
      </trkpt>
      <trkpt lat="43.47621" lon="0.53335">
        <ele>214.47</ele>
        <time>2015-04-30T07:48:01Z</time>
      </trkpt>
      <trkpt lat="43.47617" lon="0.53358">
        <ele>215.334</ele>
        <time>2015-04-30T07:48:12Z</time>
      </trkpt>
      <trkpt lat="43.47616" lon="0.53366">
        <ele>216.146</ele>
        <time>2015-04-30T07:48:18Z</time>
      </trkpt>
      <trkpt lat="43.47615" lon="0.53374">
        <ele>218.494</ele>
        <time>2015-04-30T07:48:26Z</time>
      </trkpt>
      <trkpt lat="43.47615" lon="0.53374">
        <ele>221.43</ele>
        <time>2015-04-30T07:48:35Z</time>
      </trkpt>
      <trkpt lat="43.47615" lon="0.53374">
        <ele>223.562</ele>
        <time>2015-04-30T07:48:43Z</time>
      </trkpt>
      <trkpt lat="43.47615" lon="0.53374">
        <ele>223.147</ele>
        <time>2015-04-30T07:48:59Z</time>
      </trkpt>
      <trkpt lat="43.47615" lon="0.53374">
        <ele>224.028</ele>
        <time>2015-04-30T07:49:17Z</time>
      </trkpt>
      <trkpt lat="43.47615" lon="0.53374">
        <ele>225.69</ele>
        <time>2015-04-30T07:49:29Z</time>
      </trkpt>
      <trkpt lat="43.47615" lon="0.53374">
        <ele>225.808</ele>
        <time>2015-04-30T07:49:30Z</time>
      </trkpt>
      <trkpt lat="43.47601" lon="0.53445">
        <ele>227.923</ele>
        <time>2015-04-30T07:49:45Z</time>
      </trkpt>
      <trkpt lat="43.47601" lon="0.53445">
        <ele>228.44</ele>
        <time>2015-04-30T07:49:47Z</time>
      </trkpt>
      <trkpt lat="43.47597" lon="0.53473">
        <ele>229.355</ele>
        <time>2015-04-30T07:49:56Z</time>
      </trkpt>
      <trkpt lat="43.47588" lon="0.53488">
        <ele>227.873</ele>
        <time>2015-04-30T07:49:59Z</time>
      </trkpt>
      <trkpt lat="43.4758" lon="0.53499">
        <ele>226.463</ele>
        <time>2015-04-30T07:50:01Z</time>
      </trkpt>
      <trkpt lat="43.47576" lon="0.53507">
        <ele>225.21</ele>
        <time>2015-04-30T07:50:03Z</time>
      </trkpt>
      <trkpt lat="43.47571" lon="0.53537">
        <ele>226.793</ele>
        <time>2015-04-30T07:50:09Z</time>
      </trkpt>
      <trkpt lat="43.47564" lon="0.53569">
        <ele>227.105</ele>
        <time>2015-04-30T07:50:20Z</time>
      </trkpt>
      <trkpt lat="43.47556" lon="0.53595">
        <ele>228.881</ele>
        <time>2015-04-30T07:50:31Z</time>
      </trkpt>
      <trkpt lat="43.47552" lon="0.53607">
        <ele>228.381</ele>
        <time>2015-04-30T07:50:36Z</time>
      </trkpt>
      <trkpt lat="43.47536" lon="0.53622">
        <ele>229.37</ele>
        <time>2015-04-30T07:50:44Z</time>
      </trkpt>
      <trkpt lat="43.47531" lon="0.53616">
        <ele>229.301</ele>
        <time>2015-04-30T07:50:47Z</time>
      </trkpt>
      <trkpt lat="43.47524" lon="0.53606">
        <ele>230.471</ele>
        <time>2015-04-30T07:50:55Z</time>
      </trkpt>
      <trkpt lat="43.47521" lon="0.53604">
        <ele>231.267</ele>
        <time>2015-04-30T07:50:57Z</time>
      </trkpt>
      <trkpt lat="43.47511" lon="0.53591">
        <ele>233.019</ele>
        <time>2015-04-30T07:51:04Z</time>
      </trkpt>
      <trkpt lat="43.47512" lon="0.53588">
        <ele>234.153</ele>
        <time>2015-04-30T07:51:25Z</time>
      </trkpt>
      <trkpt lat="43.47504" lon="0.53566">
        <ele>236.944</ele>
        <time>2015-04-30T07:51:41Z</time>
      </trkpt>
      <trkpt lat="43.47501" lon="0.53553">
        <ele>236.926</ele>
        <time>2015-04-30T07:51:52Z</time>
      </trkpt>
      <trkpt lat="43.47493" lon="0.53521">
        <ele>238.797</ele>
        <time>2015-04-30T07:52:11Z</time>
      </trkpt>
      <trkpt lat="43.47476" lon="0.53481">
        <ele>241.153</ele>
        <time>2015-04-30T07:52:30Z</time>
      </trkpt>
      <trkpt lat="43.47484" lon="0.53448">
        <ele>244.194</ele>
        <time>2015-04-30T07:52:46Z</time>
      </trkpt>
      <trkpt lat="43.47477" lon="0.53438">
        <ele>244.842</ele>
        <time>2015-04-30T07:52:52Z</time>
      </trkpt>
      <trkpt lat="43.47477" lon="0.53429">
        <ele>245.616</ele>
        <time>2015-04-30T07:52:57Z</time>
      </trkpt>
      <trkpt lat="43.47474" lon="0.53409">
        <ele>248.732</ele>
        <time>2015-04-30T07:53:11Z</time>
      </trkpt>
      <trkpt lat="43.47471" lon="0.53381">
        <ele>250.025</ele>
        <time>2015-04-30T07:53:24Z</time>
      </trkpt>
      <trkpt lat="43.47473" lon="0.53371">
        <ele>250.23</ele>
        <time>2015-04-30T07:53:28Z</time>
      </trkpt>
      <trkpt lat="43.47469" lon="0.53361">
        <ele>250.782</ele>
        <time>2015-04-30T07:53:32Z</time>
      </trkpt>
      <trkpt lat="43.47471" lon="0.53349">
        <ele>251.38</ele>
        <time>2015-04-30T07:53:37Z</time>
      </trkpt>
      <trkpt lat="43.4747" lon="0.53342">
        <ele>252.075</ele>
        <time>2015-04-30T07:53:40Z</time>
      </trkpt>
      <trkpt lat="43.4747" lon="0.53325">
        <ele>252.575</ele>
        <time>2015-04-30T07:53:46Z</time>
      </trkpt>
      <trkpt lat="43.47465" lon="0.533">
        <ele>254.434</ele>
        <time>2015-04-30T07:53:55Z</time>
      </trkpt>
      <trkpt lat="43.4746" lon="0.53288">
        <ele>254.858</ele>
        <time>2015-04-30T07:54:01Z</time>
      </trkpt>
      <trkpt lat="43.47457" lon="0.53277">
        <ele>253.909</ele>
        <time>2015-04-30T07:54:14Z</time>
      </trkpt>
      <trkpt lat="43.47458" lon="0.53274">
        <ele>253.25</ele>
        <time>2015-04-30T07:54:24Z</time>
      </trkpt>
      <trkpt lat="43.47458" lon="0.53277">
        <ele>254.186</ele>
        <time>2015-04-30T07:54:26Z</time>
      </trkpt>
      <trkpt lat="43.47458" lon="0.53288">
        <ele>254.917</ele>
        <time>2015-04-30T07:54:31Z</time>
      </trkpt>
      <trkpt lat="43.47456" lon="0.53295">
        <ele>255.171</ele>
        <time>2015-04-30T07:54:34Z</time>
      </trkpt>
      <trkpt lat="43.47452" lon="0.53316">
        <ele>257.363</ele>
        <time>2015-04-30T07:54:43Z</time>
      </trkpt>
      <trkpt lat="43.47445" lon="0.53341">
        <ele>259.153</ele>
        <time>2015-04-30T07:54:54Z</time>
      </trkpt>
      <trkpt lat="43.47438" lon="0.5337">
        <ele>260.528</ele>
        <time>2015-04-30T07:55:03Z</time>
      </trkpt>
      <trkpt lat="43.47431" lon="0.53424">
        <ele>261.693</ele>
        <time>2015-04-30T07:55:16Z</time>
      </trkpt>
      <trkpt lat="43.47428" lon="0.53445">
        <ele>262.359</ele>
        <time>2015-04-30T07:55:21Z</time>
      </trkpt>
      <trkpt lat="43.47426" lon="0.53462">
        <ele>262.214</ele>
        <time>2015-04-30T07:55:26Z</time>
      </trkpt>
      <trkpt lat="43.47426" lon="0.53509">
        <ele>262.782</ele>
        <time>2015-04-30T07:55:37Z</time>
      </trkpt>
      <trkpt lat="43.47425" lon="0.53556">
        <ele>262.816</ele>
        <time>2015-04-30T07:55:47Z</time>
      </trkpt>
      <trkpt lat="43.47419" lon="0.53579">
        <ele>262.692</ele>
        <time>2015-04-30T07:55:53Z</time>
      </trkpt>
      <trkpt lat="43.47418" lon="0.53611">
        <ele>262.827</ele>
        <time>2015-04-30T07:56:03Z</time>
      </trkpt>
      <trkpt lat="43.4742" lon="0.53657">
        <ele>262.5</ele>
        <time>2015-04-30T07:56:14Z</time>
      </trkpt>
      <trkpt lat="43.47416" lon="0.53709">
        <ele>263.837</ele>
        <time>2015-04-30T07:56:26Z</time>
      </trkpt>
      <trkpt lat="43.47413" lon="0.53764">
        <ele>264.214</ele>
        <time>2015-04-30T07:56:37Z</time>
      </trkpt>
      <trkpt lat="43.47414" lon="0.53801">
        <ele>265.512</ele>
        <time>2015-04-30T07:56:46Z</time>
      </trkpt>
      <trkpt lat="43.47422" lon="0.53832">
        <ele>266.257</ele>
        <time>2015-04-30T07:56:56Z</time>
      </trkpt>
      <trkpt lat="43.47434" lon="0.53875">
        <ele>268.865</ele>
        <time>2015-04-30T07:57:07Z</time>
      </trkpt>
      <trkpt lat="43.47434" lon="0.53879">
        <ele>268.863</ele>
        <time>2015-04-30T07:57:08Z</time>
      </trkpt>
      <trkpt lat="43.47439" lon="0.53933">
        <ele>269.871</ele>
        <time>2015-04-30T07:57:20Z</time>
      </trkpt>
      <trkpt lat="43.47448" lon="0.53969">
        <ele>271.405</ele>
        <time>2015-04-30T07:57:30Z</time>
      </trkpt>
      <trkpt lat="43.47451" lon="0.53993">
        <ele>271.922</ele>
        <time>2015-04-30T07:57:39Z</time>
      </trkpt>
      <trkpt lat="43.47456" lon="0.54006">
        <ele>272.166</ele>
        <time>2015-04-30T07:57:46Z</time>
      </trkpt>
      <trkpt lat="43.47453" lon="0.54">
        <ele>272.341</ele>
        <time>2015-04-30T07:57:52Z</time>
      </trkpt>
      <trkpt lat="43.47412" lon="0.53986">
        <ele>270.112</ele>
        <time>2015-04-30T07:58:03Z</time>
      </trkpt>
      <trkpt lat="43.47377" lon="0.53976">
        <ele>270.675</ele>
        <time>2015-04-30T07:58:10Z</time>
      </trkpt>
      <trkpt lat="43.4732" lon="0.53975">
        <ele>270.674</ele>
        <time>2015-04-30T07:58:24Z</time>
      </trkpt>
      <trkpt lat="43.47277" lon="0.53978">
        <ele>273.157</ele>
        <time>2015-04-30T07:58:35Z</time>
      </trkpt>
      <trkpt lat="43.47268" lon="0.53979">
        <ele>274.056</ele>
        <time>2015-04-30T07:58:37Z</time>
      </trkpt>
      <trkpt lat="43.47254" lon="0.53979">
        <ele>274.241</ele>
        <time>2015-04-30T07:58:40Z</time>
      </trkpt>
      <trkpt lat="43.47242" lon="0.53979">
        <ele>274.429</ele>
        <time>2015-04-30T07:58:43Z</time>
      </trkpt>
      <trkpt lat="43.47209" lon="0.53977">
        <ele>274.468</ele>
        <time>2015-04-30T07:58:50Z</time>
      </trkpt>
      <trkpt lat="43.47197" lon="0.53974">
        <ele>274.409</ele>
        <time>2015-04-30T07:58:53Z</time>
      </trkpt>
      <trkpt lat="43.47142" lon="0.53957">
        <ele>275.948</ele>
        <time>2015-04-30T07:59:05Z</time>
      </trkpt>
      <trkpt lat="43.47103" lon="0.53942">
        <ele>277.178</ele>
        <time>2015-04-30T07:59:13Z</time>
      </trkpt>
      <trkpt lat="43.47051" lon="0.53924">
        <ele>277.085</ele>
        <time>2015-04-30T07:59:25Z</time>
      </trkpt>
      <trkpt lat="43.46997" lon="0.53909">
        <ele>275.766</ele>
        <time>2015-04-30T07:59:39Z</time>
      </trkpt>
      <trkpt lat="43.4699" lon="0.53907">
        <ele>275.85</ele>
        <time>2015-04-30T07:59:41Z</time>
      </trkpt>
      <trkpt lat="43.46978" lon="0.53905">
        <ele>275.599</ele>
        <time>2015-04-30T07:59:44Z</time>
      </trkpt>
      <trkpt lat="43.46937" lon="0.53895">
        <ele>272.18</ele>
        <time>2015-04-30T07:59:53Z</time>
      </trkpt>
      <trkpt lat="43.46931" lon="0.53892">
        <ele>272.173</ele>
        <time>2015-04-30T07:59:54Z</time>
      </trkpt>
      <trkpt lat="43.46926" lon="0.53889">
        <ele>273.081</ele>
        <time>2015-04-30T07:59:55Z</time>
      </trkpt>
      <trkpt lat="43.46883" lon="0.53863">
        <ele>271.757</ele>
        <time>2015-04-30T08:00:03Z</time>
      </trkpt>
      <trkpt lat="43.46831" lon="0.53813">
        <ele>270.515</ele>
        <time>2015-04-30T08:00:13Z</time>
      </trkpt>
      <trkpt lat="43.46766" lon="0.53767">
        <ele>270.723</ele>
        <time>2015-04-30T08:00:26Z</time>
      </trkpt>
      <trkpt lat="43.46752" lon="0.53756">
        <ele>272.308</ele>
        <time>2015-04-30T08:00:29Z</time>
      </trkpt>
      <trkpt lat="43.46711" lon="0.53718">
        <ele>270.652</ele>
        <time>2015-04-30T08:00:39Z</time>
      </trkpt>
      <trkpt lat="43.46659" lon="0.53659">
        <ele>269.614</ele>
        <time>2015-04-30T08:00:52Z</time>
      </trkpt>
      <trkpt lat="43.46642" lon="0.5364">
        <ele>270.048</ele>
        <time>2015-04-30T08:00:56Z</time>
      </trkpt>
      <trkpt lat="43.46634" lon="0.53633">
        <ele>270.079</ele>
        <time>2015-04-30T08:00:58Z</time>
      </trkpt>
      <trkpt lat="43.46613" lon="0.53636">
        <ele>269.586</ele>
        <time>2015-04-30T08:01:02Z</time>
      </trkpt>
      <trkpt lat="43.46582" lon="0.53657">
        <ele>268.025</ele>
        <time>2015-04-30T08:01:08Z</time>
      </trkpt>
      <trkpt lat="43.46528" lon="0.53693">
        <ele>267.376</ele>
        <time>2015-04-30T08:01:18Z</time>
      </trkpt>
      <trkpt lat="43.46517" lon="0.537">
        <ele>269.118</ele>
        <time>2015-04-30T08:01:20Z</time>
      </trkpt>
      <trkpt lat="43.46507" lon="0.53707">
        <ele>267.706</ele>
        <time>2015-04-30T08:01:22Z</time>
      </trkpt>
      <trkpt lat="43.46463" lon="0.53738">
        <ele>269.535</ele>
        <time>2015-04-30T08:01:31Z</time>
      </trkpt>
      <trkpt lat="43.46439" lon="0.53754">
        <ele>270.819</ele>
        <time>2015-04-30T08:01:40Z</time>
      </trkpt>
      <trkpt lat="43.46413" lon="0.53772">
        <ele>273.262</ele>
        <time>2015-04-30T08:01:48Z</time>
      </trkpt>
      <trkpt lat="43.46371" lon="0.53802">
        <ele>274.82</ele>
        <time>2015-04-30T08:02:01Z</time>
      </trkpt>
      <trkpt lat="43.46329" lon="0.53832">
        <ele>276.399</ele>
        <time>2015-04-30T08:02:14Z</time>
      </trkpt>
      <trkpt lat="43.46298" lon="0.53854">
        <ele>279.772</ele>
        <time>2015-04-30T08:02:24Z</time>
      </trkpt>
      <trkpt lat="43.46296" lon="0.53856">
        <ele>279.767</ele>
        <time>2015-04-30T08:02:25Z</time>
      </trkpt>
      <trkpt lat="43.46272" lon="0.53872">
        <ele>280.262</ele>
        <time>2015-04-30T08:02:35Z</time>
      </trkpt>
      <trkpt lat="43.46242" lon="0.53893">
        <ele>281.713</ele>
        <time>2015-04-30T08:02:47Z</time>
      </trkpt>
      <trkpt lat="43.46208" lon="0.53929">
        <ele>282.935</ele>
        <time>2015-04-30T08:02:59Z</time>
      </trkpt>
      <trkpt lat="43.46195" lon="0.53952">
        <ele>282.807</ele>
        <time>2015-04-30T08:03:04Z</time>
      </trkpt>
      <trkpt lat="43.46187" lon="0.53967">
        <ele>282.232</ele>
        <time>2015-04-30T08:03:07Z</time>
      </trkpt>
      <trkpt lat="43.46173" lon="0.53977">
        <ele>281.888</ele>
        <time>2015-04-30T08:03:10Z</time>
      </trkpt>
      <trkpt lat="43.46124" lon="0.53973">
        <ele>282.329</ele>
        <time>2015-04-30T08:03:21Z</time>
      </trkpt>
      <trkpt lat="43.46096" lon="0.53964">
        <ele>283.715</ele>
        <time>2015-04-30T08:03:28Z</time>
      </trkpt>
      <trkpt lat="43.46029" lon="0.53971">
        <ele>281.286</ele>
        <time>2015-04-30T08:03:41Z</time>
      </trkpt>
      <trkpt lat="43.45996" lon="0.53994">
        <ele>278.578</ele>
        <time>2015-04-30T08:03:47Z</time>
      </trkpt>
      <trkpt lat="43.45992" lon="0.54001">
        <ele>280.814</ele>
        <time>2015-04-30T08:03:48Z</time>
      </trkpt>
      <trkpt lat="43.45973" lon="0.54041">
        <ele>278.367</ele>
        <time>2015-04-30T08:03:54Z</time>
      </trkpt>
      <trkpt lat="43.45967" lon="0.54054">
        <ele>279.951</ele>
        <time>2015-04-30T08:03:56Z</time>
      </trkpt>
      <trkpt lat="43.45952" lon="0.54084">
        <ele>281.619</ele>
        <time>2015-04-30T08:04:01Z</time>
      </trkpt>
      <trkpt lat="43.45931" lon="0.54124">
        <ele>283.124</ele>
        <time>2015-04-30T08:04:11Z</time>
      </trkpt>
      <trkpt lat="43.45929" lon="0.54129">
        <ele>283.12</ele>
        <time>2015-04-30T08:04:12Z</time>
      </trkpt>
      <trkpt lat="43.45917" lon="0.54153">
        <ele>283.958</ele>
        <time>2015-04-30T08:04:17Z</time>
      </trkpt>
      <trkpt lat="43.45908" lon="0.54167">
        <ele>285.016</ele>
        <time>2015-04-30T08:04:21Z</time>
      </trkpt>
      <trkpt lat="43.45889" lon="0.54156">
        <ele>284.823</ele>
        <time>2015-04-30T08:04:26Z</time>
      </trkpt>
      <trkpt lat="43.45841" lon="0.54078">
        <ele>283.238</ele>
        <time>2015-04-30T08:04:43Z</time>
      </trkpt>
      <trkpt lat="43.45806" lon="0.54062">
        <ele>283.007</ele>
        <time>2015-04-30T08:04:53Z</time>
      </trkpt>
      <trkpt lat="43.45749" lon="0.54048">
        <ele>282.274</ele>
        <time>2015-04-30T08:05:03Z</time>
      </trkpt>
      <trkpt lat="43.45679" lon="0.5405">
        <ele>283.64</ele>
        <time>2015-04-30T08:05:16Z</time>
      </trkpt>
      <trkpt lat="43.45661" lon="0.54046">
        <ele>285.06</ele>
        <time>2015-04-30T08:05:24Z</time>
      </trkpt>
      <trkpt lat="43.4566" lon="0.54045">
        <ele>285.22</ele>
        <time>2015-04-30T08:05:26Z</time>
      </trkpt>
      <trkpt lat="43.45661" lon="0.54046">
        <ele>285.892</ele>
        <time>2015-04-30T08:05:30Z</time>
      </trkpt>
      <trkpt lat="43.45659" lon="0.54066">
        <ele>285.445</ele>
        <time>2015-04-30T08:05:34Z</time>
      </trkpt>
      <trkpt lat="43.4564" lon="0.54129">
        <ele>285.355</ele>
        <time>2015-04-30T08:05:49Z</time>
      </trkpt>
      <trkpt lat="43.45633" lon="0.54167">
        <ele>282.935</ele>
        <time>2015-04-30T08:05:59Z</time>
      </trkpt>
      <trkpt lat="43.45631" lon="0.54176">
        <ele>283.199</ele>
        <time>2015-04-30T08:06:03Z</time>
      </trkpt>
      <trkpt lat="43.4563" lon="0.5418">
        <ele>283.129</ele>
        <time>2015-04-30T08:06:06Z</time>
      </trkpt>
      <trkpt lat="43.45632" lon="0.54171">
        <ele>282.799</ele>
        <time>2015-04-30T08:06:11Z</time>
      </trkpt>
      <trkpt lat="43.45623" lon="0.5416">
        <ele>283.459</ele>
        <time>2015-04-30T08:06:15Z</time>
      </trkpt>
      <trkpt lat="43.45605" lon="0.54146">
        <ele>281.356</ele>
        <time>2015-04-30T08:06:19Z</time>
      </trkpt>
      <trkpt lat="43.45587" lon="0.54132">
        <ele>279.032</ele>
        <time>2015-04-30T08:06:22Z</time>
      </trkpt>
      <trkpt lat="43.45556" lon="0.54138">
        <ele>277.695</ele>
        <time>2015-04-30T08:06:28Z</time>
      </trkpt>
      <trkpt lat="43.45509" lon="0.54192">
        <ele>278.121</ele>
        <time>2015-04-30T08:06:41Z</time>
      </trkpt>
      <trkpt lat="43.45505" lon="0.54196">
        <ele>278.116</ele>
        <time>2015-04-30T08:06:42Z</time>
      </trkpt>
      <trkpt lat="43.45475" lon="0.54207">
        <ele>277.152</ele>
        <time>2015-04-30T08:06:50Z</time>
      </trkpt>
      <trkpt lat="43.45461" lon="0.54182">
        <ele>277.179</ele>
        <time>2015-04-30T08:06:57Z</time>
      </trkpt>
      <trkpt lat="43.45462" lon="0.54162">
        <ele>277.152</ele>
        <time>2015-04-30T08:07:01Z</time>
      </trkpt>
      <trkpt lat="43.45483" lon="0.54091">
        <ele>277.158</ele>
        <time>2015-04-30T08:07:14Z</time>
      </trkpt>
      <trkpt lat="43.45502" lon="0.54002">
        <ele>277.283</ele>
        <time>2015-04-30T08:07:29Z</time>
      </trkpt>
      <trkpt lat="43.45509" lon="0.53956">
        <ele>277.02</ele>
        <time>2015-04-30T08:07:39Z</time>
      </trkpt>
      <trkpt lat="43.45502" lon="0.53921">
        <ele>276.964</ele>
        <time>2015-04-30T08:07:50Z</time>
      </trkpt>
      <trkpt lat="43.45482" lon="0.53916">
        <ele>277.24</ele>
        <time>2015-04-30T08:07:59Z</time>
      </trkpt>
      <trkpt lat="43.45454" lon="0.5394">
        <ele>276.793</ele>
        <time>2015-04-30T08:08:11Z</time>
      </trkpt>
      <trkpt lat="43.45416" lon="0.53971">
        <ele>277.156</ele>
        <time>2015-04-30T08:08:26Z</time>
      </trkpt>
      <trkpt lat="43.45403" lon="0.53969">
        <ele>277.017</ele>
        <time>2015-04-30T08:08:35Z</time>
      </trkpt>
      <trkpt lat="43.45402" lon="0.53966">
        <ele>277.121</ele>
        <time>2015-04-30T08:08:47Z</time>
      </trkpt>
      <trkpt lat="43.45399" lon="0.53966">
        <ele>277.265</ele>
        <time>2015-04-30T08:08:58Z</time>
      </trkpt>
      <trkpt lat="43.45396" lon="0.53967">
        <ele>277.628</ele>
        <time>2015-04-30T08:09:16Z</time>
      </trkpt>
      <trkpt lat="43.45396" lon="0.53966">
        <ele>277.56</ele>
        <time>2015-04-30T08:09:19Z</time>
      </trkpt>
      <trkpt lat="43.45392" lon="0.53962">
        <ele>277.468</ele>
        <time>2015-04-30T08:09:23Z</time>
      </trkpt>
      <trkpt lat="43.45387" lon="0.53925">
        <ele>277.214</ele>
        <time>2015-04-30T08:09:34Z</time>
      </trkpt>
      <trkpt lat="43.45391" lon="0.53884">
        <ele>277.983</ele>
        <time>2015-04-30T08:09:45Z</time>
      </trkpt>
      <trkpt lat="43.454" lon="0.53807">
        <ele>277.823</ele>
        <time>2015-04-30T08:10:02Z</time>
      </trkpt>
      <trkpt lat="43.45404" lon="0.53741">
        <ele>277.706</ele>
        <time>2015-04-30T08:10:16Z</time>
      </trkpt>
      <trkpt lat="43.45393" lon="0.53704">
        <ele>278.384</ele>
        <time>2015-04-30T08:10:26Z</time>
      </trkpt>
      <trkpt lat="43.45369" lon="0.53716">
        <ele>278.778</ele>
        <time>2015-04-30T08:10:34Z</time>
      </trkpt>
      <trkpt lat="43.45344" lon="0.53758">
        <ele>278.065</ele>
        <time>2015-04-30T08:10:46Z</time>
      </trkpt>
      <trkpt lat="43.45311" lon="0.53802">
        <ele>278.61</ele>
        <time>2015-04-30T08:11:00Z</time>
      </trkpt>
      <trkpt lat="43.453" lon="0.53809">
        <ele>277.311</ele>
        <time>2015-04-30T08:11:08Z</time>
      </trkpt>
      <trkpt lat="43.45298" lon="0.53805">
        <ele>278.291</ele>
        <time>2015-04-30T08:11:18Z</time>
      </trkpt>
      <trkpt lat="43.45296" lon="0.53807">
        <ele>277.41</ele>
        <time>2015-04-30T08:11:24Z</time>
      </trkpt>
      <trkpt lat="43.45294" lon="0.5381">
        <ele>277.855</ele>
        <time>2015-04-30T08:11:26Z</time>
      </trkpt>
      <trkpt lat="43.45286" lon="0.53811">
        <ele>276.925</ele>
        <time>2015-04-30T08:11:31Z</time>
      </trkpt>
      <trkpt lat="43.45279" lon="0.53808">
        <ele>276.024</ele>
        <time>2015-04-30T08:11:40Z</time>
      </trkpt>
      <trkpt lat="43.45261" lon="0.53814">
        <ele>271.183</ele>
        <time>2015-04-30T08:11:47Z</time>
      </trkpt>
      <trkpt lat="43.45259" lon="0.53815">
        <ele>271.178</ele>
        <time>2015-04-30T08:11:48Z</time>
      </trkpt>
      <trkpt lat="43.45253" lon="0.53817">
        <ele>269.229</ele>
        <time>2015-04-30T08:11:50Z</time>
      </trkpt>
      <trkpt lat="43.45247" lon="0.53818">
        <ele>267.429</ele>
        <time>2015-04-30T08:11:52Z</time>
      </trkpt>
      <trkpt lat="43.4524" lon="0.5382">
        <ele>265.13</ele>
        <time>2015-04-30T08:11:54Z</time>
      </trkpt>
      <trkpt lat="43.45232" lon="0.53821">
        <ele>263.416</ele>
        <time>2015-04-30T08:11:56Z</time>
      </trkpt>
      <trkpt lat="43.45226" lon="0.53821">
        <ele>261.651</ele>
        <time>2015-04-30T08:11:58Z</time>
      </trkpt>
      <trkpt lat="43.4522" lon="0.53817">
        <ele>260.27</ele>
        <time>2015-04-30T08:12:06Z</time>
      </trkpt>
      <trkpt lat="43.45217" lon="0.53819">
        <ele>260.24</ele>
        <time>2015-04-30T08:12:23Z</time>
      </trkpt>
      <trkpt lat="43.45214" lon="0.5382">
        <ele>259.477</ele>
        <time>2015-04-30T08:12:29Z</time>
      </trkpt>
      <trkpt lat="43.45208" lon="0.53822">
        <ele>260.64</ele>
        <time>2015-04-30T08:12:39Z</time>
      </trkpt>
      <trkpt lat="43.45189" lon="0.53813">
        <ele>261.198</ele>
        <time>2015-04-30T08:12:52Z</time>
      </trkpt>
      <trkpt lat="43.45171" lon="0.53806">
        <ele>263.459</ele>
        <time>2015-04-30T08:13:06Z</time>
      </trkpt>
      <trkpt lat="43.45153" lon="0.53801">
        <ele>266.773</ele>
        <time>2015-04-30T08:13:21Z</time>
      </trkpt>
      <trkpt lat="43.45137" lon="0.53798">
        <ele>268.852</ele>
        <time>2015-04-30T08:13:33Z</time>
      </trkpt>
      <trkpt lat="43.45124" lon="0.53794">
        <ele>270.606</ele>
        <time>2015-04-30T08:13:44Z</time>
      </trkpt>
      <trkpt lat="43.45121" lon="0.53793">
        <ele>270.668</ele>
        <time>2015-04-30T08:13:54Z</time>
      </trkpt>
      <trkpt lat="43.45118" lon="0.53791">
        <ele>270.871</ele>
        <time>2015-04-30T08:14:49Z</time>
      </trkpt>
      <trkpt lat="43.45115" lon="0.5379">
        <ele>270.426</ele>
        <time>2015-04-30T08:15:06Z</time>
      </trkpt>
      <trkpt lat="43.45113" lon="0.53792">
        <ele>269.698</ele>
        <time>2015-04-30T08:15:27Z</time>
      </trkpt>
      <trkpt lat="43.45111" lon="0.53793">
        <ele>269.876</ele>
        <time>2015-04-30T08:15:54Z</time>
      </trkpt>
      <trkpt lat="43.4511" lon="0.53796">
        <ele>270.476</ele>
        <time>2015-04-30T08:15:59Z</time>
      </trkpt>
      <trkpt lat="43.4511" lon="0.53806">
        <ele>271.295</ele>
        <time>2015-04-30T08:16:03Z</time>
      </trkpt>
      <trkpt lat="43.45104" lon="0.53848">
        <ele>275.024</ele>
        <time>2015-04-30T08:16:18Z</time>
      </trkpt>
      <trkpt lat="43.45102" lon="0.53881">
        <ele>275.781</ele>
        <time>2015-04-30T08:16:30Z</time>
      </trkpt>
      <trkpt lat="43.45101" lon="0.53881">
        <ele>275.791</ele>
        <time>2015-04-30T08:16:31Z</time>
      </trkpt>
      <trkpt lat="43.45101" lon="0.53873">
        <ele>275.913</ele>
        <time>2015-04-30T08:16:35Z</time>
      </trkpt>
      <trkpt lat="43.45109" lon="0.53824">
        <ele>274.009</ele>
        <time>2015-04-30T08:16:45Z</time>
      </trkpt>
      <trkpt lat="43.45116" lon="0.53796">
        <ele>273.239</ele>
        <time>2015-04-30T08:16:47Z</time>
      </trkpt>
      <trkpt lat="43.45115" lon="0.53726">
        <ele>270.624</ele>
        <time>2015-04-30T08:16:55Z</time>
      </trkpt>
      <trkpt lat="43.45131" lon="0.53666">
        <ele>271.52</ele>
        <time>2015-04-30T08:17:04Z</time>
      </trkpt>
      <trkpt lat="43.45137" lon="0.53649">
        <ele>273.957</ele>
        <time>2015-04-30T08:17:08Z</time>
      </trkpt>
      <trkpt lat="43.45139" lon="0.53642">
        <ele>275.252</ele>
        <time>2015-04-30T08:17:10Z</time>
      </trkpt>
      <trkpt lat="43.45147" lon="0.53619">
        <ele>276.201</ele>
        <time>2015-04-30T08:17:16Z</time>
      </trkpt>
      <trkpt lat="43.4514" lon="0.5361">
        <ele>276.38</ele>
        <time>2015-04-30T08:17:22Z</time>
      </trkpt>
      <trkpt lat="43.45091" lon="0.53598">
        <ele>277.414</ele>
        <time>2015-04-30T08:17:35Z</time>
      </trkpt>
      <trkpt lat="43.45067" lon="0.536">
        <ele>279.596</ele>
        <time>2015-04-30T08:17:44Z</time>
      </trkpt>
      <trkpt lat="43.45053" lon="0.53616">
        <ele>282.027</ele>
        <time>2015-04-30T08:17:52Z</time>
      </trkpt>
      <trkpt lat="43.45047" lon="0.53629">
        <ele>283.292</ele>
        <time>2015-04-30T08:17:58Z</time>
      </trkpt>
      <trkpt lat="43.45039" lon="0.5366">
        <ele>285.354</ele>
        <time>2015-04-30T08:18:08Z</time>
      </trkpt>
      <trkpt lat="43.45025" lon="0.53706">
        <ele>288.469</ele>
        <time>2015-04-30T08:18:20Z</time>
      </trkpt>
      <trkpt lat="43.45023" lon="0.53711">
        <ele>288.686</ele>
        <time>2015-04-30T08:18:21Z</time>
      </trkpt>
      <trkpt lat="43.45004" lon="0.53735">
        <ele>290.686</ele>
        <time>2015-04-30T08:18:30Z</time>
      </trkpt>
      <trkpt lat="43.44981" lon="0.53717">
        <ele>292.643</ele>
        <time>2015-04-30T08:18:40Z</time>
      </trkpt>
      <trkpt lat="43.44966" lon="0.53666">
        <ele>292.887</ele>
        <time>2015-04-30T08:18:51Z</time>
      </trkpt>
      <trkpt lat="43.4496" lon="0.53651">
        <ele>292.802</ele>
        <time>2015-04-30T08:18:54Z</time>
      </trkpt>
      <trkpt lat="43.44955" lon="0.5364">
        <ele>292.817</ele>
        <time>2015-04-30T08:18:56Z</time>
      </trkpt>
      <trkpt lat="43.44927" lon="0.53618">
        <ele>292.054</ele>
        <time>2015-04-30T08:19:03Z</time>
      </trkpt>
      <trkpt lat="43.44861" lon="0.53597">
        <ele>292.203</ele>
        <time>2015-04-30T08:19:18Z</time>
      </trkpt>
      <trkpt lat="43.44858" lon="0.53595">
        <ele>292.039</ele>
        <time>2015-04-30T08:19:19Z</time>
      </trkpt>
      <trkpt lat="43.44819" lon="0.53566">
        <ele>295.581</ele>
        <time>2015-04-30T08:19:29Z</time>
      </trkpt>
      <trkpt lat="43.44815" lon="0.53563">
        <ele>295.576</ele>
        <time>2015-04-30T08:19:30Z</time>
      </trkpt>
      <trkpt lat="43.44777" lon="0.53536">
        <ele>297.668</ele>
        <time>2015-04-30T08:19:41Z</time>
      </trkpt>
      <trkpt lat="43.44768" lon="0.5353">
        <ele>299.055</ele>
        <time>2015-04-30T08:19:44Z</time>
      </trkpt>
      <trkpt lat="43.44748" lon="0.53518">
        <ele>299.866</ele>
        <time>2015-04-30T08:19:50Z</time>
      </trkpt>
      <trkpt lat="43.44705" lon="0.5349">
        <ele>299.004</ele>
        <time>2015-04-30T08:20:00Z</time>
      </trkpt>
      <trkpt lat="43.44681" lon="0.53474">
        <ele>297.146</ele>
        <time>2015-04-30T08:20:04Z</time>
      </trkpt>
      <trkpt lat="43.44667" lon="0.53466">
        <ele>296.425</ele>
        <time>2015-04-30T08:20:06Z</time>
      </trkpt>
      <trkpt lat="43.44618" lon="0.53469">
        <ele>294.226</ele>
        <time>2015-04-30T08:20:13Z</time>
      </trkpt>
      <trkpt lat="43.44608" lon="0.53477">
        <ele>294.599</ele>
        <time>2015-04-30T08:20:15Z</time>
      </trkpt>
      <trkpt lat="43.44594" lon="0.53487">
        <ele>294.792</ele>
        <time>2015-04-30T08:20:18Z</time>
      </trkpt>
      <trkpt lat="43.44577" lon="0.53515">
        <ele>294.495</ele>
        <time>2015-04-30T08:20:23Z</time>
      </trkpt>
      <trkpt lat="43.44562" lon="0.53553">
        <ele>294.089</ele>
        <time>2015-04-30T08:20:28Z</time>
      </trkpt>
      <trkpt lat="43.44556" lon="0.53568">
        <ele>292.409</ele>
        <time>2015-04-30T08:20:30Z</time>
      </trkpt>
      <trkpt lat="43.44531" lon="0.53629">
        <ele>292.113</ele>
        <time>2015-04-30T08:20:38Z</time>
      </trkpt>
      <trkpt lat="43.44505" lon="0.53648">
        <ele>291.241</ele>
        <time>2015-04-30T08:20:42Z</time>
      </trkpt>
      <trkpt lat="43.44433" lon="0.53675">
        <ele>287.23</ele>
        <time>2015-04-30T08:20:51Z</time>
      </trkpt>
      <trkpt lat="43.44393" lon="0.5369">
        <ele>285.434</ele>
        <time>2015-04-30T08:20:57Z</time>
      </trkpt>
      <trkpt lat="43.44337" lon="0.53714">
        <ele>287.256</ele>
        <time>2015-04-30T08:21:09Z</time>
      </trkpt>
      <trkpt lat="43.44294" lon="0.53731">
        <ele>289.686</ele>
        <time>2015-04-30T08:21:21Z</time>
      </trkpt>
      <trkpt lat="43.44253" lon="0.53746">
        <ele>292.613</ele>
        <time>2015-04-30T08:21:32Z</time>
      </trkpt>
      <trkpt lat="43.44237" lon="0.53752">
        <ele>294.528</ele>
        <time>2015-04-30T08:21:37Z</time>
      </trkpt>
      <trkpt lat="43.44222" lon="0.53759">
        <ele>296.364</ele>
        <time>2015-04-30T08:21:42Z</time>
      </trkpt>
      <trkpt lat="43.44196" lon="0.5377">
        <ele>298.526</ele>
        <time>2015-04-30T08:21:54Z</time>
      </trkpt>
      <trkpt lat="43.44187" lon="0.53771">
        <ele>300.107</ele>
        <time>2015-04-30T08:21:58Z</time>
      </trkpt>
      <trkpt lat="43.44183" lon="0.53767">
        <ele>301.439</ele>
        <time>2015-04-30T08:22:01Z</time>
      </trkpt>
      <trkpt lat="43.44165" lon="0.53809">
        <ele>301.453</ele>
        <time>2015-04-30T08:22:12Z</time>
      </trkpt>
      <trkpt lat="43.44153" lon="0.53836">
        <ele>302.134</ele>
        <time>2015-04-30T08:22:19Z</time>
      </trkpt>
      <trkpt lat="43.4412" lon="0.53907">
        <ele>301.253</ele>
        <time>2015-04-30T08:22:35Z</time>
      </trkpt>
      <trkpt lat="43.44114" lon="0.53922">
        <ele>301.754</ele>
        <time>2015-04-30T08:22:38Z</time>
      </trkpt>
      <trkpt lat="43.44096" lon="0.53968">
        <ele>299.856</ele>
        <time>2015-04-30T08:22:46Z</time>
      </trkpt>
      <trkpt lat="43.44077" lon="0.54012">
        <ele>299.575</ele>
        <time>2015-04-30T08:22:53Z</time>
      </trkpt>
      <trkpt lat="43.44065" lon="0.54053">
        <ele>300.381</ele>
        <time>2015-04-30T08:22:59Z</time>
      </trkpt>
      <trkpt lat="43.44059" lon="0.54094">
        <ele>297.976</ele>
        <time>2015-04-30T08:23:04Z</time>
      </trkpt>
      <trkpt lat="43.44049" lon="0.542">
        <ele>294.192</ele>
        <time>2015-04-30T08:23:15Z</time>
      </trkpt>
      <trkpt lat="43.44049" lon="0.5421">
        <ele>294.188</ele>
        <time>2015-04-30T08:23:16Z</time>
      </trkpt>
      <trkpt lat="43.44047" lon="0.5423">
        <ele>296.165</ele>
        <time>2015-04-30T08:23:18Z</time>
      </trkpt>
      <trkpt lat="43.44046" lon="0.54241">
        <ele>296.629</ele>
        <time>2015-04-30T08:23:19Z</time>
      </trkpt>
      <trkpt lat="43.44052" lon="0.54271">
        <ele>294.508</ele>
        <time>2015-04-30T08:23:23Z</time>
      </trkpt>
      <trkpt lat="43.44064" lon="0.54295">
        <ele>292.629</ele>
        <time>2015-04-30T08:23:25Z</time>
      </trkpt>
      <trkpt lat="43.44104" lon="0.5437">
        <ele>293.076</ele>
        <time>2015-04-30T08:23:34Z</time>
      </trkpt>
      <trkpt lat="43.44113" lon="0.54396">
        <ele>291.824</ele>
        <time>2015-04-30T08:23:37Z</time>
      </trkpt>
      <trkpt lat="43.44118" lon="0.54413">
        <ele>289.989</ele>
        <time>2015-04-30T08:23:39Z</time>
      </trkpt>
      <trkpt lat="43.44145" lon="0.54516">
        <ele>291.33</ele>
        <time>2015-04-30T08:23:51Z</time>
      </trkpt>
      <trkpt lat="43.44151" lon="0.54551">
        <ele>291.379</ele>
        <time>2015-04-30T08:23:55Z</time>
      </trkpt>
      <trkpt lat="43.4416" lon="0.54617">
        <ele>288.771</ele>
        <time>2015-04-30T08:24:02Z</time>
      </trkpt>
      <trkpt lat="43.44176" lon="0.54739">
        <ele>288.609</ele>
        <time>2015-04-30T08:24:15Z</time>
      </trkpt>
      <trkpt lat="43.44172" lon="0.54788">
        <ele>288.062</ele>
        <time>2015-04-30T08:24:20Z</time>
      </trkpt>
      <trkpt lat="43.44174" lon="0.54895">
        <ele>286.315</ele>
        <time>2015-04-30T08:24:33Z</time>
      </trkpt>
      <trkpt lat="43.44174" lon="0.54911">
        <ele>287.041</ele>
        <time>2015-04-30T08:24:35Z</time>
      </trkpt>
      <trkpt lat="43.44153" lon="0.54992">
        <ele>284.544</ele>
        <time>2015-04-30T08:24:44Z</time>
      </trkpt>
      <trkpt lat="43.4412" lon="0.55091">
        <ele>280.206</ele>
        <time>2015-04-30T08:24:54Z</time>
      </trkpt>
      <trkpt lat="43.44117" lon="0.55102">
        <ele>280.206</ele>
        <time>2015-04-30T08:24:55Z</time>
      </trkpt>
      <trkpt lat="43.44084" lon="0.55202">
        <ele>277.003</ele>
        <time>2015-04-30T08:25:04Z</time>
      </trkpt>
      <trkpt lat="43.4408" lon="0.55213">
        <ele>276.999</ele>
        <time>2015-04-30T08:25:05Z</time>
      </trkpt>
      <trkpt lat="43.44063" lon="0.55282">
        <ele>275.807</ele>
        <time>2015-04-30T08:25:11Z</time>
      </trkpt>
      <trkpt lat="43.44053" lon="0.55317">
        <ele>274.187</ele>
        <time>2015-04-30T08:25:14Z</time>
      </trkpt>
      <trkpt lat="43.44037" lon="0.55393">
        <ele>272.438</ele>
        <time>2015-04-30T08:25:21Z</time>
      </trkpt>
      <trkpt lat="43.44023" lon="0.55456">
        <ele>268.962</ele>
        <time>2015-04-30T08:25:27Z</time>
      </trkpt>
      <trkpt lat="43.4402" lon="0.55466">
        <ele>268.959</ele>
        <time>2015-04-30T08:25:28Z</time>
      </trkpt>
      <trkpt lat="43.44003" lon="0.55533">
        <ele>268.607</ele>
        <time>2015-04-30T08:25:35Z</time>
      </trkpt>
      <trkpt lat="43.43962" lon="0.5563">
        <ele>264.583</ele>
        <time>2015-04-30T08:25:47Z</time>
      </trkpt>
      <trkpt lat="43.43944" lon="0.55681">
        <ele>264.927</ele>
        <time>2015-04-30T08:25:53Z</time>
      </trkpt>
      <trkpt lat="43.43938" lon="0.55707">
        <ele>265.372</ele>
        <time>2015-04-30T08:25:56Z</time>
      </trkpt>
      <trkpt lat="43.43915" lon="0.55746">
        <ele>263.542</ele>
        <time>2015-04-30T08:26:02Z</time>
      </trkpt>
      <trkpt lat="43.43864" lon="0.55816">
        <ele>262.061</ele>
        <time>2015-04-30T08:26:14Z</time>
      </trkpt>
      <trkpt lat="43.43848" lon="0.55871">
        <ele>257.573</ele>
        <time>2015-04-30T08:26:20Z</time>
      </trkpt>
      <trkpt lat="43.43846" lon="0.55881">
        <ele>257.568</ele>
        <time>2015-04-30T08:26:21Z</time>
      </trkpt>
      <trkpt lat="43.43814" lon="0.56007">
        <ele>255.083</ele>
        <time>2015-04-30T08:26:33Z</time>
      </trkpt>
      <trkpt lat="43.43778" lon="0.56064">
        <ele>253.241</ele>
        <time>2015-04-30T08:26:40Z</time>
      </trkpt>
      <trkpt lat="43.43719" lon="0.56113">
        <ele>251.38</ele>
        <time>2015-04-30T08:26:50Z</time>
      </trkpt>
      <trkpt lat="43.43709" lon="0.56123">
        <ele>251.232</ele>
        <time>2015-04-30T08:26:52Z</time>
      </trkpt>
      <trkpt lat="43.43688" lon="0.56149">
        <ele>251.271</ele>
        <time>2015-04-30T08:26:57Z</time>
      </trkpt>
      <trkpt lat="43.4367" lon="0.56172">
        <ele>250.439</ele>
        <time>2015-04-30T08:27:01Z</time>
      </trkpt>
      <trkpt lat="43.43655" lon="0.56183">
        <ele>249.421</ele>
        <time>2015-04-30T08:27:05Z</time>
      </trkpt>
      <trkpt lat="43.43632" lon="0.56176">
        <ele>249.105</ele>
        <time>2015-04-30T08:27:08Z</time>
      </trkpt>
      <trkpt lat="43.43591" lon="0.5619">
        <ele>248.478</ele>
        <time>2015-04-30T08:27:15Z</time>
      </trkpt>
      <trkpt lat="43.4356" lon="0.56216">
        <ele>247.2</ele>
        <time>2015-04-30T08:27:21Z</time>
      </trkpt>
      <trkpt lat="43.43536" lon="0.56261">
        <ele>245.04</ele>
        <time>2015-04-30T08:27:28Z</time>
      </trkpt>
      <trkpt lat="43.4353" lon="0.56275">
        <ele>246.696</ele>
        <time>2015-04-30T08:27:30Z</time>
      </trkpt>
      <trkpt lat="43.43487" lon="0.56363">
        <ele>246.807</ele>
        <time>2015-04-30T08:27:43Z</time>
      </trkpt>
      <trkpt lat="43.4345" lon="0.56448">
        <ele>244.312</ele>
        <time>2015-04-30T08:27:54Z</time>
      </trkpt>
      <trkpt lat="43.43445" lon="0.56458">
        <ele>243.027</ele>
        <time>2015-04-30T08:27:56Z</time>
      </trkpt>
      <trkpt lat="43.43454" lon="0.56474">
        <ele>242.836</ele>
        <time>2015-04-30T08:28:01Z</time>
      </trkpt>
      <trkpt lat="43.43487" lon="0.56485">
        <ele>245.068</ele>
        <time>2015-04-30T08:28:08Z</time>
      </trkpt>
      <trkpt lat="43.43492" lon="0.56486">
        <ele>244.575</ele>
        <time>2015-04-30T08:28:09Z</time>
      </trkpt>
      <trkpt lat="43.43537" lon="0.56499">
        <ele>246.719</ele>
        <time>2015-04-30T08:28:16Z</time>
      </trkpt>
      <trkpt lat="43.4357" lon="0.56508">
        <ele>246.265</ele>
        <time>2015-04-30T08:28:21Z</time>
      </trkpt>
      <trkpt lat="43.43581" lon="0.56535">
        <ele>245.616</ele>
        <time>2015-04-30T08:28:25Z</time>
      </trkpt>
      <trkpt lat="43.43577" lon="0.56559">
        <ele>243.836</ele>
        <time>2015-04-30T08:28:28Z</time>
      </trkpt>
      <trkpt lat="43.43576" lon="0.56567">
        <ele>244.56</ele>
        <time>2015-04-30T08:28:29Z</time>
      </trkpt>
      <trkpt lat="43.4357" lon="0.56597">
        <ele>244.432</ele>
        <time>2015-04-30T08:28:33Z</time>
      </trkpt>
      <trkpt lat="43.43568" lon="0.56613">
        <ele>242.505</ele>
        <time>2015-04-30T08:28:37Z</time>
      </trkpt>
      <trkpt lat="43.43568" lon="0.56613">
        <ele>241.991</ele>
        <time>2015-04-30T08:28:44Z</time>
      </trkpt>
      <trkpt lat="43.43568" lon="0.56613">
        <ele>241.759</ele>
        <time>2015-04-30T08:29:05Z</time>
      </trkpt>
      <trkpt lat="43.43568" lon="0.56613">
        <ele>242.08</ele>
        <time>2015-04-30T08:29:09Z</time>
      </trkpt>
      <trkpt lat="43.43544" lon="0.56596">
        <ele>242.618</ele>
        <time>2015-04-30T08:29:23Z</time>
      </trkpt>
      <trkpt lat="43.43544" lon="0.56597">
        <ele>242.613</ele>
        <time>2015-04-30T08:29:24Z</time>
      </trkpt>
      <trkpt lat="43.43544" lon="0.56604">
        <ele>241.957</ele>
        <time>2015-04-30T08:29:34Z</time>
      </trkpt>
      <trkpt lat="43.43544" lon="0.56601">
        <ele>242.594</ele>
        <time>2015-04-30T08:29:45Z</time>
      </trkpt>
      <trkpt lat="43.43543" lon="0.56601">
        <ele>242.242</ele>
        <time>2015-04-30T08:30:32Z</time>
      </trkpt>
      <trkpt lat="43.43544" lon="0.56602">
        <ele>242.056</ele>
        <time>2015-04-30T08:30:56Z</time>
      </trkpt>
      <trkpt lat="43.43544" lon="0.56603">
        <ele>241.757</ele>
        <time>2015-04-30T08:31:39Z</time>
      </trkpt>
      <trkpt lat="43.43545" lon="0.56602">
        <ele>241.19</ele>
        <time>2015-04-30T08:33:09Z</time>
      </trkpt>
      <trkpt lat="43.43544" lon="0.56603">
        <ele>241.171</ele>
        <time>2015-04-30T08:33:26Z</time>
      </trkpt>
      <trkpt lat="43.43546" lon="0.56604">
        <ele>241.221</ele>
        <time>2015-04-30T08:33:46Z</time>
      </trkpt>
      <trkpt lat="43.43546" lon="0.56606">
        <ele>241.357</ele>
        <time>2015-04-30T08:34:18Z</time>
      </trkpt>
      <trkpt lat="43.43552" lon="0.56605">
        <ele>241.235</ele>
        <time>2015-04-30T08:34:35Z</time>
      </trkpt>
      <trkpt lat="43.43551" lon="0.56605">
        <ele>241.534</ele>
        <time>2015-04-30T08:35:09Z</time>
      </trkpt>
      <trkpt lat="43.43545" lon="0.56606">
        <ele>241.531</ele>
        <time>2015-04-30T08:35:44Z</time>
      </trkpt>
      <trkpt lat="43.43544" lon="0.56605">
        <ele>241.474</ele>
        <time>2015-04-30T08:35:45Z</time>
      </trkpt>
      <trkpt lat="43.43537" lon="0.5659">
        <ele>241.981</ele>
        <time>2015-04-30T08:35:56Z</time>
      </trkpt>
      <trkpt lat="43.43533" lon="0.56584">
        <ele>242.02</ele>
        <time>2015-04-30T08:36:04Z</time>
      </trkpt>
      <trkpt lat="43.43521" lon="0.56581">
        <ele>241.777</ele>
        <time>2015-04-30T08:36:16Z</time>
      </trkpt>
      <trkpt lat="43.43518" lon="0.56585">
        <ele>241.8</ele>
        <time>2015-04-30T08:36:28Z</time>
      </trkpt>
      <trkpt lat="43.43515" lon="0.56587">
        <ele>242.16</ele>
        <time>2015-04-30T08:36:46Z</time>
      </trkpt>
      <trkpt lat="43.43518" lon="0.56587">
        <ele>241.703</ele>
        <time>2015-04-30T08:37:03Z</time>
      </trkpt>
      <trkpt lat="43.43519" lon="0.56587">
        <ele>241.536</ele>
        <time>2015-04-30T08:37:15Z</time>
      </trkpt>
      <trkpt lat="43.43519" lon="0.56586">
        <ele>241.807</ele>
        <time>2015-04-30T08:37:26Z</time>
      </trkpt>
      <trkpt lat="43.4352" lon="0.56582">
        <ele>241.647</ele>
        <time>2015-04-30T08:37:29Z</time>
      </trkpt>
      <trkpt lat="43.43532" lon="0.56584">
        <ele>241.496</ele>
        <time>2015-04-30T08:37:41Z</time>
      </trkpt>
      <trkpt lat="43.43536" lon="0.56595">
        <ele>241.736</ele>
        <time>2015-04-30T08:37:48Z</time>
      </trkpt>
      <trkpt lat="43.43538" lon="0.56601">
        <ele>241.439</ele>
        <time>2015-04-30T08:37:53Z</time>
      </trkpt>
      <trkpt lat="43.43541" lon="0.56606">
        <ele>240.79</ele>
        <time>2015-04-30T08:38:07Z</time>
      </trkpt>
      <trkpt lat="43.43544" lon="0.56606">
        <ele>241.026</ele>
        <time>2015-04-30T08:38:21Z</time>
      </trkpt>
      <trkpt lat="43.43547" lon="0.56607">
        <ele>241.519</ele>
        <time>2015-04-30T08:39:07Z</time>
      </trkpt>
      <trkpt lat="43.43543" lon="0.56597">
        <ele>241.231</ele>
        <time>2015-04-30T08:39:16Z</time>
      </trkpt>
      <trkpt lat="43.4354" lon="0.56592">
        <ele>241.354</ele>
        <time>2015-04-30T08:39:20Z</time>
      </trkpt>
      <trkpt lat="43.43526" lon="0.56583">
        <ele>241.636</ele>
        <time>2015-04-30T08:39:30Z</time>
      </trkpt>
      <trkpt lat="43.43515" lon="0.56585">
        <ele>242.401</ele>
        <time>2015-04-30T08:39:37Z</time>
      </trkpt>
      <trkpt lat="43.43515" lon="0.56589">
        <ele>241.186</ele>
        <time>2015-04-30T08:39:47Z</time>
      </trkpt>
      <trkpt lat="43.43517" lon="0.5659">
        <ele>240.757</ele>
        <time>2015-04-30T08:39:58Z</time>
      </trkpt>
    </trkseg>
  </trk>
  <trk>
    <name><![CDATA[ACTIVE LOG114216]]></name>
    <trkseg>
      <trkpt lat="43.43536" lon="0.56572">
        <ele>240.673</ele>
        <time>2015-04-30T09:42:16Z</time>
      </trkpt>
      <trkpt lat="43.43533" lon="0.56577">
        <ele>240.953</ele>
        <time>2015-04-30T09:43:46Z</time>
      </trkpt>
      <trkpt lat="43.43533" lon="0.56581">
        <ele>240.895</ele>
        <time>2015-04-30T09:44:07Z</time>
      </trkpt>
      <trkpt lat="43.43529" lon="0.56582">
        <ele>241.017</ele>
        <time>2015-04-30T09:44:48Z</time>
      </trkpt>
      <trkpt lat="43.43533" lon="0.56582">
        <ele>241.048</ele>
        <time>2015-04-30T09:44:59Z</time>
      </trkpt>
      <trkpt lat="43.43533" lon="0.56584">
        <ele>237.62</ele>
        <time>2015-04-30T09:45:26Z</time>
      </trkpt>
      <trkpt lat="43.43529" lon="0.56585">
        <ele>238.551</ele>
        <time>2015-04-30T09:45:47Z</time>
      </trkpt>
      <trkpt lat="43.43526" lon="0.56582">
        <ele>239.147</ele>
        <time>2015-04-30T09:46:19Z</time>
      </trkpt>
      <trkpt lat="43.43534" lon="0.56591">
        <ele>238.608</ele>
        <time>2015-04-30T09:46:33Z</time>
      </trkpt>
      <trkpt lat="43.43533" lon="0.56589">
        <ele>238.712</ele>
        <time>2015-04-30T09:46:52Z</time>
      </trkpt>
      <trkpt lat="43.43531" lon="0.5658">
        <ele>238.626</ele>
        <time>2015-04-30T09:47:43Z</time>
      </trkpt>
      <trkpt lat="43.43533" lon="0.56581">
        <ele>239.033</ele>
        <time>2015-04-30T09:48:03Z</time>
      </trkpt>
      <trkpt lat="43.43531" lon="0.5658">
        <ele>239.397</ele>
        <time>2015-04-30T09:48:37Z</time>
      </trkpt>
      <trkpt lat="43.43529" lon="0.56579">
        <ele>239.891</ele>
        <time>2015-04-30T09:49:30Z</time>
      </trkpt>
      <trkpt lat="43.4353" lon="0.56579">
        <ele>239.29</ele>
        <time>2015-04-30T09:49:59Z</time>
      </trkpt>
      <trkpt lat="43.43532" lon="0.56574">
        <ele>239.7</ele>
        <time>2015-04-30T09:50:25Z</time>
      </trkpt>
      <trkpt lat="43.43529" lon="0.56577">
        <ele>239.333</ele>
        <time>2015-04-30T09:50:55Z</time>
      </trkpt>
      <trkpt lat="43.4353" lon="0.56578">
        <ele>239.562</ele>
        <time>2015-04-30T09:51:04Z</time>
      </trkpt>
      <trkpt lat="43.43527" lon="0.56576">
        <ele>239.721</ele>
        <time>2015-04-30T09:51:39Z</time>
      </trkpt>
      <trkpt lat="43.43534" lon="0.56582">
        <ele>239.346</ele>
        <time>2015-04-30T09:53:13Z</time>
      </trkpt>
      <trkpt lat="43.43531" lon="0.56584">
        <ele>239.394</ele>
        <time>2015-04-30T09:53:26Z</time>
      </trkpt>
      <trkpt lat="43.43535" lon="0.56583">
        <ele>239.47</ele>
        <time>2015-04-30T09:53:40Z</time>
      </trkpt>
      <trkpt lat="43.43534" lon="0.56582">
        <ele>239.293</ele>
        <time>2015-04-30T09:53:53Z</time>
      </trkpt>
      <trkpt lat="43.43529" lon="0.56585">
        <ele>239.346</ele>
        <time>2015-04-30T09:54:09Z</time>
      </trkpt>
      <trkpt lat="43.43529" lon="0.56584">
        <ele>239.523</ele>
        <time>2015-04-30T09:54:28Z</time>
      </trkpt>
      <trkpt lat="43.43527" lon="0.5658">
        <ele>239.33</ele>
        <time>2015-04-30T09:54:57Z</time>
      </trkpt>
      <trkpt lat="43.43528" lon="0.56577">
        <ele>239.536</ele>
        <time>2015-04-30T09:55:22Z</time>
      </trkpt>
      <trkpt lat="43.43528" lon="0.56575">
        <ele>239.637</ele>
        <time>2015-04-30T09:55:52Z</time>
      </trkpt>
      <trkpt lat="43.43531" lon="0.56572">
        <ele>239.711</ele>
        <time>2015-04-30T09:56:07Z</time>
      </trkpt>
      <trkpt lat="43.43527" lon="0.56568">
        <ele>239.629</ele>
        <time>2015-04-30T09:56:19Z</time>
      </trkpt>
      <trkpt lat="43.43528" lon="0.56574">
        <ele>239.737</ele>
        <time>2015-04-30T09:56:36Z</time>
      </trkpt>
      <trkpt lat="43.43532" lon="0.56579">
        <ele>239.914</ele>
        <time>2015-04-30T09:57:16Z</time>
      </trkpt>
      <trkpt lat="43.43535" lon="0.56584">
        <ele>239.959</ele>
        <time>2015-04-30T09:57:50Z</time>
      </trkpt>
      <trkpt lat="43.43536" lon="0.56582">
        <ele>240.12</ele>
        <time>2015-04-30T09:58:08Z</time>
      </trkpt>
      <trkpt lat="43.43533" lon="0.56578">
        <ele>239.913</ele>
        <time>2015-04-30T09:58:57Z</time>
      </trkpt>
      <trkpt lat="43.43533" lon="0.56585">
        <ele>240.355</ele>
        <time>2015-04-30T09:59:20Z</time>
      </trkpt>
      <trkpt lat="43.43531" lon="0.56581">
        <ele>241.643</ele>
        <time>2015-04-30T09:59:40Z</time>
      </trkpt>
      <trkpt lat="43.43532" lon="0.56581">
        <ele>239.846</ele>
        <time>2015-04-30T10:00:01Z</time>
      </trkpt>
      <trkpt lat="43.43528" lon="0.56574">
        <ele>239.312</ele>
        <time>2015-04-30T10:01:25Z</time>
      </trkpt>
      <trkpt lat="43.43528" lon="0.56574">
        <ele>241.316</ele>
        <time>2015-04-30T10:01:27Z</time>
      </trkpt>
      <trkpt lat="43.43527" lon="0.56577">
        <ele>240.048</ele>
        <time>2015-04-30T10:01:48Z</time>
      </trkpt>
      <trkpt lat="43.43531" lon="0.56577">
        <ele>240.749</ele>
        <time>2015-04-30T10:03:04Z</time>
      </trkpt>
      <trkpt lat="43.43528" lon="0.56579">
        <ele>240.997</ele>
        <time>2015-04-30T10:04:07Z</time>
      </trkpt>
      <trkpt lat="43.43529" lon="0.56578">
        <ele>242.648</ele>
        <time>2015-04-30T10:04:09Z</time>
      </trkpt>
      <trkpt lat="43.4353" lon="0.56578">
        <ele>242.328</ele>
        <time>2015-04-30T10:04:45Z</time>
      </trkpt>
      <trkpt lat="43.4353" lon="0.56577">
        <ele>240.945</ele>
        <time>2015-04-30T10:04:47Z</time>
      </trkpt>
      <trkpt lat="43.43527" lon="0.56574">
        <ele>242.225</ele>
        <time>2015-04-30T10:05:12Z</time>
      </trkpt>
      <trkpt lat="43.43523" lon="0.56579">
        <ele>240.888</ele>
        <time>2015-04-30T10:05:44Z</time>
      </trkpt>
      <trkpt lat="43.43524" lon="0.56578">
        <ele>242.346</ele>
        <time>2015-04-30T10:05:46Z</time>
      </trkpt>
    </trkseg>
  </trk>
  <trk>
    <name><![CDATA[ACTIVE LOG120619]]></name>
    <trkseg>
      <trkpt lat="43.43529" lon="0.56577">
        <ele>241.918</ele>
        <time>2015-04-30T10:06:18Z</time>
      </trkpt>
      <trkpt lat="43.43534" lon="0.5658">
        <ele>241.146</ele>
        <time>2015-04-30T10:06:49Z</time>
      </trkpt>
      <trkpt lat="43.43532" lon="0.56576">
        <ele>243.292</ele>
        <time>2015-04-30T10:07:12Z</time>
      </trkpt>
      <trkpt lat="43.4353" lon="0.56579">
        <ele>241.058</ele>
        <time>2015-04-30T10:07:33Z</time>
      </trkpt>
      <trkpt lat="43.4353" lon="0.56579">
        <ele>242.653</ele>
        <time>2015-04-30T10:07:35Z</time>
      </trkpt>
      <trkpt lat="43.4353" lon="0.56579">
        <ele>242.41</ele>
        <time>2015-04-30T10:08:13Z</time>
      </trkpt>
      <trkpt lat="43.43529" lon="0.56579">
        <ele>242.225</ele>
        <time>2015-04-30T10:08:28Z</time>
      </trkpt>
      <trkpt lat="43.43529" lon="0.5658">
        <ele>243.332</ele>
        <time>2015-04-30T10:08:34Z</time>
      </trkpt>
      <trkpt lat="43.43529" lon="0.5658">
        <ele>242.091</ele>
        <time>2015-04-30T10:08:36Z</time>
      </trkpt>
      <trkpt lat="43.43527" lon="0.5658">
        <ele>241.207</ele>
        <time>2015-04-30T10:08:43Z</time>
      </trkpt>
      <trkpt lat="43.43527" lon="0.56579">
        <ele>242.781</ele>
        <time>2015-04-30T10:09:02Z</time>
      </trkpt>
      <trkpt lat="43.43524" lon="0.56582">
        <ele>242.433</ele>
        <time>2015-04-30T10:09:31Z</time>
      </trkpt>
      <trkpt lat="43.43528" lon="0.56574">
        <ele>242.297</ele>
        <time>2015-04-30T10:09:53Z</time>
      </trkpt>
    </trkseg>
  </trk>
</gpx>